<?xml version="1.0" encoding="UTF-8" standalone="no" ?>
<gpx xmlns="http://www.topografix.com/GPX/1/1" xmlns:xsi="http://www.w3.org/2001/XMLSchema-instance" xsi:schemaLocation="http://www.topografix.com/GPX/1/1 http://www.topografix.com/GPX/1/1/gpx.xsd" version="1.1" creator="VisuGPX - https://www.visugpx.com">
  <metadata>
    <name>ENFER VERT 2014</name>
    <desc><![CDATA[sORTIE ENFER VERT 2014 CIRCUIT 28 KM]]></desc>
  </metadata>
  <trk>
    <name><![CDATA[ENFER VERT 2014]]></name>
    <trkseg>
      <trkpt lat="50.13584" lon="3.76353">
        <ele>159.24</ele>
        <time>2014-04-06T07:12:05Z</time>
      </trkpt>
      <trkpt lat="50.13587" lon="3.76353">
        <ele>159.24</ele>
        <time>2014-04-06T07:12:06Z</time>
      </trkpt>
      <trkpt lat="50.13624" lon="3.76351">
        <ele>160.2</ele>
        <time>2014-04-06T07:12:21Z</time>
      </trkpt>
      <trkpt lat="50.13668" lon="3.76335">
        <ele>160.2</ele>
        <time>2014-04-06T07:12:37Z</time>
      </trkpt>
      <trkpt lat="50.13689" lon="3.76321">
        <ele>159.24</ele>
        <time>2014-04-06T07:12:44Z</time>
      </trkpt>
      <trkpt lat="50.13684" lon="3.76294">
        <ele>158.75</ele>
        <time>2014-04-06T07:12:49Z</time>
      </trkpt>
      <trkpt lat="50.13699" lon="3.76281">
        <ele>158.27</ele>
        <time>2014-04-06T07:12:55Z</time>
      </trkpt>
      <trkpt lat="50.13748" lon="3.76314">
        <ele>157.79</ele>
        <time>2014-04-06T07:13:12Z</time>
      </trkpt>
      <trkpt lat="50.13783" lon="3.76352">
        <ele>159.24</ele>
        <time>2014-04-06T07:13:26Z</time>
      </trkpt>
      <trkpt lat="50.13823" lon="3.76374">
        <ele>160.2</ele>
        <time>2014-04-06T07:13:40Z</time>
      </trkpt>
      <trkpt lat="50.13833" lon="3.7638">
        <ele>160.68</ele>
        <time>2014-04-06T07:13:52Z</time>
      </trkpt>
      <trkpt lat="50.13834" lon="3.76379">
        <ele>160.68</ele>
        <time>2014-04-06T07:14:02Z</time>
      </trkpt>
      <trkpt lat="50.13838" lon="3.76379">
        <ele>160.68</ele>
        <time>2014-04-06T07:14:05Z</time>
      </trkpt>
      <trkpt lat="50.13839" lon="3.7638">
        <ele>160.68</ele>
        <time>2014-04-06T07:14:06Z</time>
      </trkpt>
      <trkpt lat="50.13842" lon="3.76381">
        <ele>160.68</ele>
        <time>2014-04-06T07:14:07Z</time>
      </trkpt>
      <trkpt lat="50.13851" lon="3.76428">
        <ele>162.12</ele>
        <time>2014-04-06T07:14:19Z</time>
      </trkpt>
      <trkpt lat="50.1385" lon="3.76444">
        <ele>162.6</ele>
        <time>2014-04-06T07:14:24Z</time>
      </trkpt>
      <trkpt lat="50.1385" lon="3.76462">
        <ele>162.6</ele>
        <time>2014-04-06T07:14:30Z</time>
      </trkpt>
      <trkpt lat="50.13851" lon="3.76465">
        <ele>162.6</ele>
        <time>2014-04-06T07:14:31Z</time>
      </trkpt>
      <trkpt lat="50.13851" lon="3.76469">
        <ele>163.08</ele>
        <time>2014-04-06T07:14:32Z</time>
      </trkpt>
      <trkpt lat="50.13851" lon="3.76474">
        <ele>163.08</ele>
        <time>2014-04-06T07:14:33Z</time>
      </trkpt>
      <trkpt lat="50.13851" lon="3.76479">
        <ele>163.08</ele>
        <time>2014-04-06T07:14:34Z</time>
      </trkpt>
      <trkpt lat="50.13851" lon="3.76485">
        <ele>163.08</ele>
        <time>2014-04-06T07:14:35Z</time>
      </trkpt>
      <trkpt lat="50.13856" lon="3.76536">
        <ele>164.04</ele>
        <time>2014-04-06T07:14:48Z</time>
      </trkpt>
      <trkpt lat="50.13865" lon="3.7659">
        <ele>165</ele>
        <time>2014-04-06T07:15:02Z</time>
      </trkpt>
      <trkpt lat="50.1387" lon="3.76648">
        <ele>165</ele>
        <time>2014-04-06T07:15:16Z</time>
      </trkpt>
      <trkpt lat="50.13884" lon="3.76734">
        <ele>166.93</ele>
        <time>2014-04-06T07:15:32Z</time>
      </trkpt>
      <trkpt lat="50.13924" lon="3.76824">
        <ele>167.41</ele>
        <time>2014-04-06T07:15:51Z</time>
      </trkpt>
      <trkpt lat="50.13972" lon="3.76864">
        <ele>167.41</ele>
        <time>2014-04-06T07:16:04Z</time>
      </trkpt>
      <trkpt lat="50.14024" lon="3.76892">
        <ele>167.41</ele>
        <time>2014-04-06T07:16:17Z</time>
      </trkpt>
      <trkpt lat="50.14072" lon="3.76915">
        <ele>165.96</ele>
        <time>2014-04-06T07:16:26Z</time>
      </trkpt>
      <trkpt lat="50.14098" lon="3.7694">
        <ele>165.96</ele>
        <time>2014-04-06T07:16:31Z</time>
      </trkpt>
      <trkpt lat="50.14102" lon="3.76944">
        <ele>165.96</ele>
        <time>2014-04-06T07:16:32Z</time>
      </trkpt>
      <trkpt lat="50.14105" lon="3.76948">
        <ele>165.96</ele>
        <time>2014-04-06T07:16:33Z</time>
      </trkpt>
      <trkpt lat="50.14108" lon="3.76953">
        <ele>165.96</ele>
        <time>2014-04-06T07:16:34Z</time>
      </trkpt>
      <trkpt lat="50.14111" lon="3.76958">
        <ele>165.96</ele>
        <time>2014-04-06T07:16:35Z</time>
      </trkpt>
      <trkpt lat="50.14114" lon="3.76963">
        <ele>165.48</ele>
        <time>2014-04-06T07:16:36Z</time>
      </trkpt>
      <trkpt lat="50.14117" lon="3.76969">
        <ele>165.48</ele>
        <time>2014-04-06T07:16:37Z</time>
      </trkpt>
      <trkpt lat="50.14121" lon="3.76972">
        <ele>165.48</ele>
        <time>2014-04-06T07:16:38Z</time>
      </trkpt>
      <trkpt lat="50.14126" lon="3.76973">
        <ele>165</ele>
        <time>2014-04-06T07:16:39Z</time>
      </trkpt>
      <trkpt lat="50.1413" lon="3.76973">
        <ele>165</ele>
        <time>2014-04-06T07:16:40Z</time>
      </trkpt>
      <trkpt lat="50.14135" lon="3.76971">
        <ele>165</ele>
        <time>2014-04-06T07:16:41Z</time>
      </trkpt>
      <trkpt lat="50.14139" lon="3.76968">
        <ele>164.52</ele>
        <time>2014-04-06T07:16:42Z</time>
      </trkpt>
      <trkpt lat="50.14144" lon="3.76965">
        <ele>164.52</ele>
        <time>2014-04-06T07:16:43Z</time>
      </trkpt>
      <trkpt lat="50.14148" lon="3.76963">
        <ele>164.04</ele>
        <time>2014-04-06T07:16:44Z</time>
      </trkpt>
      <trkpt lat="50.14182" lon="3.76948">
        <ele>162.6</ele>
        <time>2014-04-06T07:16:55Z</time>
      </trkpt>
      <trkpt lat="50.14219" lon="3.76935">
        <ele>160.68</ele>
        <time>2014-04-06T07:17:09Z</time>
      </trkpt>
      <trkpt lat="50.14252" lon="3.76921">
        <ele>159.72</ele>
        <time>2014-04-06T07:17:23Z</time>
      </trkpt>
      <trkpt lat="50.14286" lon="3.76901">
        <ele>157.79</ele>
        <time>2014-04-06T07:17:38Z</time>
      </trkpt>
      <trkpt lat="50.14314" lon="3.76882">
        <ele>156.83</ele>
        <time>2014-04-06T07:17:51Z</time>
      </trkpt>
      <trkpt lat="50.14342" lon="3.76867">
        <ele>156.35</ele>
        <time>2014-04-06T07:18:02Z</time>
      </trkpt>
      <trkpt lat="50.14372" lon="3.76851">
        <ele>154.91</ele>
        <time>2014-04-06T07:18:12Z</time>
      </trkpt>
      <trkpt lat="50.14416" lon="3.76837">
        <ele>153.47</ele>
        <time>2014-04-06T07:18:26Z</time>
      </trkpt>
      <trkpt lat="50.14449" lon="3.7682">
        <ele>151.06</ele>
        <time>2014-04-06T07:18:36Z</time>
      </trkpt>
      <trkpt lat="50.14486" lon="3.76802">
        <ele>149.62</ele>
        <time>2014-04-06T07:18:47Z</time>
      </trkpt>
      <trkpt lat="50.14519" lon="3.76776">
        <ele>148.18</ele>
        <time>2014-04-06T07:19:00Z</time>
      </trkpt>
      <trkpt lat="50.14549" lon="3.7675">
        <ele>146.74</ele>
        <time>2014-04-06T07:19:09Z</time>
      </trkpt>
      <trkpt lat="50.14584" lon="3.76699">
        <ele>145.78</ele>
        <time>2014-04-06T07:19:21Z</time>
      </trkpt>
      <trkpt lat="50.14591" lon="3.76698">
        <ele>144.82</ele>
        <time>2014-04-06T07:19:23Z</time>
      </trkpt>
      <trkpt lat="50.14595" lon="3.767">
        <ele>144.82</ele>
        <time>2014-04-06T07:19:24Z</time>
      </trkpt>
      <trkpt lat="50.14598" lon="3.76703">
        <ele>144.82</ele>
        <time>2014-04-06T07:19:25Z</time>
      </trkpt>
      <trkpt lat="50.14599" lon="3.76707">
        <ele>144.82</ele>
        <time>2014-04-06T07:19:26Z</time>
      </trkpt>
      <trkpt lat="50.14601" lon="3.76709">
        <ele>144.82</ele>
        <time>2014-04-06T07:19:27Z</time>
      </trkpt>
      <trkpt lat="50.14604" lon="3.76711">
        <ele>144.82</ele>
        <time>2014-04-06T07:19:40Z</time>
      </trkpt>
      <trkpt lat="50.14609" lon="3.76725">
        <ele>144.34</ele>
        <time>2014-04-06T07:20:04Z</time>
      </trkpt>
      <trkpt lat="50.14611" lon="3.7673">
        <ele>144.34</ele>
        <time>2014-04-06T07:20:06Z</time>
      </trkpt>
      <trkpt lat="50.14612" lon="3.76731">
        <ele>144.34</ele>
        <time>2014-04-06T07:20:07Z</time>
      </trkpt>
      <trkpt lat="50.14612" lon="3.76733">
        <ele>144.34</ele>
        <time>2014-04-06T07:20:08Z</time>
      </trkpt>
      <trkpt lat="50.14613" lon="3.76735">
        <ele>144.34</ele>
        <time>2014-04-06T07:20:09Z</time>
      </trkpt>
      <trkpt lat="50.14615" lon="3.76738">
        <ele>144.34</ele>
        <time>2014-04-06T07:20:23Z</time>
      </trkpt>
      <trkpt lat="50.14614" lon="3.7674">
        <ele>144.34</ele>
        <time>2014-04-06T07:20:44Z</time>
      </trkpt>
      <trkpt lat="50.14614" lon="3.76743">
        <ele>144.34</ele>
        <time>2014-04-06T07:20:45Z</time>
      </trkpt>
      <trkpt lat="50.14636" lon="3.76789">
        <ele>144.34</ele>
        <time>2014-04-06T07:20:55Z</time>
      </trkpt>
      <trkpt lat="50.14675" lon="3.76844">
        <ele>142.41</ele>
        <time>2014-04-06T07:21:06Z</time>
      </trkpt>
      <trkpt lat="50.14684" lon="3.76853">
        <ele>141.93</ele>
        <time>2014-04-06T07:21:08Z</time>
      </trkpt>
      <trkpt lat="50.14749" lon="3.76907">
        <ele>141.93</ele>
        <time>2014-04-06T07:21:22Z</time>
      </trkpt>
      <trkpt lat="50.14811" lon="3.76957">
        <ele>140.97</ele>
        <time>2014-04-06T07:21:37Z</time>
      </trkpt>
      <trkpt lat="50.14873" lon="3.7703">
        <ele>138.57</ele>
        <time>2014-04-06T07:21:51Z</time>
      </trkpt>
      <trkpt lat="50.14878" lon="3.77034">
        <ele>138.09</ele>
        <time>2014-04-06T07:21:52Z</time>
      </trkpt>
      <trkpt lat="50.14882" lon="3.77036">
        <ele>138.09</ele>
        <time>2014-04-06T07:21:53Z</time>
      </trkpt>
      <trkpt lat="50.14887" lon="3.77037">
        <ele>137.13</ele>
        <time>2014-04-06T07:21:54Z</time>
      </trkpt>
      <trkpt lat="50.14892" lon="3.77037">
        <ele>136.64</ele>
        <time>2014-04-06T07:21:55Z</time>
      </trkpt>
      <trkpt lat="50.14911" lon="3.77032">
        <ele>136.16</ele>
        <time>2014-04-06T07:22:01Z</time>
      </trkpt>
      <trkpt lat="50.14912" lon="3.77028">
        <ele>136.16</ele>
        <time>2014-04-06T07:22:02Z</time>
      </trkpt>
      <trkpt lat="50.14912" lon="3.77023">
        <ele>136.16</ele>
        <time>2014-04-06T07:22:03Z</time>
      </trkpt>
      <trkpt lat="50.14911" lon="3.77018">
        <ele>136.16</ele>
        <time>2014-04-06T07:22:04Z</time>
      </trkpt>
      <trkpt lat="50.14911" lon="3.77013">
        <ele>136.16</ele>
        <time>2014-04-06T07:22:05Z</time>
      </trkpt>
      <trkpt lat="50.14899" lon="3.76946">
        <ele>137.61</ele>
        <time>2014-04-06T07:22:17Z</time>
      </trkpt>
      <trkpt lat="50.14883" lon="3.76882">
        <ele>137.61</ele>
        <time>2014-04-06T07:22:29Z</time>
      </trkpt>
      <trkpt lat="50.14869" lon="3.76822">
        <ele>137.61</ele>
        <time>2014-04-06T07:22:41Z</time>
      </trkpt>
      <trkpt lat="50.14839" lon="3.76752">
        <ele>137.61</ele>
        <time>2014-04-06T07:22:57Z</time>
      </trkpt>
      <trkpt lat="50.14824" lon="3.76686">
        <ele>138.09</ele>
        <time>2014-04-06T07:23:10Z</time>
      </trkpt>
      <trkpt lat="50.14808" lon="3.76617">
        <ele>138.57</ele>
        <time>2014-04-06T07:23:24Z</time>
      </trkpt>
      <trkpt lat="50.14795" lon="3.76552">
        <ele>137.61</ele>
        <time>2014-04-06T07:23:36Z</time>
      </trkpt>
      <trkpt lat="50.14779" lon="3.76481">
        <ele>137.61</ele>
        <time>2014-04-06T07:23:49Z</time>
      </trkpt>
      <trkpt lat="50.14756" lon="3.76391">
        <ele>137.13</ele>
        <time>2014-04-06T07:24:06Z</time>
      </trkpt>
      <trkpt lat="50.14735" lon="3.76318">
        <ele>137.13</ele>
        <time>2014-04-06T07:24:20Z</time>
      </trkpt>
      <trkpt lat="50.14715" lon="3.76264">
        <ele>137.13</ele>
        <time>2014-04-06T07:24:32Z</time>
      </trkpt>
      <trkpt lat="50.14681" lon="3.7622">
        <ele>137.13</ele>
        <time>2014-04-06T07:24:46Z</time>
      </trkpt>
      <trkpt lat="50.14658" lon="3.76193">
        <ele>138.09</ele>
        <time>2014-04-06T07:24:55Z</time>
      </trkpt>
      <trkpt lat="50.14615" lon="3.7613">
        <ele>139.53</ele>
        <time>2014-04-06T07:25:12Z</time>
      </trkpt>
      <trkpt lat="50.14591" lon="3.76059">
        <ele>141.45</ele>
        <time>2014-04-06T07:25:26Z</time>
      </trkpt>
      <trkpt lat="50.14576" lon="3.76016">
        <ele>142.41</ele>
        <time>2014-04-06T07:25:39Z</time>
      </trkpt>
      <trkpt lat="50.14575" lon="3.76014">
        <ele>142.41</ele>
        <time>2014-04-06T07:25:47Z</time>
      </trkpt>
      <trkpt lat="50.14574" lon="3.76012">
        <ele>142.41</ele>
        <time>2014-04-06T07:25:48Z</time>
      </trkpt>
      <trkpt lat="50.14573" lon="3.76009">
        <ele>142.41</ele>
        <time>2014-04-06T07:25:49Z</time>
      </trkpt>
      <trkpt lat="50.14572" lon="3.76005">
        <ele>142.41</ele>
        <time>2014-04-06T07:25:50Z</time>
      </trkpt>
      <trkpt lat="50.14571" lon="3.76001">
        <ele>142.41</ele>
        <time>2014-04-06T07:25:51Z</time>
      </trkpt>
      <trkpt lat="50.14568" lon="3.75955">
        <ele>142.41</ele>
        <time>2014-04-06T07:26:00Z</time>
      </trkpt>
      <trkpt lat="50.1456" lon="3.75871">
        <ele>142.41</ele>
        <time>2014-04-06T07:26:14Z</time>
      </trkpt>
      <trkpt lat="50.14559" lon="3.75865">
        <ele>142.41</ele>
        <time>2014-04-06T07:26:15Z</time>
      </trkpt>
      <trkpt lat="50.1455" lon="3.75769">
        <ele>142.41</ele>
        <time>2014-04-06T07:26:31Z</time>
      </trkpt>
      <trkpt lat="50.14544" lon="3.75683">
        <ele>142.41</ele>
        <time>2014-04-06T07:26:48Z</time>
      </trkpt>
      <trkpt lat="50.14543" lon="3.75633">
        <ele>142.41</ele>
        <time>2014-04-06T07:27:02Z</time>
      </trkpt>
      <trkpt lat="50.14545" lon="3.75631">
        <ele>142.41</ele>
        <time>2014-04-06T07:27:03Z</time>
      </trkpt>
      <trkpt lat="50.14581" lon="3.75608">
        <ele>140.97</ele>
        <time>2014-04-06T07:27:14Z</time>
      </trkpt>
      <trkpt lat="50.14649" lon="3.7556">
        <ele>139.05</ele>
        <time>2014-04-06T07:27:27Z</time>
      </trkpt>
      <trkpt lat="50.14702" lon="3.7553">
        <ele>136.64</ele>
        <time>2014-04-06T07:27:35Z</time>
      </trkpt>
      <trkpt lat="50.14774" lon="3.75517">
        <ele>133.76</ele>
        <time>2014-04-06T07:27:44Z</time>
      </trkpt>
      <trkpt lat="50.14812" lon="3.75513">
        <ele>133.28</ele>
        <time>2014-04-06T07:27:50Z</time>
      </trkpt>
      <trkpt lat="50.14825" lon="3.75508">
        <ele>133.28</ele>
        <time>2014-04-06T07:27:53Z</time>
      </trkpt>
      <trkpt lat="50.1483" lon="3.75505">
        <ele>133.28</ele>
        <time>2014-04-06T07:27:54Z</time>
      </trkpt>
      <trkpt lat="50.14833" lon="3.75498">
        <ele>132.8</ele>
        <time>2014-04-06T07:27:55Z</time>
      </trkpt>
      <trkpt lat="50.14836" lon="3.75491">
        <ele>132.8</ele>
        <time>2014-04-06T07:27:56Z</time>
      </trkpt>
      <trkpt lat="50.14838" lon="3.75485">
        <ele>132.8</ele>
        <time>2014-04-06T07:27:57Z</time>
      </trkpt>
      <trkpt lat="50.14839" lon="3.75477">
        <ele>132.8</ele>
        <time>2014-04-06T07:27:58Z</time>
      </trkpt>
      <trkpt lat="50.14841" lon="3.75469">
        <ele>132.32</ele>
        <time>2014-04-06T07:27:59Z</time>
      </trkpt>
      <trkpt lat="50.14843" lon="3.7546">
        <ele>132.32</ele>
        <time>2014-04-06T07:28:00Z</time>
      </trkpt>
      <trkpt lat="50.14844" lon="3.75452">
        <ele>132.32</ele>
        <time>2014-04-06T07:28:01Z</time>
      </trkpt>
      <trkpt lat="50.14852" lon="3.75323">
        <ele>132.32</ele>
        <time>2014-04-06T07:28:17Z</time>
      </trkpt>
      <trkpt lat="50.14853" lon="3.75315">
        <ele>132.32</ele>
        <time>2014-04-06T07:28:18Z</time>
      </trkpt>
      <trkpt lat="50.14854" lon="3.75285">
        <ele>132.32</ele>
        <time>2014-04-06T07:28:22Z</time>
      </trkpt>
      <trkpt lat="50.14855" lon="3.75277">
        <ele>132.32</ele>
        <time>2014-04-06T07:28:23Z</time>
      </trkpt>
      <trkpt lat="50.14858" lon="3.75219">
        <ele>132.32</ele>
        <time>2014-04-06T07:28:31Z</time>
      </trkpt>
      <trkpt lat="50.14858" lon="3.75212">
        <ele>132.32</ele>
        <time>2014-04-06T07:28:32Z</time>
      </trkpt>
      <trkpt lat="50.14875" lon="3.75104">
        <ele>131.84</ele>
        <time>2014-04-06T07:28:48Z</time>
      </trkpt>
      <trkpt lat="50.14875" lon="3.75097">
        <ele>131.84</ele>
        <time>2014-04-06T07:28:49Z</time>
      </trkpt>
      <trkpt lat="50.14876" lon="3.75091">
        <ele>131.84</ele>
        <time>2014-04-06T07:28:50Z</time>
      </trkpt>
      <trkpt lat="50.14879" lon="3.74989">
        <ele>131.84</ele>
        <time>2014-04-06T07:29:05Z</time>
      </trkpt>
      <trkpt lat="50.14878" lon="3.74853">
        <ele>131.84</ele>
        <time>2014-04-06T07:29:25Z</time>
      </trkpt>
      <trkpt lat="50.14878" lon="3.74846">
        <ele>131.84</ele>
        <time>2014-04-06T07:29:26Z</time>
      </trkpt>
      <trkpt lat="50.14879" lon="3.74839">
        <ele>131.84</ele>
        <time>2014-04-06T07:29:27Z</time>
      </trkpt>
      <trkpt lat="50.14881" lon="3.74833">
        <ele>131.84</ele>
        <time>2014-04-06T07:29:28Z</time>
      </trkpt>
      <trkpt lat="50.14883" lon="3.74827">
        <ele>131.84</ele>
        <time>2014-04-06T07:29:29Z</time>
      </trkpt>
      <trkpt lat="50.14885" lon="3.74821">
        <ele>131.84</ele>
        <time>2014-04-06T07:29:30Z</time>
      </trkpt>
      <trkpt lat="50.14888" lon="3.74816">
        <ele>131.84</ele>
        <time>2014-04-06T07:29:31Z</time>
      </trkpt>
      <trkpt lat="50.14892" lon="3.74811">
        <ele>131.84</ele>
        <time>2014-04-06T07:29:32Z</time>
      </trkpt>
      <trkpt lat="50.1493" lon="3.74769">
        <ele>131.84</ele>
        <time>2014-04-06T07:29:42Z</time>
      </trkpt>
      <trkpt lat="50.14979" lon="3.74717">
        <ele>131.84</ele>
        <time>2014-04-06T07:29:56Z</time>
      </trkpt>
      <trkpt lat="50.15032" lon="3.74659">
        <ele>131.84</ele>
        <time>2014-04-06T07:30:11Z</time>
      </trkpt>
      <trkpt lat="50.15044" lon="3.74646">
        <ele>131.84</ele>
        <time>2014-04-06T07:30:14Z</time>
      </trkpt>
      <trkpt lat="50.15113" lon="3.7459">
        <ele>131.84</ele>
        <time>2014-04-06T07:30:30Z</time>
      </trkpt>
      <trkpt lat="50.15179" lon="3.74523">
        <ele>131.84</ele>
        <time>2014-04-06T07:30:46Z</time>
      </trkpt>
      <trkpt lat="50.15242" lon="3.74461">
        <ele>131.84</ele>
        <time>2014-04-06T07:31:01Z</time>
      </trkpt>
      <trkpt lat="50.15309" lon="3.74405">
        <ele>131.84</ele>
        <time>2014-04-06T07:31:17Z</time>
      </trkpt>
      <trkpt lat="50.1533" lon="3.74388">
        <ele>131.84</ele>
        <time>2014-04-06T07:31:22Z</time>
      </trkpt>
      <trkpt lat="50.15334" lon="3.74386">
        <ele>131.84</ele>
        <time>2014-04-06T07:31:23Z</time>
      </trkpt>
      <trkpt lat="50.15343" lon="3.74384">
        <ele>131.84</ele>
        <time>2014-04-06T07:31:25Z</time>
      </trkpt>
      <trkpt lat="50.15348" lon="3.74384">
        <ele>131.84</ele>
        <time>2014-04-06T07:31:26Z</time>
      </trkpt>
      <trkpt lat="50.15352" lon="3.74386">
        <ele>131.84</ele>
        <time>2014-04-06T07:31:27Z</time>
      </trkpt>
      <trkpt lat="50.15401" lon="3.74407">
        <ele>131.84</ele>
        <time>2014-04-06T07:31:38Z</time>
      </trkpt>
      <trkpt lat="50.15405" lon="3.74408">
        <ele>131.84</ele>
        <time>2014-04-06T07:31:39Z</time>
      </trkpt>
      <trkpt lat="50.15484" lon="3.74433">
        <ele>131.84</ele>
        <time>2014-04-06T07:31:56Z</time>
      </trkpt>
      <trkpt lat="50.15508" lon="3.74442">
        <ele>133.28</ele>
        <time>2014-04-06T07:32:03Z</time>
      </trkpt>
      <trkpt lat="50.15511" lon="3.74442">
        <ele>133.28</ele>
        <time>2014-04-06T07:32:04Z</time>
      </trkpt>
      <trkpt lat="50.15513" lon="3.7444">
        <ele>133.28</ele>
        <time>2014-04-06T07:32:05Z</time>
      </trkpt>
      <trkpt lat="50.15539" lon="3.74406">
        <ele>134.24</ele>
        <time>2014-04-06T07:32:17Z</time>
      </trkpt>
      <trkpt lat="50.15564" lon="3.74384">
        <ele>134.72</ele>
        <time>2014-04-06T07:32:24Z</time>
      </trkpt>
      <trkpt lat="50.15568" lon="3.74381">
        <ele>134.72</ele>
        <time>2014-04-06T07:32:25Z</time>
      </trkpt>
      <trkpt lat="50.15572" lon="3.74377">
        <ele>134.72</ele>
        <time>2014-04-06T07:32:26Z</time>
      </trkpt>
      <trkpt lat="50.15623" lon="3.74357">
        <ele>136.16</ele>
        <time>2014-04-06T07:32:40Z</time>
      </trkpt>
      <trkpt lat="50.15668" lon="3.74347">
        <ele>136.16</ele>
        <time>2014-04-06T07:32:54Z</time>
      </trkpt>
      <trkpt lat="50.15692" lon="3.74338">
        <ele>134.72</ele>
        <time>2014-04-06T07:32:59Z</time>
      </trkpt>
      <trkpt lat="50.15761" lon="3.74296">
        <ele>132.8</ele>
        <time>2014-04-06T07:33:11Z</time>
      </trkpt>
      <trkpt lat="50.15766" lon="3.74294">
        <ele>132.8</ele>
        <time>2014-04-06T07:33:12Z</time>
      </trkpt>
      <trkpt lat="50.15771" lon="3.74292">
        <ele>132.8</ele>
        <time>2014-04-06T07:33:13Z</time>
      </trkpt>
      <trkpt lat="50.1578" lon="3.74291">
        <ele>132.8</ele>
        <time>2014-04-06T07:33:15Z</time>
      </trkpt>
      <trkpt lat="50.15796" lon="3.74295">
        <ele>134.24</ele>
        <time>2014-04-06T07:33:19Z</time>
      </trkpt>
      <trkpt lat="50.15849" lon="3.74308">
        <ele>135.68</ele>
        <time>2014-04-06T07:33:32Z</time>
      </trkpt>
      <trkpt lat="50.1586" lon="3.74312">
        <ele>134.24</ele>
        <time>2014-04-06T07:33:34Z</time>
      </trkpt>
      <trkpt lat="50.15915" lon="3.74327">
        <ele>133.28</ele>
        <time>2014-04-06T07:33:45Z</time>
      </trkpt>
      <trkpt lat="50.15991" lon="3.74347">
        <ele>134.72</ele>
        <time>2014-04-06T07:34:01Z</time>
      </trkpt>
      <trkpt lat="50.16044" lon="3.7436">
        <ele>135.2</ele>
        <time>2014-04-06T07:34:12Z</time>
      </trkpt>
      <trkpt lat="50.16048" lon="3.74361">
        <ele>135.68</ele>
        <time>2014-04-06T07:34:13Z</time>
      </trkpt>
      <trkpt lat="50.16053" lon="3.74361">
        <ele>135.68</ele>
        <time>2014-04-06T07:34:14Z</time>
      </trkpt>
      <trkpt lat="50.16058" lon="3.74362">
        <ele>135.68</ele>
        <time>2014-04-06T07:34:15Z</time>
      </trkpt>
      <trkpt lat="50.16063" lon="3.74361">
        <ele>135.68</ele>
        <time>2014-04-06T07:34:16Z</time>
      </trkpt>
      <trkpt lat="50.16067" lon="3.74361">
        <ele>135.68</ele>
        <time>2014-04-06T07:34:17Z</time>
      </trkpt>
      <trkpt lat="50.16117" lon="3.74341">
        <ele>136.64</ele>
        <time>2014-04-06T07:34:28Z</time>
      </trkpt>
      <trkpt lat="50.16184" lon="3.74347">
        <ele>137.61</ele>
        <time>2014-04-06T07:34:42Z</time>
      </trkpt>
      <trkpt lat="50.16249" lon="3.7437">
        <ele>137.61</ele>
        <time>2014-04-06T07:34:56Z</time>
      </trkpt>
      <trkpt lat="50.16286" lon="3.74378">
        <ele>137.61</ele>
        <time>2014-04-06T07:35:05Z</time>
      </trkpt>
      <trkpt lat="50.16288" lon="3.74381">
        <ele>137.61</ele>
        <time>2014-04-06T07:35:06Z</time>
      </trkpt>
      <trkpt lat="50.16287" lon="3.74387">
        <ele>137.61</ele>
        <time>2014-04-06T07:35:07Z</time>
      </trkpt>
      <trkpt lat="50.16287" lon="3.74392">
        <ele>137.61</ele>
        <time>2014-04-06T07:35:08Z</time>
      </trkpt>
      <trkpt lat="50.16286" lon="3.74399">
        <ele>137.61</ele>
        <time>2014-04-06T07:35:09Z</time>
      </trkpt>
      <trkpt lat="50.16284" lon="3.74406">
        <ele>137.61</ele>
        <time>2014-04-06T07:35:10Z</time>
      </trkpt>
      <trkpt lat="50.16283" lon="3.74413">
        <ele>137.61</ele>
        <time>2014-04-06T07:35:11Z</time>
      </trkpt>
      <trkpt lat="50.16279" lon="3.74434">
        <ele>137.61</ele>
        <time>2014-04-06T07:35:14Z</time>
      </trkpt>
      <trkpt lat="50.16266" lon="3.7449">
        <ele>137.61</ele>
        <time>2014-04-06T07:35:27Z</time>
      </trkpt>
      <trkpt lat="50.16265" lon="3.7449">
        <ele>137.61</ele>
        <time>2014-04-06T07:35:45Z</time>
      </trkpt>
      <trkpt lat="50.16265" lon="3.74494">
        <ele>137.61</ele>
        <time>2014-04-06T07:35:48Z</time>
      </trkpt>
      <trkpt lat="50.16264" lon="3.74496">
        <ele>137.61</ele>
        <time>2014-04-06T07:35:49Z</time>
      </trkpt>
      <trkpt lat="50.16264" lon="3.74498">
        <ele>137.61</ele>
        <time>2014-04-06T07:35:50Z</time>
      </trkpt>
      <trkpt lat="50.16263" lon="3.74502">
        <ele>137.61</ele>
        <time>2014-04-06T07:35:51Z</time>
      </trkpt>
      <trkpt lat="50.16262" lon="3.74505">
        <ele>138.09</ele>
        <time>2014-04-06T07:35:52Z</time>
      </trkpt>
      <trkpt lat="50.16253" lon="3.74546">
        <ele>139.53</ele>
        <time>2014-04-06T07:36:02Z</time>
      </trkpt>
      <trkpt lat="50.16241" lon="3.7461">
        <ele>141.45</ele>
        <time>2014-04-06T07:36:15Z</time>
      </trkpt>
      <trkpt lat="50.16227" lon="3.74672">
        <ele>142.41</ele>
        <time>2014-04-06T07:36:27Z</time>
      </trkpt>
      <trkpt lat="50.16205" lon="3.74772">
        <ele>143.85</ele>
        <time>2014-04-06T07:36:43Z</time>
      </trkpt>
      <trkpt lat="50.16193" lon="3.74832">
        <ele>144.82</ele>
        <time>2014-04-06T07:36:54Z</time>
      </trkpt>
      <trkpt lat="50.16185" lon="3.74866">
        <ele>145.3</ele>
        <time>2014-04-06T07:37:00Z</time>
      </trkpt>
      <trkpt lat="50.16183" lon="3.74873">
        <ele>145.3</ele>
        <time>2014-04-06T07:37:01Z</time>
      </trkpt>
      <trkpt lat="50.16181" lon="3.74879">
        <ele>145.3</ele>
        <time>2014-04-06T07:37:02Z</time>
      </trkpt>
      <trkpt lat="50.16162" lon="3.74968">
        <ele>144.82</ele>
        <time>2014-04-06T07:37:16Z</time>
      </trkpt>
      <trkpt lat="50.1616" lon="3.74975">
        <ele>144.82</ele>
        <time>2014-04-06T07:37:17Z</time>
      </trkpt>
      <trkpt lat="50.16148" lon="3.75031">
        <ele>144.82</ele>
        <time>2014-04-06T07:37:25Z</time>
      </trkpt>
      <trkpt lat="50.16125" lon="3.75136">
        <ele>143.85</ele>
        <time>2014-04-06T07:37:39Z</time>
      </trkpt>
      <trkpt lat="50.16119" lon="3.75167">
        <ele>143.85</ele>
        <time>2014-04-06T07:37:43Z</time>
      </trkpt>
      <trkpt lat="50.16117" lon="3.75175">
        <ele>143.85</ele>
        <time>2014-04-06T07:37:44Z</time>
      </trkpt>
      <trkpt lat="50.16115" lon="3.75183">
        <ele>143.85</ele>
        <time>2014-04-06T07:37:45Z</time>
      </trkpt>
      <trkpt lat="50.16113" lon="3.75191">
        <ele>143.85</ele>
        <time>2014-04-06T07:37:46Z</time>
      </trkpt>
      <trkpt lat="50.16112" lon="3.75199">
        <ele>143.37</ele>
        <time>2014-04-06T07:37:47Z</time>
      </trkpt>
      <trkpt lat="50.1611" lon="3.75208">
        <ele>143.37</ele>
        <time>2014-04-06T07:37:48Z</time>
      </trkpt>
      <trkpt lat="50.16086" lon="3.75324">
        <ele>142.41</ele>
        <time>2014-04-06T07:38:03Z</time>
      </trkpt>
      <trkpt lat="50.16072" lon="3.75392">
        <ele>141.45</ele>
        <time>2014-04-06T07:38:13Z</time>
      </trkpt>
      <trkpt lat="50.1607" lon="3.754">
        <ele>141.45</ele>
        <time>2014-04-06T07:38:14Z</time>
      </trkpt>
      <trkpt lat="50.16055" lon="3.75485">
        <ele>140.01</ele>
        <time>2014-04-06T07:38:27Z</time>
      </trkpt>
      <trkpt lat="50.16056" lon="3.75493">
        <ele>139.53</ele>
        <time>2014-04-06T07:38:28Z</time>
      </trkpt>
      <trkpt lat="50.16059" lon="3.75499">
        <ele>139.05</ele>
        <time>2014-04-06T07:38:29Z</time>
      </trkpt>
      <trkpt lat="50.16064" lon="3.75504">
        <ele>139.05</ele>
        <time>2014-04-06T07:38:30Z</time>
      </trkpt>
      <trkpt lat="50.16068" lon="3.75505">
        <ele>139.05</ele>
        <time>2014-04-06T07:38:31Z</time>
      </trkpt>
      <trkpt lat="50.16072" lon="3.75505">
        <ele>139.05</ele>
        <time>2014-04-06T07:38:32Z</time>
      </trkpt>
      <trkpt lat="50.16076" lon="3.75505">
        <ele>139.05</ele>
        <time>2014-04-06T07:38:33Z</time>
      </trkpt>
      <trkpt lat="50.16078" lon="3.75505">
        <ele>139.05</ele>
        <time>2014-04-06T07:38:34Z</time>
      </trkpt>
      <trkpt lat="50.16106" lon="3.75502">
        <ele>140.49</ele>
        <time>2014-04-06T07:38:45Z</time>
      </trkpt>
      <trkpt lat="50.16154" lon="3.75503">
        <ele>141.45</ele>
        <time>2014-04-06T07:38:59Z</time>
      </trkpt>
      <trkpt lat="50.16201" lon="3.75504">
        <ele>141.93</ele>
        <time>2014-04-06T07:39:13Z</time>
      </trkpt>
      <trkpt lat="50.16257" lon="3.75504">
        <ele>140.49</ele>
        <time>2014-04-06T07:39:26Z</time>
      </trkpt>
      <trkpt lat="50.16335" lon="3.75504">
        <ele>137.61</ele>
        <time>2014-04-06T07:39:41Z</time>
      </trkpt>
      <trkpt lat="50.16372" lon="3.75505">
        <ele>136.16</ele>
        <time>2014-04-06T07:39:47Z</time>
      </trkpt>
      <trkpt lat="50.16377" lon="3.75506">
        <ele>136.16</ele>
        <time>2014-04-06T07:39:48Z</time>
      </trkpt>
      <trkpt lat="50.16409" lon="3.75507">
        <ele>135.2</ele>
        <time>2014-04-06T07:39:53Z</time>
      </trkpt>
      <trkpt lat="50.16416" lon="3.75507">
        <ele>135.2</ele>
        <time>2014-04-06T07:39:54Z</time>
      </trkpt>
      <trkpt lat="50.16482" lon="3.75508">
        <ele>137.13</ele>
        <time>2014-04-06T07:40:06Z</time>
      </trkpt>
      <trkpt lat="50.1653" lon="3.75508">
        <ele>138.09</ele>
        <time>2014-04-06T07:40:18Z</time>
      </trkpt>
      <trkpt lat="50.1658" lon="3.75507">
        <ele>138.57</ele>
        <time>2014-04-06T07:40:30Z</time>
      </trkpt>
      <trkpt lat="50.16606" lon="3.75509">
        <ele>138.57</ele>
        <time>2014-04-06T07:40:36Z</time>
      </trkpt>
      <trkpt lat="50.1667" lon="3.75509">
        <ele>138.57</ele>
        <time>2014-04-06T07:40:51Z</time>
      </trkpt>
      <trkpt lat="50.16679" lon="3.75509">
        <ele>138.57</ele>
        <time>2014-04-06T07:40:53Z</time>
      </trkpt>
      <trkpt lat="50.16684" lon="3.75508">
        <ele>138.57</ele>
        <time>2014-04-06T07:40:54Z</time>
      </trkpt>
      <trkpt lat="50.16688" lon="3.75505">
        <ele>138.57</ele>
        <time>2014-04-06T07:40:55Z</time>
      </trkpt>
      <trkpt lat="50.16691" lon="3.75501">
        <ele>138.57</ele>
        <time>2014-04-06T07:40:56Z</time>
      </trkpt>
      <trkpt lat="50.16692" lon="3.75498">
        <ele>138.57</ele>
        <time>2014-04-06T07:40:57Z</time>
      </trkpt>
      <trkpt lat="50.16693" lon="3.75496">
        <ele>138.57</ele>
        <time>2014-04-06T07:40:58Z</time>
      </trkpt>
      <trkpt lat="50.16693" lon="3.75493">
        <ele>139.05</ele>
        <time>2014-04-06T07:41:13Z</time>
      </trkpt>
      <trkpt lat="50.16695" lon="3.75493">
        <ele>139.05</ele>
        <time>2014-04-06T07:41:33Z</time>
      </trkpt>
      <trkpt lat="50.16695" lon="3.75469">
        <ele>139.05</ele>
        <time>2014-04-06T07:41:46Z</time>
      </trkpt>
      <trkpt lat="50.16693" lon="3.75395">
        <ele>139.05</ele>
        <time>2014-04-06T07:41:58Z</time>
      </trkpt>
      <trkpt lat="50.16695" lon="3.75291">
        <ele>140.97</ele>
        <time>2014-04-06T07:42:12Z</time>
      </trkpt>
      <trkpt lat="50.16695" lon="3.75284">
        <ele>140.97</ele>
        <time>2014-04-06T07:42:13Z</time>
      </trkpt>
      <trkpt lat="50.16696" lon="3.75278">
        <ele>141.45</ele>
        <time>2014-04-06T07:42:14Z</time>
      </trkpt>
      <trkpt lat="50.16698" lon="3.75258">
        <ele>142.41</ele>
        <time>2014-04-06T07:42:17Z</time>
      </trkpt>
      <trkpt lat="50.16698" lon="3.75251">
        <ele>142.41</ele>
        <time>2014-04-06T07:42:18Z</time>
      </trkpt>
      <trkpt lat="50.16699" lon="3.75245">
        <ele>142.41</ele>
        <time>2014-04-06T07:42:19Z</time>
      </trkpt>
      <trkpt lat="50.167" lon="3.75158">
        <ele>144.34</ele>
        <time>2014-04-06T07:42:33Z</time>
      </trkpt>
      <trkpt lat="50.16702" lon="3.75097">
        <ele>144.82</ele>
        <time>2014-04-06T07:42:44Z</time>
      </trkpt>
      <trkpt lat="50.16703" lon="3.75019">
        <ele>145.3</ele>
        <time>2014-04-06T07:42:58Z</time>
      </trkpt>
      <trkpt lat="50.16704" lon="3.74948">
        <ele>146.26</ele>
        <time>2014-04-06T07:43:11Z</time>
      </trkpt>
      <trkpt lat="50.16701" lon="3.74914">
        <ele>147.22</ele>
        <time>2014-04-06T07:43:18Z</time>
      </trkpt>
      <trkpt lat="50.16701" lon="3.74909">
        <ele>147.22</ele>
        <time>2014-04-06T07:43:19Z</time>
      </trkpt>
      <trkpt lat="50.16702" lon="3.74837">
        <ele>149.62</ele>
        <time>2014-04-06T07:43:31Z</time>
      </trkpt>
      <trkpt lat="50.16703" lon="3.7477">
        <ele>151.06</ele>
        <time>2014-04-06T07:43:43Z</time>
      </trkpt>
      <trkpt lat="50.16704" lon="3.74699">
        <ele>151.54</ele>
        <time>2014-04-06T07:43:56Z</time>
      </trkpt>
      <trkpt lat="50.16704" lon="3.74619">
        <ele>150.58</ele>
        <time>2014-04-06T07:44:09Z</time>
      </trkpt>
      <trkpt lat="50.16705" lon="3.7459">
        <ele>149.62</ele>
        <time>2014-04-06T07:44:13Z</time>
      </trkpt>
      <trkpt lat="50.16706" lon="3.74576">
        <ele>149.14</ele>
        <time>2014-04-06T07:44:15Z</time>
      </trkpt>
      <trkpt lat="50.16706" lon="3.74547">
        <ele>149.14</ele>
        <time>2014-04-06T07:44:19Z</time>
      </trkpt>
      <trkpt lat="50.16706" lon="3.7454">
        <ele>149.14</ele>
        <time>2014-04-06T07:44:20Z</time>
      </trkpt>
      <trkpt lat="50.16706" lon="3.74518">
        <ele>149.14</ele>
        <time>2014-04-06T07:44:23Z</time>
      </trkpt>
      <trkpt lat="50.16707" lon="3.74467">
        <ele>148.18</ele>
        <time>2014-04-06T07:44:30Z</time>
      </trkpt>
      <trkpt lat="50.16706" lon="3.74452">
        <ele>148.18</ele>
        <time>2014-04-06T07:44:32Z</time>
      </trkpt>
      <trkpt lat="50.16706" lon="3.74372">
        <ele>147.22</ele>
        <time>2014-04-06T07:44:45Z</time>
      </trkpt>
      <trkpt lat="50.16706" lon="3.74334">
        <ele>146.26</ele>
        <time>2014-04-06T07:44:50Z</time>
      </trkpt>
      <trkpt lat="50.16707" lon="3.74277">
        <ele>143.85</ele>
        <time>2014-04-06T07:44:56Z</time>
      </trkpt>
      <trkpt lat="50.16707" lon="3.74135">
        <ele>144.34</ele>
        <time>2014-04-06T07:45:10Z</time>
      </trkpt>
      <trkpt lat="50.16708" lon="3.74072">
        <ele>147.22</ele>
        <time>2014-04-06T07:45:21Z</time>
      </trkpt>
      <trkpt lat="50.16728" lon="3.7404">
        <ele>146.74</ele>
        <time>2014-04-06T07:45:32Z</time>
      </trkpt>
      <trkpt lat="50.16736" lon="3.74025">
        <ele>146.74</ele>
        <time>2014-04-06T07:45:36Z</time>
      </trkpt>
      <trkpt lat="50.16736" lon="3.74021">
        <ele>146.74</ele>
        <time>2014-04-06T07:45:37Z</time>
      </trkpt>
      <trkpt lat="50.16735" lon="3.74018">
        <ele>146.74</ele>
        <time>2014-04-06T07:45:46Z</time>
      </trkpt>
      <trkpt lat="50.16735" lon="3.74017">
        <ele>146.74</ele>
        <time>2014-04-06T07:45:51Z</time>
      </trkpt>
      <trkpt lat="50.16733" lon="3.74015">
        <ele>146.74</ele>
        <time>2014-04-06T07:45:52Z</time>
      </trkpt>
      <trkpt lat="50.16732" lon="3.74013">
        <ele>146.74</ele>
        <time>2014-04-06T07:45:53Z</time>
      </trkpt>
      <trkpt lat="50.16724" lon="3.73999">
        <ele>147.7</ele>
        <time>2014-04-06T07:45:58Z</time>
      </trkpt>
      <trkpt lat="50.16722" lon="3.73996">
        <ele>148.18</ele>
        <time>2014-04-06T07:45:59Z</time>
      </trkpt>
      <trkpt lat="50.1672" lon="3.73992">
        <ele>148.18</ele>
        <time>2014-04-06T07:46:00Z</time>
      </trkpt>
      <trkpt lat="50.16718" lon="3.73989">
        <ele>148.18</ele>
        <time>2014-04-06T07:46:01Z</time>
      </trkpt>
      <trkpt lat="50.16716" lon="3.73985">
        <ele>148.18</ele>
        <time>2014-04-06T07:46:02Z</time>
      </trkpt>
      <trkpt lat="50.16714" lon="3.73981">
        <ele>148.66</ele>
        <time>2014-04-06T07:46:03Z</time>
      </trkpt>
      <trkpt lat="50.16688" lon="3.73929">
        <ele>149.62</ele>
        <time>2014-04-06T07:46:13Z</time>
      </trkpt>
      <trkpt lat="50.16655" lon="3.73862">
        <ele>149.62</ele>
        <time>2014-04-06T07:46:25Z</time>
      </trkpt>
      <trkpt lat="50.16628" lon="3.73807">
        <ele>146.74</ele>
        <time>2014-04-06T07:46:33Z</time>
      </trkpt>
      <trkpt lat="50.16606" lon="3.73763">
        <ele>144.34</ele>
        <time>2014-04-06T07:46:38Z</time>
      </trkpt>
      <trkpt lat="50.16601" lon="3.73753">
        <ele>144.34</ele>
        <time>2014-04-06T07:46:39Z</time>
      </trkpt>
      <trkpt lat="50.16568" lon="3.73683">
        <ele>145.3</ele>
        <time>2014-04-06T07:46:49Z</time>
      </trkpt>
      <trkpt lat="50.1655" lon="3.73642">
        <ele>148.18</ele>
        <time>2014-04-06T07:46:59Z</time>
      </trkpt>
      <trkpt lat="50.16533" lon="3.73606">
        <ele>150.1</ele>
        <time>2014-04-06T07:47:10Z</time>
      </trkpt>
      <trkpt lat="50.16532" lon="3.73603">
        <ele>150.1</ele>
        <time>2014-04-06T07:47:11Z</time>
      </trkpt>
      <trkpt lat="50.1653" lon="3.736">
        <ele>150.58</ele>
        <time>2014-04-06T07:47:12Z</time>
      </trkpt>
      <trkpt lat="50.16529" lon="3.73597">
        <ele>150.58</ele>
        <time>2014-04-06T07:47:13Z</time>
      </trkpt>
      <trkpt lat="50.16528" lon="3.73594">
        <ele>150.58</ele>
        <time>2014-04-06T07:47:14Z</time>
      </trkpt>
      <trkpt lat="50.16526" lon="3.7359">
        <ele>150.58</ele>
        <time>2014-04-06T07:47:15Z</time>
      </trkpt>
      <trkpt lat="50.16506" lon="3.73546">
        <ele>151.54</ele>
        <time>2014-04-06T07:47:28Z</time>
      </trkpt>
      <trkpt lat="50.16482" lon="3.73499">
        <ele>151.54</ele>
        <time>2014-04-06T07:47:39Z</time>
      </trkpt>
      <trkpt lat="50.16473" lon="3.7348">
        <ele>150.1</ele>
        <time>2014-04-06T07:47:43Z</time>
      </trkpt>
      <trkpt lat="50.1647" lon="3.73474">
        <ele>150.1</ele>
        <time>2014-04-06T07:47:44Z</time>
      </trkpt>
      <trkpt lat="50.16467" lon="3.73469">
        <ele>150.58</ele>
        <time>2014-04-06T07:47:45Z</time>
      </trkpt>
      <trkpt lat="50.16465" lon="3.73463">
        <ele>150.58</ele>
        <time>2014-04-06T07:47:46Z</time>
      </trkpt>
      <trkpt lat="50.16462" lon="3.73457">
        <ele>150.1</ele>
        <time>2014-04-06T07:47:47Z</time>
      </trkpt>
      <trkpt lat="50.16451" lon="3.73435">
        <ele>149.14</ele>
        <time>2014-04-06T07:47:51Z</time>
      </trkpt>
      <trkpt lat="50.16432" lon="3.73395">
        <ele>148.18</ele>
        <time>2014-04-06T07:47:58Z</time>
      </trkpt>
      <trkpt lat="50.164" lon="3.73331">
        <ele>144.82</ele>
        <time>2014-04-06T07:48:06Z</time>
      </trkpt>
      <trkpt lat="50.16359" lon="3.73244">
        <ele>141.45</ele>
        <time>2014-04-06T07:48:15Z</time>
      </trkpt>
      <trkpt lat="50.16349" lon="3.73224">
        <ele>140.49</ele>
        <time>2014-04-06T07:48:17Z</time>
      </trkpt>
      <trkpt lat="50.16295" lon="3.73121">
        <ele>138.57</ele>
        <time>2014-04-06T07:48:28Z</time>
      </trkpt>
      <trkpt lat="50.16257" lon="3.73041">
        <ele>139.05</ele>
        <time>2014-04-06T07:48:39Z</time>
      </trkpt>
      <trkpt lat="50.16239" lon="3.73006">
        <ele>139.05</ele>
        <time>2014-04-06T07:48:48Z</time>
      </trkpt>
      <trkpt lat="50.16239" lon="3.73004">
        <ele>139.05</ele>
        <time>2014-04-06T07:48:51Z</time>
      </trkpt>
      <trkpt lat="50.1624" lon="3.73003">
        <ele>139.53</ele>
        <time>2014-04-06T07:48:55Z</time>
      </trkpt>
      <trkpt lat="50.1624" lon="3.73">
        <ele>139.53</ele>
        <time>2014-04-06T07:49:08Z</time>
      </trkpt>
      <trkpt lat="50.16238" lon="3.73001">
        <ele>139.53</ele>
        <time>2014-04-06T07:49:23Z</time>
      </trkpt>
      <trkpt lat="50.16236" lon="3.73008">
        <ele>140.01</ele>
        <time>2014-04-06T07:49:54Z</time>
      </trkpt>
      <trkpt lat="50.16237" lon="3.7301">
        <ele>140.49</ele>
        <time>2014-04-06T07:50:11Z</time>
      </trkpt>
      <trkpt lat="50.16241" lon="3.73014">
        <ele>140.49</ele>
        <time>2014-04-06T07:50:24Z</time>
      </trkpt>
      <trkpt lat="50.16243" lon="3.73017">
        <ele>140.49</ele>
        <time>2014-04-06T07:50:54Z</time>
      </trkpt>
      <trkpt lat="50.16241" lon="3.73014">
        <ele>140.49</ele>
        <time>2014-04-06T07:51:11Z</time>
      </trkpt>
      <trkpt lat="50.1624" lon="3.73012">
        <ele>140.49</ele>
        <time>2014-04-06T07:51:12Z</time>
      </trkpt>
      <trkpt lat="50.16239" lon="3.73009">
        <ele>140.49</ele>
        <time>2014-04-06T07:51:13Z</time>
      </trkpt>
      <trkpt lat="50.16238" lon="3.73007">
        <ele>140.49</ele>
        <time>2014-04-06T07:51:14Z</time>
      </trkpt>
      <trkpt lat="50.16216" lon="3.72958">
        <ele>143.37</ele>
        <time>2014-04-06T07:51:25Z</time>
      </trkpt>
      <trkpt lat="50.16195" lon="3.72909">
        <ele>144.82</ele>
        <time>2014-04-06T07:51:37Z</time>
      </trkpt>
      <trkpt lat="50.16176" lon="3.72871">
        <ele>146.26</ele>
        <time>2014-04-06T07:51:48Z</time>
      </trkpt>
      <trkpt lat="50.16154" lon="3.72821">
        <ele>147.7</ele>
        <time>2014-04-06T07:51:59Z</time>
      </trkpt>
      <trkpt lat="50.16131" lon="3.72771">
        <ele>149.62</ele>
        <time>2014-04-06T07:52:10Z</time>
      </trkpt>
      <trkpt lat="50.16103" lon="3.7271">
        <ele>150.58</ele>
        <time>2014-04-06T07:52:23Z</time>
      </trkpt>
      <trkpt lat="50.16075" lon="3.72653">
        <ele>151.06</ele>
        <time>2014-04-06T07:52:35Z</time>
      </trkpt>
      <trkpt lat="50.16041" lon="3.72593">
        <ele>151.54</ele>
        <time>2014-04-06T07:52:47Z</time>
      </trkpt>
      <trkpt lat="50.16006" lon="3.72527">
        <ele>150.58</ele>
        <time>2014-04-06T07:53:00Z</time>
      </trkpt>
      <trkpt lat="50.15969" lon="3.72454">
        <ele>149.62</ele>
        <time>2014-04-06T07:53:12Z</time>
      </trkpt>
      <trkpt lat="50.15954" lon="3.72424">
        <ele>148.66</ele>
        <time>2014-04-06T07:53:16Z</time>
      </trkpt>
      <trkpt lat="50.1595" lon="3.72416">
        <ele>147.7</ele>
        <time>2014-04-06T07:53:17Z</time>
      </trkpt>
      <trkpt lat="50.15947" lon="3.72408">
        <ele>147.7</ele>
        <time>2014-04-06T07:53:18Z</time>
      </trkpt>
      <trkpt lat="50.15901" lon="3.72307">
        <ele>145.78</ele>
        <time>2014-04-06T07:53:31Z</time>
      </trkpt>
      <trkpt lat="50.15895" lon="3.72295">
        <ele>146.26</ele>
        <time>2014-04-06T07:53:33Z</time>
      </trkpt>
      <trkpt lat="50.15893" lon="3.72289">
        <ele>146.26</ele>
        <time>2014-04-06T07:53:34Z</time>
      </trkpt>
      <trkpt lat="50.1589" lon="3.72282">
        <ele>146.26</ele>
        <time>2014-04-06T07:53:35Z</time>
      </trkpt>
      <trkpt lat="50.15876" lon="3.72254">
        <ele>147.7</ele>
        <time>2014-04-06T07:53:39Z</time>
      </trkpt>
      <trkpt lat="50.15866" lon="3.72232">
        <ele>149.14</ele>
        <time>2014-04-06T07:53:42Z</time>
      </trkpt>
      <trkpt lat="50.15859" lon="3.72218">
        <ele>149.62</ele>
        <time>2014-04-06T07:53:44Z</time>
      </trkpt>
      <trkpt lat="50.15856" lon="3.7221">
        <ele>150.1</ele>
        <time>2014-04-06T07:53:45Z</time>
      </trkpt>
      <trkpt lat="50.15827" lon="3.72145">
        <ele>153.47</ele>
        <time>2014-04-06T07:53:55Z</time>
      </trkpt>
      <trkpt lat="50.15793" lon="3.72073">
        <ele>155.87</ele>
        <time>2014-04-06T07:54:09Z</time>
      </trkpt>
      <trkpt lat="50.15768" lon="3.72022">
        <ele>156.83</ele>
        <time>2014-04-06T07:54:21Z</time>
      </trkpt>
      <trkpt lat="50.15722" lon="3.71933">
        <ele>157.79</ele>
        <time>2014-04-06T07:54:39Z</time>
      </trkpt>
      <trkpt lat="50.15699" lon="3.71888">
        <ele>158.75</ele>
        <time>2014-04-06T07:54:51Z</time>
      </trkpt>
      <trkpt lat="50.15695" lon="3.71868">
        <ele>158.75</ele>
        <time>2014-04-06T07:54:56Z</time>
      </trkpt>
      <trkpt lat="50.15695" lon="3.71863">
        <ele>158.75</ele>
        <time>2014-04-06T07:55:05Z</time>
      </trkpt>
      <trkpt lat="50.15692" lon="3.71866">
        <ele>158.75</ele>
        <time>2014-04-06T07:55:32Z</time>
      </trkpt>
      <trkpt lat="50.15694" lon="3.71866">
        <ele>159.24</ele>
        <time>2014-04-06T07:55:57Z</time>
      </trkpt>
      <trkpt lat="50.15691" lon="3.71866">
        <ele>159.24</ele>
        <time>2014-04-06T07:56:19Z</time>
      </trkpt>
      <trkpt lat="50.15694" lon="3.71866">
        <ele>159.24</ele>
        <time>2014-04-06T07:56:41Z</time>
      </trkpt>
      <trkpt lat="50.15693" lon="3.71867">
        <ele>159.24</ele>
        <time>2014-04-06T07:56:59Z</time>
      </trkpt>
      <trkpt lat="50.15691" lon="3.71866">
        <ele>159.72</ele>
        <time>2014-04-06T07:57:22Z</time>
      </trkpt>
      <trkpt lat="50.15693" lon="3.71869">
        <ele>159.72</ele>
        <time>2014-04-06T07:57:48Z</time>
      </trkpt>
      <trkpt lat="50.15693" lon="3.71867">
        <ele>159.72</ele>
        <time>2014-04-06T07:58:05Z</time>
      </trkpt>
      <trkpt lat="50.15694" lon="3.71865">
        <ele>159.24</ele>
        <time>2014-04-06T07:58:07Z</time>
      </trkpt>
      <trkpt lat="50.15695" lon="3.71863">
        <ele>159.72</ele>
        <time>2014-04-06T07:58:08Z</time>
      </trkpt>
      <trkpt lat="50.15713" lon="3.71834">
        <ele>160.68</ele>
        <time>2014-04-06T07:58:17Z</time>
      </trkpt>
      <trkpt lat="50.1574" lon="3.71792">
        <ele>163.08</ele>
        <time>2014-04-06T07:58:32Z</time>
      </trkpt>
      <trkpt lat="50.15766" lon="3.71753">
        <ele>164.52</ele>
        <time>2014-04-06T07:58:44Z</time>
      </trkpt>
      <trkpt lat="50.15769" lon="3.71746">
        <ele>165</ele>
        <time>2014-04-06T07:58:45Z</time>
      </trkpt>
      <trkpt lat="50.15773" lon="3.71739">
        <ele>165</ele>
        <time>2014-04-06T07:58:46Z</time>
      </trkpt>
      <trkpt lat="50.15778" lon="3.71733">
        <ele>165.48</ele>
        <time>2014-04-06T07:58:47Z</time>
      </trkpt>
      <trkpt lat="50.15783" lon="3.71725">
        <ele>165.48</ele>
        <time>2014-04-06T07:58:48Z</time>
      </trkpt>
      <trkpt lat="50.15786" lon="3.71719">
        <ele>165.48</ele>
        <time>2014-04-06T07:58:49Z</time>
      </trkpt>
      <trkpt lat="50.15789" lon="3.71714">
        <ele>165.48</ele>
        <time>2014-04-06T07:58:50Z</time>
      </trkpt>
      <trkpt lat="50.15802" lon="3.71694">
        <ele>165.96</ele>
        <time>2014-04-06T07:58:57Z</time>
      </trkpt>
      <trkpt lat="50.15822" lon="3.71665">
        <ele>165.96</ele>
        <time>2014-04-06T07:59:07Z</time>
      </trkpt>
      <trkpt lat="50.1584" lon="3.71633">
        <ele>165.96</ele>
        <time>2014-04-06T07:59:18Z</time>
      </trkpt>
      <trkpt lat="50.15878" lon="3.71575">
        <ele>165.96</ele>
        <time>2014-04-06T07:59:30Z</time>
      </trkpt>
      <trkpt lat="50.15918" lon="3.71512">
        <ele>162.6</ele>
        <time>2014-04-06T07:59:37Z</time>
      </trkpt>
      <trkpt lat="50.15952" lon="3.71461">
        <ele>162.6</ele>
        <time>2014-04-06T07:59:43Z</time>
      </trkpt>
      <trkpt lat="50.15956" lon="3.71453">
        <ele>162.6</ele>
        <time>2014-04-06T07:59:44Z</time>
      </trkpt>
      <trkpt lat="50.15963" lon="3.71442">
        <ele>163.56</ele>
        <time>2014-04-06T07:59:46Z</time>
      </trkpt>
      <trkpt lat="50.16017" lon="3.71359">
        <ele>165</ele>
        <time>2014-04-06T08:00:03Z</time>
      </trkpt>
      <trkpt lat="50.16021" lon="3.71353">
        <ele>165</ele>
        <time>2014-04-06T08:00:04Z</time>
      </trkpt>
      <trkpt lat="50.16044" lon="3.71321">
        <ele>161.64</ele>
        <time>2014-04-06T08:00:09Z</time>
      </trkpt>
      <trkpt lat="50.16104" lon="3.71224">
        <ele>159.24</ele>
        <time>2014-04-06T08:00:20Z</time>
      </trkpt>
      <trkpt lat="50.16118" lon="3.71201">
        <ele>160.68</ele>
        <time>2014-04-06T08:00:23Z</time>
      </trkpt>
      <trkpt lat="50.16193" lon="3.71083">
        <ele>161.16</ele>
        <time>2014-04-06T08:00:36Z</time>
      </trkpt>
      <trkpt lat="50.16212" lon="3.71054">
        <ele>159.72</ele>
        <time>2014-04-06T08:00:39Z</time>
      </trkpt>
      <trkpt lat="50.16279" lon="3.70947">
        <ele>160.68</ele>
        <time>2014-04-06T08:00:51Z</time>
      </trkpt>
      <trkpt lat="50.163" lon="3.70915">
        <ele>164.04</ele>
        <time>2014-04-06T08:00:56Z</time>
      </trkpt>
      <trkpt lat="50.16305" lon="3.70909">
        <ele>164.04</ele>
        <time>2014-04-06T08:00:57Z</time>
      </trkpt>
      <trkpt lat="50.16319" lon="3.70887">
        <ele>165.48</ele>
        <time>2014-04-06T08:01:01Z</time>
      </trkpt>
      <trkpt lat="50.1634" lon="3.70854">
        <ele>165.48</ele>
        <time>2014-04-06T08:01:07Z</time>
      </trkpt>
      <trkpt lat="50.16382" lon="3.70786">
        <ele>165.96</ele>
        <time>2014-04-06T08:01:21Z</time>
      </trkpt>
      <trkpt lat="50.16407" lon="3.70746">
        <ele>163.08</ele>
        <time>2014-04-06T08:01:27Z</time>
      </trkpt>
      <trkpt lat="50.16472" lon="3.70643">
        <ele>161.64</ele>
        <time>2014-04-06T08:01:40Z</time>
      </trkpt>
      <trkpt lat="50.16491" lon="3.70615">
        <ele>161.16</ele>
        <time>2014-04-06T08:01:44Z</time>
      </trkpt>
      <trkpt lat="50.16495" lon="3.70609">
        <ele>161.16</ele>
        <time>2014-04-06T08:01:45Z</time>
      </trkpt>
      <trkpt lat="50.16514" lon="3.7058">
        <ele>162.12</ele>
        <time>2014-04-06T08:01:50Z</time>
      </trkpt>
      <trkpt lat="50.16532" lon="3.70548">
        <ele>164.52</ele>
        <time>2014-04-06T08:01:57Z</time>
      </trkpt>
      <trkpt lat="50.16533" lon="3.70542">
        <ele>164.52</ele>
        <time>2014-04-06T08:01:58Z</time>
      </trkpt>
      <trkpt lat="50.16533" lon="3.70537">
        <ele>164.52</ele>
        <time>2014-04-06T08:01:59Z</time>
      </trkpt>
      <trkpt lat="50.16532" lon="3.70531">
        <ele>164.52</ele>
        <time>2014-04-06T08:02:00Z</time>
      </trkpt>
      <trkpt lat="50.16531" lon="3.70526">
        <ele>164.52</ele>
        <time>2014-04-06T08:02:01Z</time>
      </trkpt>
      <trkpt lat="50.16513" lon="3.70485">
        <ele>165</ele>
        <time>2014-04-06T08:02:12Z</time>
      </trkpt>
      <trkpt lat="50.16494" lon="3.70441">
        <ele>165.48</ele>
        <time>2014-04-06T08:02:22Z</time>
      </trkpt>
      <trkpt lat="50.16473" lon="3.70384">
        <ele>167.41</ele>
        <time>2014-04-06T08:02:34Z</time>
      </trkpt>
      <trkpt lat="50.16451" lon="3.70334">
        <ele>167.89</ele>
        <time>2014-04-06T08:02:45Z</time>
      </trkpt>
      <trkpt lat="50.16444" lon="3.70314">
        <ele>168.37</ele>
        <time>2014-04-06T08:02:49Z</time>
      </trkpt>
      <trkpt lat="50.16439" lon="3.70302">
        <ele>168.37</ele>
        <time>2014-04-06T08:02:51Z</time>
      </trkpt>
      <trkpt lat="50.16437" lon="3.70295">
        <ele>168.37</ele>
        <time>2014-04-06T08:02:52Z</time>
      </trkpt>
      <trkpt lat="50.16429" lon="3.70273">
        <ele>169.33</ele>
        <time>2014-04-06T08:02:56Z</time>
      </trkpt>
      <trkpt lat="50.16428" lon="3.7027">
        <ele>169.33</ele>
        <time>2014-04-06T08:02:57Z</time>
      </trkpt>
      <trkpt lat="50.16427" lon="3.70266">
        <ele>169.33</ele>
        <time>2014-04-06T08:02:58Z</time>
      </trkpt>
      <trkpt lat="50.16425" lon="3.70263">
        <ele>169.33</ele>
        <time>2014-04-06T08:02:59Z</time>
      </trkpt>
      <trkpt lat="50.16423" lon="3.70259">
        <ele>169.81</ele>
        <time>2014-04-06T08:03:00Z</time>
      </trkpt>
      <trkpt lat="50.16421" lon="3.70255">
        <ele>169.33</ele>
        <time>2014-04-06T08:03:01Z</time>
      </trkpt>
      <trkpt lat="50.16418" lon="3.70251">
        <ele>169.33</ele>
        <time>2014-04-06T08:03:02Z</time>
      </trkpt>
      <trkpt lat="50.16394" lon="3.70191">
        <ele>170.29</ele>
        <time>2014-04-06T08:03:13Z</time>
      </trkpt>
      <trkpt lat="50.16382" lon="3.70163">
        <ele>171.25</ele>
        <time>2014-04-06T08:03:17Z</time>
      </trkpt>
      <trkpt lat="50.16375" lon="3.70145">
        <ele>171.25</ele>
        <time>2014-04-06T08:03:20Z</time>
      </trkpt>
      <trkpt lat="50.16373" lon="3.70138">
        <ele>171.25</ele>
        <time>2014-04-06T08:03:21Z</time>
      </trkpt>
      <trkpt lat="50.16352" lon="3.70086">
        <ele>171.73</ele>
        <time>2014-04-06T08:03:33Z</time>
      </trkpt>
      <trkpt lat="50.16332" lon="3.7003">
        <ele>171.73</ele>
        <time>2014-04-06T08:03:45Z</time>
      </trkpt>
      <trkpt lat="50.16308" lon="3.6997">
        <ele>172.69</ele>
        <time>2014-04-06T08:03:57Z</time>
      </trkpt>
      <trkpt lat="50.16271" lon="3.69884">
        <ele>170.77</ele>
        <time>2014-04-06T08:04:11Z</time>
      </trkpt>
      <trkpt lat="50.16259" lon="3.69856">
        <ele>170.29</ele>
        <time>2014-04-06T08:04:16Z</time>
      </trkpt>
      <trkpt lat="50.16253" lon="3.69838">
        <ele>170.29</ele>
        <time>2014-04-06T08:04:19Z</time>
      </trkpt>
      <trkpt lat="50.1625" lon="3.69832">
        <ele>170.29</ele>
        <time>2014-04-06T08:04:20Z</time>
      </trkpt>
      <trkpt lat="50.16248" lon="3.69826">
        <ele>170.29</ele>
        <time>2014-04-06T08:04:21Z</time>
      </trkpt>
      <trkpt lat="50.16233" lon="3.69787">
        <ele>170.29</ele>
        <time>2014-04-06T08:04:27Z</time>
      </trkpt>
      <trkpt lat="50.16196" lon="3.69691">
        <ele>171.73</ele>
        <time>2014-04-06T08:04:42Z</time>
      </trkpt>
      <trkpt lat="50.1619" lon="3.69678">
        <ele>172.69</ele>
        <time>2014-04-06T08:04:44Z</time>
      </trkpt>
      <trkpt lat="50.16166" lon="3.69618">
        <ele>173.17</ele>
        <time>2014-04-06T08:04:53Z</time>
      </trkpt>
      <trkpt lat="50.16153" lon="3.69585">
        <ele>174.62</ele>
        <time>2014-04-06T08:04:58Z</time>
      </trkpt>
      <trkpt lat="50.16139" lon="3.69552">
        <ele>175.1</ele>
        <time>2014-04-06T08:05:03Z</time>
      </trkpt>
      <trkpt lat="50.16136" lon="3.69545">
        <ele>176.06</ele>
        <time>2014-04-06T08:05:04Z</time>
      </trkpt>
      <trkpt lat="50.16133" lon="3.69538">
        <ele>176.06</ele>
        <time>2014-04-06T08:05:05Z</time>
      </trkpt>
      <trkpt lat="50.1613" lon="3.69532">
        <ele>176.54</ele>
        <time>2014-04-06T08:05:06Z</time>
      </trkpt>
      <trkpt lat="50.16128" lon="3.69525">
        <ele>176.54</ele>
        <time>2014-04-06T08:05:07Z</time>
      </trkpt>
      <trkpt lat="50.16126" lon="3.69519">
        <ele>176.54</ele>
        <time>2014-04-06T08:05:08Z</time>
      </trkpt>
      <trkpt lat="50.16123" lon="3.69513">
        <ele>176.54</ele>
        <time>2014-04-06T08:05:09Z</time>
      </trkpt>
      <trkpt lat="50.16099" lon="3.69445">
        <ele>177.98</ele>
        <time>2014-04-06T08:05:22Z</time>
      </trkpt>
      <trkpt lat="50.16072" lon="3.69378">
        <ele>178.94</ele>
        <time>2014-04-06T08:05:35Z</time>
      </trkpt>
      <trkpt lat="50.16064" lon="3.69354">
        <ele>178.94</ele>
        <time>2014-04-06T08:05:39Z</time>
      </trkpt>
      <trkpt lat="50.16061" lon="3.69348">
        <ele>178.94</ele>
        <time>2014-04-06T08:05:40Z</time>
      </trkpt>
      <trkpt lat="50.16059" lon="3.69343">
        <ele>178.94</ele>
        <time>2014-04-06T08:05:41Z</time>
      </trkpt>
      <trkpt lat="50.16035" lon="3.69279">
        <ele>177.98</ele>
        <time>2014-04-06T08:05:53Z</time>
      </trkpt>
      <trkpt lat="50.16005" lon="3.69202">
        <ele>175.1</ele>
        <time>2014-04-06T08:06:05Z</time>
      </trkpt>
      <trkpt lat="50.15972" lon="3.69119">
        <ele>171.73</ele>
        <time>2014-04-06T08:06:14Z</time>
      </trkpt>
      <trkpt lat="50.15968" lon="3.69109">
        <ele>171.73</ele>
        <time>2014-04-06T08:06:15Z</time>
      </trkpt>
      <trkpt lat="50.15921" lon="3.6899">
        <ele>169.33</ele>
        <time>2014-04-06T08:06:27Z</time>
      </trkpt>
      <trkpt lat="50.15911" lon="3.68962">
        <ele>169.33</ele>
        <time>2014-04-06T08:06:30Z</time>
      </trkpt>
      <trkpt lat="50.15901" lon="3.68935">
        <ele>170.77</ele>
        <time>2014-04-06T08:06:33Z</time>
      </trkpt>
      <trkpt lat="50.15878" lon="3.68873">
        <ele>172.69</ele>
        <time>2014-04-06T08:06:40Z</time>
      </trkpt>
      <trkpt lat="50.15849" lon="3.68796">
        <ele>175.58</ele>
        <time>2014-04-06T08:06:51Z</time>
      </trkpt>
      <trkpt lat="50.15824" lon="3.68733">
        <ele>176.54</ele>
        <time>2014-04-06T08:07:01Z</time>
      </trkpt>
      <trkpt lat="50.15822" lon="3.68727">
        <ele>176.54</ele>
        <time>2014-04-06T08:07:02Z</time>
      </trkpt>
      <trkpt lat="50.1582" lon="3.68722">
        <ele>176.54</ele>
        <time>2014-04-06T08:07:03Z</time>
      </trkpt>
      <trkpt lat="50.15818" lon="3.68717">
        <ele>176.54</ele>
        <time>2014-04-06T08:07:04Z</time>
      </trkpt>
      <trkpt lat="50.15816" lon="3.68712">
        <ele>176.54</ele>
        <time>2014-04-06T08:07:05Z</time>
      </trkpt>
      <trkpt lat="50.15802" lon="3.6868">
        <ele>176.54</ele>
        <time>2014-04-06T08:07:11Z</time>
      </trkpt>
      <trkpt lat="50.158" lon="3.68674">
        <ele>176.54</ele>
        <time>2014-04-06T08:07:12Z</time>
      </trkpt>
      <trkpt lat="50.15774" lon="3.68614">
        <ele>176.54</ele>
        <time>2014-04-06T08:07:24Z</time>
      </trkpt>
      <trkpt lat="50.15761" lon="3.68577">
        <ele>176.54</ele>
        <time>2014-04-06T08:07:30Z</time>
      </trkpt>
      <trkpt lat="50.15758" lon="3.68571">
        <ele>176.54</ele>
        <time>2014-04-06T08:07:31Z</time>
      </trkpt>
      <trkpt lat="50.15756" lon="3.68565">
        <ele>176.54</ele>
        <time>2014-04-06T08:07:32Z</time>
      </trkpt>
      <trkpt lat="50.15754" lon="3.68558">
        <ele>176.54</ele>
        <time>2014-04-06T08:07:33Z</time>
      </trkpt>
      <trkpt lat="50.15752" lon="3.68552">
        <ele>176.54</ele>
        <time>2014-04-06T08:07:34Z</time>
      </trkpt>
      <trkpt lat="50.15749" lon="3.68546">
        <ele>176.54</ele>
        <time>2014-04-06T08:07:35Z</time>
      </trkpt>
      <trkpt lat="50.15746" lon="3.6854">
        <ele>176.54</ele>
        <time>2014-04-06T08:07:36Z</time>
      </trkpt>
      <trkpt lat="50.15744" lon="3.68533">
        <ele>176.54</ele>
        <time>2014-04-06T08:07:37Z</time>
      </trkpt>
      <trkpt lat="50.15734" lon="3.68506">
        <ele>175.1</ele>
        <time>2014-04-06T08:07:41Z</time>
      </trkpt>
      <trkpt lat="50.15732" lon="3.68499">
        <ele>174.62</ele>
        <time>2014-04-06T08:07:42Z</time>
      </trkpt>
      <trkpt lat="50.15711" lon="3.68447">
        <ele>173.66</ele>
        <time>2014-04-06T08:07:50Z</time>
      </trkpt>
      <trkpt lat="50.15709" lon="3.6844">
        <ele>173.66</ele>
        <time>2014-04-06T08:07:51Z</time>
      </trkpt>
      <trkpt lat="50.15706" lon="3.68433">
        <ele>173.66</ele>
        <time>2014-04-06T08:07:52Z</time>
      </trkpt>
      <trkpt lat="50.15703" lon="3.68428">
        <ele>173.66</ele>
        <time>2014-04-06T08:07:53Z</time>
      </trkpt>
      <trkpt lat="50.157" lon="3.68422">
        <ele>173.66</ele>
        <time>2014-04-06T08:07:54Z</time>
      </trkpt>
      <trkpt lat="50.15698" lon="3.68416">
        <ele>173.66</ele>
        <time>2014-04-06T08:07:55Z</time>
      </trkpt>
      <trkpt lat="50.15695" lon="3.6841">
        <ele>173.17</ele>
        <time>2014-04-06T08:07:56Z</time>
      </trkpt>
      <trkpt lat="50.15692" lon="3.68403">
        <ele>173.17</ele>
        <time>2014-04-06T08:07:57Z</time>
      </trkpt>
      <trkpt lat="50.1567" lon="3.68347">
        <ele>171.73</ele>
        <time>2014-04-06T08:08:05Z</time>
      </trkpt>
      <trkpt lat="50.15659" lon="3.68317">
        <ele>170.77</ele>
        <time>2014-04-06T08:08:09Z</time>
      </trkpt>
      <trkpt lat="50.15656" lon="3.68309">
        <ele>170.29</ele>
        <time>2014-04-06T08:08:10Z</time>
      </trkpt>
      <trkpt lat="50.15653" lon="3.68302">
        <ele>169.81</ele>
        <time>2014-04-06T08:08:11Z</time>
      </trkpt>
      <trkpt lat="50.1561" lon="3.68192">
        <ele>168.37</ele>
        <time>2014-04-06T08:08:25Z</time>
      </trkpt>
      <trkpt lat="50.15567" lon="3.68082">
        <ele>171.25</ele>
        <time>2014-04-06T08:08:39Z</time>
      </trkpt>
      <trkpt lat="50.15531" lon="3.67988">
        <ele>171.73</ele>
        <time>2014-04-06T08:08:57Z</time>
      </trkpt>
      <trkpt lat="50.15516" lon="3.67949">
        <ele>170.29</ele>
        <time>2014-04-06T08:09:04Z</time>
      </trkpt>
      <trkpt lat="50.15506" lon="3.67922">
        <ele>170.29</ele>
        <time>2014-04-06T08:09:09Z</time>
      </trkpt>
      <trkpt lat="50.15504" lon="3.67916">
        <ele>170.29</ele>
        <time>2014-04-06T08:09:10Z</time>
      </trkpt>
      <trkpt lat="50.15499" lon="3.67904">
        <ele>170.29</ele>
        <time>2014-04-06T08:09:12Z</time>
      </trkpt>
      <trkpt lat="50.15497" lon="3.67899">
        <ele>170.29</ele>
        <time>2014-04-06T08:09:13Z</time>
      </trkpt>
      <trkpt lat="50.15488" lon="3.67876">
        <ele>171.73</ele>
        <time>2014-04-06T08:09:18Z</time>
      </trkpt>
      <trkpt lat="50.15478" lon="3.67851">
        <ele>172.69</ele>
        <time>2014-04-06T08:09:27Z</time>
      </trkpt>
      <trkpt lat="50.15477" lon="3.67846">
        <ele>172.69</ele>
        <time>2014-04-06T08:09:28Z</time>
      </trkpt>
      <trkpt lat="50.15449" lon="3.67782">
        <ele>173.66</ele>
        <time>2014-04-06T08:09:41Z</time>
      </trkpt>
      <trkpt lat="50.15418" lon="3.67707">
        <ele>173.66</ele>
        <time>2014-04-06T08:09:55Z</time>
      </trkpt>
      <trkpt lat="50.15414" lon="3.67695">
        <ele>172.21</ele>
        <time>2014-04-06T08:09:57Z</time>
      </trkpt>
      <trkpt lat="50.15385" lon="3.67623">
        <ele>172.21</ele>
        <time>2014-04-06T08:10:11Z</time>
      </trkpt>
      <trkpt lat="50.15355" lon="3.67544">
        <ele>172.21</ele>
        <time>2014-04-06T08:10:26Z</time>
      </trkpt>
      <trkpt lat="50.15353" lon="3.67539">
        <ele>172.21</ele>
        <time>2014-04-06T08:10:27Z</time>
      </trkpt>
      <trkpt lat="50.15347" lon="3.67522">
        <ele>172.21</ele>
        <time>2014-04-06T08:10:30Z</time>
      </trkpt>
      <trkpt lat="50.15318" lon="3.67447">
        <ele>172.21</ele>
        <time>2014-04-06T08:10:45Z</time>
      </trkpt>
      <trkpt lat="50.15283" lon="3.67358">
        <ele>172.21</ele>
        <time>2014-04-06T08:11:01Z</time>
      </trkpt>
      <trkpt lat="50.15265" lon="3.67308">
        <ele>170.77</ele>
        <time>2014-04-06T08:11:11Z</time>
      </trkpt>
      <trkpt lat="50.15266" lon="3.67304">
        <ele>170.77</ele>
        <time>2014-04-06T08:11:12Z</time>
      </trkpt>
      <trkpt lat="50.15269" lon="3.67301">
        <ele>170.77</ele>
        <time>2014-04-06T08:11:13Z</time>
      </trkpt>
      <trkpt lat="50.15295" lon="3.67289">
        <ele>170.77</ele>
        <time>2014-04-06T08:11:23Z</time>
      </trkpt>
      <trkpt lat="50.15324" lon="3.67276">
        <ele>170.77</ele>
        <time>2014-04-06T08:11:34Z</time>
      </trkpt>
      <trkpt lat="50.15355" lon="3.67266">
        <ele>172.21</ele>
        <time>2014-04-06T08:11:44Z</time>
      </trkpt>
      <trkpt lat="50.15367" lon="3.67265">
        <ele>171.73</ele>
        <time>2014-04-06T08:11:49Z</time>
      </trkpt>
      <trkpt lat="50.15395" lon="3.67253">
        <ele>171.73</ele>
        <time>2014-04-06T08:12:01Z</time>
      </trkpt>
      <trkpt lat="50.15404" lon="3.6725">
        <ele>171.73</ele>
        <time>2014-04-06T08:12:05Z</time>
      </trkpt>
      <trkpt lat="50.15406" lon="3.67249">
        <ele>171.73</ele>
        <time>2014-04-06T08:12:06Z</time>
      </trkpt>
      <trkpt lat="50.15408" lon="3.67248">
        <ele>171.73</ele>
        <time>2014-04-06T08:12:07Z</time>
      </trkpt>
      <trkpt lat="50.15411" lon="3.67248">
        <ele>171.73</ele>
        <time>2014-04-06T08:12:08Z</time>
      </trkpt>
      <trkpt lat="50.15414" lon="3.67247">
        <ele>171.73</ele>
        <time>2014-04-06T08:12:09Z</time>
      </trkpt>
      <trkpt lat="50.15417" lon="3.67246">
        <ele>171.73</ele>
        <time>2014-04-06T08:12:10Z</time>
      </trkpt>
      <trkpt lat="50.15433" lon="3.67236">
        <ele>171.73</ele>
        <time>2014-04-06T08:12:19Z</time>
      </trkpt>
      <trkpt lat="50.15439" lon="3.6723">
        <ele>171.73</ele>
        <time>2014-04-06T08:12:45Z</time>
      </trkpt>
      <trkpt lat="50.15442" lon="3.67235">
        <ele>171.73</ele>
        <time>2014-04-06T08:13:06Z</time>
      </trkpt>
      <trkpt lat="50.15448" lon="3.67237">
        <ele>171.73</ele>
        <time>2014-04-06T08:13:30Z</time>
      </trkpt>
      <trkpt lat="50.15481" lon="3.67226">
        <ele>170.29</ele>
        <time>2014-04-06T08:13:42Z</time>
      </trkpt>
      <trkpt lat="50.15517" lon="3.67211">
        <ele>169.33</ele>
        <time>2014-04-06T08:13:53Z</time>
      </trkpt>
      <trkpt lat="50.1553" lon="3.67207">
        <ele>168.85</ele>
        <time>2014-04-06T08:13:56Z</time>
      </trkpt>
      <trkpt lat="50.15534" lon="3.67206">
        <ele>168.37</ele>
        <time>2014-04-06T08:13:57Z</time>
      </trkpt>
      <trkpt lat="50.15539" lon="3.67204">
        <ele>168.37</ele>
        <time>2014-04-06T08:13:58Z</time>
      </trkpt>
      <trkpt lat="50.15543" lon="3.67201">
        <ele>168.37</ele>
        <time>2014-04-06T08:13:59Z</time>
      </trkpt>
      <trkpt lat="50.15547" lon="3.67199">
        <ele>167.89</ele>
        <time>2014-04-06T08:14:00Z</time>
      </trkpt>
      <trkpt lat="50.15551" lon="3.67197">
        <ele>167.89</ele>
        <time>2014-04-06T08:14:01Z</time>
      </trkpt>
      <trkpt lat="50.15556" lon="3.67196">
        <ele>167.89</ele>
        <time>2014-04-06T08:14:02Z</time>
      </trkpt>
      <trkpt lat="50.15561" lon="3.67194">
        <ele>167.89</ele>
        <time>2014-04-06T08:14:03Z</time>
      </trkpt>
      <trkpt lat="50.15626" lon="3.67169">
        <ele>167.41</ele>
        <time>2014-04-06T08:14:17Z</time>
      </trkpt>
      <trkpt lat="50.15649" lon="3.67161">
        <ele>166.45</ele>
        <time>2014-04-06T08:14:23Z</time>
      </trkpt>
      <trkpt lat="50.15677" lon="3.67151">
        <ele>165.48</ele>
        <time>2014-04-06T08:14:29Z</time>
      </trkpt>
      <trkpt lat="50.15714" lon="3.67137">
        <ele>163.56</ele>
        <time>2014-04-06T08:14:39Z</time>
      </trkpt>
      <trkpt lat="50.15716" lon="3.67134">
        <ele>163.56</ele>
        <time>2014-04-06T08:14:40Z</time>
      </trkpt>
      <trkpt lat="50.15717" lon="3.6713">
        <ele>163.56</ele>
        <time>2014-04-06T08:14:41Z</time>
      </trkpt>
      <trkpt lat="50.15717" lon="3.67127">
        <ele>163.56</ele>
        <time>2014-04-06T08:14:42Z</time>
      </trkpt>
      <trkpt lat="50.15717" lon="3.67126">
        <ele>163.56</ele>
        <time>2014-04-06T08:14:43Z</time>
      </trkpt>
      <trkpt lat="50.15716" lon="3.67121">
        <ele>163.56</ele>
        <time>2014-04-06T08:14:47Z</time>
      </trkpt>
      <trkpt lat="50.15716" lon="3.67119">
        <ele>163.56</ele>
        <time>2014-04-06T08:14:48Z</time>
      </trkpt>
      <trkpt lat="50.15716" lon="3.67117">
        <ele>163.56</ele>
        <time>2014-04-06T08:14:49Z</time>
      </trkpt>
      <trkpt lat="50.15715" lon="3.6711">
        <ele>163.56</ele>
        <time>2014-04-06T08:14:53Z</time>
      </trkpt>
      <trkpt lat="50.15715" lon="3.67108">
        <ele>163.56</ele>
        <time>2014-04-06T08:14:54Z</time>
      </trkpt>
      <trkpt lat="50.15715" lon="3.67106">
        <ele>163.56</ele>
        <time>2014-04-06T08:14:55Z</time>
      </trkpt>
      <trkpt lat="50.15719" lon="3.67108">
        <ele>163.56</ele>
        <time>2014-04-06T08:14:57Z</time>
      </trkpt>
      <trkpt lat="50.15729" lon="3.67115">
        <ele>162.12</ele>
        <time>2014-04-06T08:15:00Z</time>
      </trkpt>
      <trkpt lat="50.15732" lon="3.67113">
        <ele>163.08</ele>
        <time>2014-04-06T08:15:03Z</time>
      </trkpt>
      <trkpt lat="50.15729" lon="3.67108">
        <ele>163.08</ele>
        <time>2014-04-06T08:15:06Z</time>
      </trkpt>
      <trkpt lat="50.15726" lon="3.67097">
        <ele>163.08</ele>
        <time>2014-04-06T08:15:17Z</time>
      </trkpt>
      <trkpt lat="50.15719" lon="3.67085">
        <ele>163.56</ele>
        <time>2014-04-06T08:15:24Z</time>
      </trkpt>
      <trkpt lat="50.15718" lon="3.67087">
        <ele>163.56</ele>
        <time>2014-04-06T08:15:27Z</time>
      </trkpt>
      <trkpt lat="50.15725" lon="3.67102">
        <ele>162.12</ele>
        <time>2014-04-06T08:15:33Z</time>
      </trkpt>
      <trkpt lat="50.15729" lon="3.67104">
        <ele>162.12</ele>
        <time>2014-04-06T08:15:34Z</time>
      </trkpt>
      <trkpt lat="50.15733" lon="3.67106">
        <ele>162.12</ele>
        <time>2014-04-06T08:15:36Z</time>
      </trkpt>
      <trkpt lat="50.15734" lon="3.67105">
        <ele>162.12</ele>
        <time>2014-04-06T08:15:37Z</time>
      </trkpt>
      <trkpt lat="50.15733" lon="3.67102">
        <ele>162.12</ele>
        <time>2014-04-06T08:15:39Z</time>
      </trkpt>
      <trkpt lat="50.15728" lon="3.67091">
        <ele>162.12</ele>
        <time>2014-04-06T08:15:46Z</time>
      </trkpt>
      <trkpt lat="50.15722" lon="3.67083">
        <ele>163.08</ele>
        <time>2014-04-06T08:15:51Z</time>
      </trkpt>
      <trkpt lat="50.1572" lon="3.67083">
        <ele>163.08</ele>
        <time>2014-04-06T08:15:53Z</time>
      </trkpt>
      <trkpt lat="50.15717" lon="3.6709">
        <ele>163.56</ele>
        <time>2014-04-06T08:16:04Z</time>
      </trkpt>
      <trkpt lat="50.15717" lon="3.67095">
        <ele>163.56</ele>
        <time>2014-04-06T08:16:16Z</time>
      </trkpt>
      <trkpt lat="50.15726" lon="3.67103">
        <ele>161.16</ele>
        <time>2014-04-06T08:16:20Z</time>
      </trkpt>
      <trkpt lat="50.1573" lon="3.67105">
        <ele>161.16</ele>
        <time>2014-04-06T08:16:21Z</time>
      </trkpt>
      <trkpt lat="50.15733" lon="3.67104">
        <ele>161.16</ele>
        <time>2014-04-06T08:16:22Z</time>
      </trkpt>
      <trkpt lat="50.15735" lon="3.67102">
        <ele>161.16</ele>
        <time>2014-04-06T08:16:23Z</time>
      </trkpt>
      <trkpt lat="50.1573" lon="3.67091">
        <ele>161.16</ele>
        <time>2014-04-06T08:16:27Z</time>
      </trkpt>
      <trkpt lat="50.15723" lon="3.67085">
        <ele>160.68</ele>
        <time>2014-04-06T08:16:30Z</time>
      </trkpt>
      <trkpt lat="50.15717" lon="3.67089">
        <ele>163.56</ele>
        <time>2014-04-06T08:16:40Z</time>
      </trkpt>
      <trkpt lat="50.15717" lon="3.67091">
        <ele>163.56</ele>
        <time>2014-04-06T08:16:42Z</time>
      </trkpt>
      <trkpt lat="50.15712" lon="3.67089">
        <ele>163.56</ele>
        <time>2014-04-06T08:16:51Z</time>
      </trkpt>
      <trkpt lat="50.1571" lon="3.67077">
        <ele>163.56</ele>
        <time>2014-04-06T08:17:07Z</time>
      </trkpt>
      <trkpt lat="50.1571" lon="3.67076">
        <ele>163.56</ele>
        <time>2014-04-06T08:17:08Z</time>
      </trkpt>
      <trkpt lat="50.15719" lon="3.67055">
        <ele>163.56</ele>
        <time>2014-04-06T08:17:14Z</time>
      </trkpt>
      <trkpt lat="50.15727" lon="3.67032">
        <ele>162.12</ele>
        <time>2014-04-06T08:17:19Z</time>
      </trkpt>
      <trkpt lat="50.1573" lon="3.67014">
        <ele>160.68</ele>
        <time>2014-04-06T08:17:22Z</time>
      </trkpt>
      <trkpt lat="50.1573" lon="3.67007">
        <ele>160.68</ele>
        <time>2014-04-06T08:17:24Z</time>
      </trkpt>
      <trkpt lat="50.15728" lon="3.67004">
        <ele>160.68</ele>
        <time>2014-04-06T08:17:26Z</time>
      </trkpt>
      <trkpt lat="50.15723" lon="3.67024">
        <ele>160.68</ele>
        <time>2014-04-06T08:17:31Z</time>
      </trkpt>
      <trkpt lat="50.15721" lon="3.67039">
        <ele>163.56</ele>
        <time>2014-04-06T08:17:35Z</time>
      </trkpt>
      <trkpt lat="50.15717" lon="3.67058">
        <ele>163.56</ele>
        <time>2014-04-06T08:17:40Z</time>
      </trkpt>
      <trkpt lat="50.15705" lon="3.67048">
        <ele>163.08</ele>
        <time>2014-04-06T08:17:47Z</time>
      </trkpt>
      <trkpt lat="50.15685" lon="3.67019">
        <ele>163.08</ele>
        <time>2014-04-06T08:17:55Z</time>
      </trkpt>
      <trkpt lat="50.15672" lon="3.66995">
        <ele>162.6</ele>
        <time>2014-04-06T08:18:00Z</time>
      </trkpt>
      <trkpt lat="50.15671" lon="3.66988">
        <ele>162.6</ele>
        <time>2014-04-06T08:18:01Z</time>
      </trkpt>
      <trkpt lat="50.15671" lon="3.66965">
        <ele>162.6</ele>
        <time>2014-04-06T08:18:04Z</time>
      </trkpt>
      <trkpt lat="50.15671" lon="3.66957">
        <ele>162.6</ele>
        <time>2014-04-06T08:18:05Z</time>
      </trkpt>
      <trkpt lat="50.15669" lon="3.66953">
        <ele>163.08</ele>
        <time>2014-04-06T08:18:06Z</time>
      </trkpt>
      <trkpt lat="50.15667" lon="3.66948">
        <ele>163.08</ele>
        <time>2014-04-06T08:18:07Z</time>
      </trkpt>
      <trkpt lat="50.15664" lon="3.66943">
        <ele>164.04</ele>
        <time>2014-04-06T08:18:08Z</time>
      </trkpt>
      <trkpt lat="50.15662" lon="3.66939">
        <ele>164.04</ele>
        <time>2014-04-06T08:18:09Z</time>
      </trkpt>
      <trkpt lat="50.15661" lon="3.66935">
        <ele>164.52</ele>
        <time>2014-04-06T08:18:10Z</time>
      </trkpt>
      <trkpt lat="50.15658" lon="3.6693">
        <ele>164.52</ele>
        <time>2014-04-06T08:18:11Z</time>
      </trkpt>
      <trkpt lat="50.15646" lon="3.66887">
        <ele>165.48</ele>
        <time>2014-04-06T08:18:21Z</time>
      </trkpt>
      <trkpt lat="50.15645" lon="3.66835">
        <ele>165.96</ele>
        <time>2014-04-06T08:18:29Z</time>
      </trkpt>
      <trkpt lat="50.15645" lon="3.66813">
        <ele>165.96</ele>
        <time>2014-04-06T08:18:32Z</time>
      </trkpt>
      <trkpt lat="50.15645" lon="3.66805">
        <ele>165.96</ele>
        <time>2014-04-06T08:18:33Z</time>
      </trkpt>
      <trkpt lat="50.15644" lon="3.66797">
        <ele>165.96</ele>
        <time>2014-04-06T08:18:34Z</time>
      </trkpt>
      <trkpt lat="50.15644" lon="3.66765">
        <ele>164.52</ele>
        <time>2014-04-06T08:18:38Z</time>
      </trkpt>
      <trkpt lat="50.15643" lon="3.66679">
        <ele>163.56</ele>
        <time>2014-04-06T08:18:50Z</time>
      </trkpt>
      <trkpt lat="50.1564" lon="3.66615">
        <ele>163.56</ele>
        <time>2014-04-06T08:19:01Z</time>
      </trkpt>
      <trkpt lat="50.1564" lon="3.66606">
        <ele>163.08</ele>
        <time>2014-04-06T08:19:02Z</time>
      </trkpt>
      <trkpt lat="50.15643" lon="3.6658">
        <ele>162.6</ele>
        <time>2014-04-06T08:19:05Z</time>
      </trkpt>
      <trkpt lat="50.15642" lon="3.6657">
        <ele>162.6</ele>
        <time>2014-04-06T08:19:06Z</time>
      </trkpt>
      <trkpt lat="50.1564" lon="3.66562">
        <ele>162.6</ele>
        <time>2014-04-06T08:19:07Z</time>
      </trkpt>
      <trkpt lat="50.15636" lon="3.66555">
        <ele>162.6</ele>
        <time>2014-04-06T08:19:08Z</time>
      </trkpt>
      <trkpt lat="50.15632" lon="3.66551">
        <ele>162.6</ele>
        <time>2014-04-06T08:19:09Z</time>
      </trkpt>
      <trkpt lat="50.15629" lon="3.66547">
        <ele>162.6</ele>
        <time>2014-04-06T08:19:10Z</time>
      </trkpt>
      <trkpt lat="50.15626" lon="3.66542">
        <ele>162.6</ele>
        <time>2014-04-06T08:19:11Z</time>
      </trkpt>
      <trkpt lat="50.15622" lon="3.66537">
        <ele>162.6</ele>
        <time>2014-04-06T08:19:12Z</time>
      </trkpt>
      <trkpt lat="50.15618" lon="3.66533">
        <ele>162.6</ele>
        <time>2014-04-06T08:19:13Z</time>
      </trkpt>
      <trkpt lat="50.15588" lon="3.66501">
        <ele>162.6</ele>
        <time>2014-04-06T08:19:24Z</time>
      </trkpt>
      <trkpt lat="50.15557" lon="3.66466">
        <ele>164.52</ele>
        <time>2014-04-06T08:19:35Z</time>
      </trkpt>
      <trkpt lat="50.15516" lon="3.66419">
        <ele>166.93</ele>
        <time>2014-04-06T08:19:48Z</time>
      </trkpt>
      <trkpt lat="50.15493" lon="3.66398">
        <ele>167.89</ele>
        <time>2014-04-06T08:19:56Z</time>
      </trkpt>
      <trkpt lat="50.15448" lon="3.66419">
        <ele>167.89</ele>
        <time>2014-04-06T08:20:10Z</time>
      </trkpt>
      <trkpt lat="50.15393" lon="3.66455">
        <ele>165.96</ele>
        <time>2014-04-06T08:20:24Z</time>
      </trkpt>
      <trkpt lat="50.15357" lon="3.66482">
        <ele>164.52</ele>
        <time>2014-04-06T08:20:32Z</time>
      </trkpt>
      <trkpt lat="50.15352" lon="3.66485">
        <ele>164.04</ele>
        <time>2014-04-06T08:20:33Z</time>
      </trkpt>
      <trkpt lat="50.15348" lon="3.66488">
        <ele>164.04</ele>
        <time>2014-04-06T08:20:34Z</time>
      </trkpt>
      <trkpt lat="50.15343" lon="3.66492">
        <ele>163.08</ele>
        <time>2014-04-06T08:20:35Z</time>
      </trkpt>
      <trkpt lat="50.15339" lon="3.66495">
        <ele>163.08</ele>
        <time>2014-04-06T08:20:36Z</time>
      </trkpt>
      <trkpt lat="50.1529" lon="3.66528">
        <ele>160.68</ele>
        <time>2014-04-06T08:20:45Z</time>
      </trkpt>
      <trkpt lat="50.15227" lon="3.66574">
        <ele>159.72</ele>
        <time>2014-04-06T08:20:58Z</time>
      </trkpt>
      <trkpt lat="50.15172" lon="3.66619">
        <ele>162.12</ele>
        <time>2014-04-06T08:21:11Z</time>
      </trkpt>
      <trkpt lat="50.15168" lon="3.66622">
        <ele>162.6</ele>
        <time>2014-04-06T08:21:12Z</time>
      </trkpt>
      <trkpt lat="50.1512" lon="3.66656">
        <ele>165</ele>
        <time>2014-04-06T08:21:22Z</time>
      </trkpt>
      <trkpt lat="50.15116" lon="3.6666">
        <ele>165</ele>
        <time>2014-04-06T08:21:23Z</time>
      </trkpt>
      <trkpt lat="50.15111" lon="3.66663">
        <ele>165</ele>
        <time>2014-04-06T08:21:24Z</time>
      </trkpt>
      <trkpt lat="50.15107" lon="3.66666">
        <ele>165</ele>
        <time>2014-04-06T08:21:25Z</time>
      </trkpt>
      <trkpt lat="50.15102" lon="3.66669">
        <ele>165</ele>
        <time>2014-04-06T08:21:26Z</time>
      </trkpt>
      <trkpt lat="50.15053" lon="3.66705">
        <ele>165.48</ele>
        <time>2014-04-06T08:21:36Z</time>
      </trkpt>
      <trkpt lat="50.15049" lon="3.66708">
        <ele>165.48</ele>
        <time>2014-04-06T08:21:37Z</time>
      </trkpt>
      <trkpt lat="50.15045" lon="3.66711">
        <ele>165.48</ele>
        <time>2014-04-06T08:21:38Z</time>
      </trkpt>
      <trkpt lat="50.15042" lon="3.66714">
        <ele>165.48</ele>
        <time>2014-04-06T08:21:39Z</time>
      </trkpt>
      <trkpt lat="50.15039" lon="3.66717">
        <ele>165.48</ele>
        <time>2014-04-06T08:21:40Z</time>
      </trkpt>
      <trkpt lat="50.15038" lon="3.66721">
        <ele>165.96</ele>
        <time>2014-04-06T08:21:41Z</time>
      </trkpt>
      <trkpt lat="50.15038" lon="3.66723">
        <ele>166.45</ele>
        <time>2014-04-06T08:21:42Z</time>
      </trkpt>
      <trkpt lat="50.15039" lon="3.66725">
        <ele>166.45</ele>
        <time>2014-04-06T08:21:43Z</time>
      </trkpt>
      <trkpt lat="50.1504" lon="3.66727">
        <ele>166.45</ele>
        <time>2014-04-06T08:21:44Z</time>
      </trkpt>
      <trkpt lat="50.15041" lon="3.66729">
        <ele>166.45</ele>
        <time>2014-04-06T08:21:45Z</time>
      </trkpt>
      <trkpt lat="50.15042" lon="3.66733">
        <ele>166.93</ele>
        <time>2014-04-06T08:21:46Z</time>
      </trkpt>
      <trkpt lat="50.1505" lon="3.66753">
        <ele>166.93</ele>
        <time>2014-04-06T08:21:55Z</time>
      </trkpt>
      <trkpt lat="50.1505" lon="3.6676">
        <ele>166.45</ele>
        <time>2014-04-06T08:22:18Z</time>
      </trkpt>
      <trkpt lat="50.1507" lon="3.66813">
        <ele>166.45</ele>
        <time>2014-04-06T08:22:28Z</time>
      </trkpt>
      <trkpt lat="50.15089" lon="3.6687">
        <ele>166.45</ele>
        <time>2014-04-06T08:22:39Z</time>
      </trkpt>
      <trkpt lat="50.15089" lon="3.66874">
        <ele>166.45</ele>
        <time>2014-04-06T08:22:40Z</time>
      </trkpt>
      <trkpt lat="50.15087" lon="3.66877">
        <ele>166.45</ele>
        <time>2014-04-06T08:22:41Z</time>
      </trkpt>
      <trkpt lat="50.15073" lon="3.66896">
        <ele>166.45</ele>
        <time>2014-04-06T08:22:51Z</time>
      </trkpt>
      <trkpt lat="50.15068" lon="3.66901">
        <ele>166.93</ele>
        <time>2014-04-06T08:22:58Z</time>
      </trkpt>
      <trkpt lat="50.15066" lon="3.66903">
        <ele>166.93</ele>
        <time>2014-04-06T08:22:59Z</time>
      </trkpt>
      <trkpt lat="50.15065" lon="3.66905">
        <ele>166.93</ele>
        <time>2014-04-06T08:23:00Z</time>
      </trkpt>
      <trkpt lat="50.15045" lon="3.66934">
        <ele>167.89</ele>
        <time>2014-04-06T08:23:12Z</time>
      </trkpt>
      <trkpt lat="50.15027" lon="3.66962">
        <ele>168.37</ele>
        <time>2014-04-06T08:23:21Z</time>
      </trkpt>
      <trkpt lat="50.15006" lon="3.66986">
        <ele>169.33</ele>
        <time>2014-04-06T08:23:31Z</time>
      </trkpt>
      <trkpt lat="50.15004" lon="3.66988">
        <ele>169.33</ele>
        <time>2014-04-06T08:23:32Z</time>
      </trkpt>
      <trkpt lat="50.15003" lon="3.66991">
        <ele>169.33</ele>
        <time>2014-04-06T08:23:33Z</time>
      </trkpt>
      <trkpt lat="50.14979" lon="3.6702">
        <ele>169.33</ele>
        <time>2014-04-06T08:23:45Z</time>
      </trkpt>
      <trkpt lat="50.14958" lon="3.67043">
        <ele>169.81</ele>
        <time>2014-04-06T08:23:56Z</time>
      </trkpt>
      <trkpt lat="50.14938" lon="3.67067">
        <ele>170.29</ele>
        <time>2014-04-06T08:24:06Z</time>
      </trkpt>
      <trkpt lat="50.14937" lon="3.67069">
        <ele>170.29</ele>
        <time>2014-04-06T08:24:07Z</time>
      </trkpt>
      <trkpt lat="50.14935" lon="3.67072">
        <ele>170.29</ele>
        <time>2014-04-06T08:24:08Z</time>
      </trkpt>
      <trkpt lat="50.14934" lon="3.67074">
        <ele>170.77</ele>
        <time>2014-04-06T08:24:09Z</time>
      </trkpt>
      <trkpt lat="50.14933" lon="3.67077">
        <ele>170.77</ele>
        <time>2014-04-06T08:24:10Z</time>
      </trkpt>
      <trkpt lat="50.14931" lon="3.6708">
        <ele>170.77</ele>
        <time>2014-04-06T08:24:11Z</time>
      </trkpt>
      <trkpt lat="50.14922" lon="3.67088">
        <ele>171.25</ele>
        <time>2014-04-06T08:24:15Z</time>
      </trkpt>
      <trkpt lat="50.14919" lon="3.6709">
        <ele>171.25</ele>
        <time>2014-04-06T08:24:16Z</time>
      </trkpt>
      <trkpt lat="50.14911" lon="3.67095">
        <ele>171.25</ele>
        <time>2014-04-06T08:24:19Z</time>
      </trkpt>
      <trkpt lat="50.1491" lon="3.67096">
        <ele>171.25</ele>
        <time>2014-04-06T08:24:20Z</time>
      </trkpt>
      <trkpt lat="50.14888" lon="3.67123">
        <ele>171.25</ele>
        <time>2014-04-06T08:24:32Z</time>
      </trkpt>
      <trkpt lat="50.14865" lon="3.67148">
        <ele>171.25</ele>
        <time>2014-04-06T08:24:45Z</time>
      </trkpt>
      <trkpt lat="50.14835" lon="3.67184">
        <ele>172.21</ele>
        <time>2014-04-06T08:24:59Z</time>
      </trkpt>
      <trkpt lat="50.1481" lon="3.67211">
        <ele>172.69</ele>
        <time>2014-04-06T08:25:10Z</time>
      </trkpt>
      <trkpt lat="50.14788" lon="3.67238">
        <ele>172.69</ele>
        <time>2014-04-06T08:25:20Z</time>
      </trkpt>
      <trkpt lat="50.14782" lon="3.67246">
        <ele>172.69</ele>
        <time>2014-04-06T08:25:24Z</time>
      </trkpt>
      <trkpt lat="50.14781" lon="3.67248">
        <ele>172.69</ele>
        <time>2014-04-06T08:25:25Z</time>
      </trkpt>
      <trkpt lat="50.1478" lon="3.67251">
        <ele>173.17</ele>
        <time>2014-04-06T08:25:26Z</time>
      </trkpt>
      <trkpt lat="50.14779" lon="3.67253">
        <ele>173.17</ele>
        <time>2014-04-06T08:25:27Z</time>
      </trkpt>
      <trkpt lat="50.14774" lon="3.67257">
        <ele>173.17</ele>
        <time>2014-04-06T08:25:30Z</time>
      </trkpt>
      <trkpt lat="50.14771" lon="3.67259">
        <ele>173.17</ele>
        <time>2014-04-06T08:25:32Z</time>
      </trkpt>
      <trkpt lat="50.14768" lon="3.67261">
        <ele>173.17</ele>
        <time>2014-04-06T08:25:33Z</time>
      </trkpt>
      <trkpt lat="50.14767" lon="3.67264">
        <ele>173.17</ele>
        <time>2014-04-06T08:25:34Z</time>
      </trkpt>
      <trkpt lat="50.14747" lon="3.67286">
        <ele>173.17</ele>
        <time>2014-04-06T08:25:45Z</time>
      </trkpt>
      <trkpt lat="50.14722" lon="3.67315">
        <ele>173.17</ele>
        <time>2014-04-06T08:25:57Z</time>
      </trkpt>
      <trkpt lat="50.14719" lon="3.67316">
        <ele>173.17</ele>
        <time>2014-04-06T08:25:58Z</time>
      </trkpt>
      <trkpt lat="50.14717" lon="3.67317">
        <ele>173.17</ele>
        <time>2014-04-06T08:25:59Z</time>
      </trkpt>
      <trkpt lat="50.14713" lon="3.67322">
        <ele>173.17</ele>
        <time>2014-04-06T08:26:09Z</time>
      </trkpt>
      <trkpt lat="50.1471" lon="3.67329">
        <ele>173.17</ele>
        <time>2014-04-06T08:26:22Z</time>
      </trkpt>
      <trkpt lat="50.14709" lon="3.6733">
        <ele>173.17</ele>
        <time>2014-04-06T08:26:23Z</time>
      </trkpt>
      <trkpt lat="50.14705" lon="3.67335">
        <ele>173.17</ele>
        <time>2014-04-06T08:26:31Z</time>
      </trkpt>
      <trkpt lat="50.14704" lon="3.67337">
        <ele>173.17</ele>
        <time>2014-04-06T08:26:32Z</time>
      </trkpt>
      <trkpt lat="50.14703" lon="3.67339">
        <ele>173.17</ele>
        <time>2014-04-06T08:26:33Z</time>
      </trkpt>
      <trkpt lat="50.14702" lon="3.67341">
        <ele>173.17</ele>
        <time>2014-04-06T08:26:34Z</time>
      </trkpt>
      <trkpt lat="50.147" lon="3.67344">
        <ele>173.17</ele>
        <time>2014-04-06T08:26:35Z</time>
      </trkpt>
      <trkpt lat="50.14699" lon="3.67346">
        <ele>173.17</ele>
        <time>2014-04-06T08:26:36Z</time>
      </trkpt>
      <trkpt lat="50.14697" lon="3.67348">
        <ele>173.17</ele>
        <time>2014-04-06T08:26:37Z</time>
      </trkpt>
      <trkpt lat="50.14695" lon="3.6735">
        <ele>173.17</ele>
        <time>2014-04-06T08:26:38Z</time>
      </trkpt>
      <trkpt lat="50.14693" lon="3.67352">
        <ele>173.17</ele>
        <time>2014-04-06T08:26:39Z</time>
      </trkpt>
      <trkpt lat="50.14674" lon="3.67374">
        <ele>173.17</ele>
        <time>2014-04-06T08:26:50Z</time>
      </trkpt>
      <trkpt lat="50.14645" lon="3.6741">
        <ele>173.17</ele>
        <time>2014-04-06T08:27:04Z</time>
      </trkpt>
      <trkpt lat="50.14624" lon="3.67435">
        <ele>173.66</ele>
        <time>2014-04-06T08:27:14Z</time>
      </trkpt>
      <trkpt lat="50.146" lon="3.67464">
        <ele>173.66</ele>
        <time>2014-04-06T08:27:25Z</time>
      </trkpt>
      <trkpt lat="50.14576" lon="3.67491">
        <ele>173.66</ele>
        <time>2014-04-06T08:27:36Z</time>
      </trkpt>
      <trkpt lat="50.14574" lon="3.67492">
        <ele>173.66</ele>
        <time>2014-04-06T08:27:37Z</time>
      </trkpt>
      <trkpt lat="50.14572" lon="3.67495">
        <ele>173.66</ele>
        <time>2014-04-06T08:27:38Z</time>
      </trkpt>
      <trkpt lat="50.1457" lon="3.67497">
        <ele>173.66</ele>
        <time>2014-04-06T08:27:39Z</time>
      </trkpt>
      <trkpt lat="50.14568" lon="3.67499">
        <ele>173.66</ele>
        <time>2014-04-06T08:27:40Z</time>
      </trkpt>
      <trkpt lat="50.14553" lon="3.67516">
        <ele>174.14</ele>
        <time>2014-04-06T08:27:47Z</time>
      </trkpt>
      <trkpt lat="50.14551" lon="3.67515">
        <ele>174.14</ele>
        <time>2014-04-06T08:27:48Z</time>
      </trkpt>
      <trkpt lat="50.14549" lon="3.67516">
        <ele>174.14</ele>
        <time>2014-04-06T08:27:49Z</time>
      </trkpt>
      <trkpt lat="50.14546" lon="3.67517">
        <ele>174.14</ele>
        <time>2014-04-06T08:27:50Z</time>
      </trkpt>
      <trkpt lat="50.14537" lon="3.67521">
        <ele>174.14</ele>
        <time>2014-04-06T08:27:55Z</time>
      </trkpt>
      <trkpt lat="50.14534" lon="3.67522">
        <ele>174.14</ele>
        <time>2014-04-06T08:27:57Z</time>
      </trkpt>
      <trkpt lat="50.14532" lon="3.67522">
        <ele>174.14</ele>
        <time>2014-04-06T08:27:58Z</time>
      </trkpt>
      <trkpt lat="50.1453" lon="3.67523">
        <ele>174.14</ele>
        <time>2014-04-06T08:27:59Z</time>
      </trkpt>
      <trkpt lat="50.14528" lon="3.67524">
        <ele>174.14</ele>
        <time>2014-04-06T08:28:00Z</time>
      </trkpt>
      <trkpt lat="50.14525" lon="3.67525">
        <ele>174.14</ele>
        <time>2014-04-06T08:28:01Z</time>
      </trkpt>
      <trkpt lat="50.14523" lon="3.67526">
        <ele>174.14</ele>
        <time>2014-04-06T08:28:02Z</time>
      </trkpt>
      <trkpt lat="50.14521" lon="3.67526">
        <ele>174.14</ele>
        <time>2014-04-06T08:28:03Z</time>
      </trkpt>
      <trkpt lat="50.14518" lon="3.67527">
        <ele>174.14</ele>
        <time>2014-04-06T08:28:04Z</time>
      </trkpt>
      <trkpt lat="50.14515" lon="3.67527">
        <ele>174.14</ele>
        <time>2014-04-06T08:28:05Z</time>
      </trkpt>
      <trkpt lat="50.14513" lon="3.67527">
        <ele>174.14</ele>
        <time>2014-04-06T08:28:06Z</time>
      </trkpt>
      <trkpt lat="50.14511" lon="3.67528">
        <ele>174.14</ele>
        <time>2014-04-06T08:28:07Z</time>
      </trkpt>
      <trkpt lat="50.1451" lon="3.67528">
        <ele>174.14</ele>
        <time>2014-04-06T08:28:08Z</time>
      </trkpt>
      <trkpt lat="50.14508" lon="3.67529">
        <ele>174.14</ele>
        <time>2014-04-06T08:28:09Z</time>
      </trkpt>
      <trkpt lat="50.14506" lon="3.6753">
        <ele>174.14</ele>
        <time>2014-04-06T08:28:10Z</time>
      </trkpt>
      <trkpt lat="50.14497" lon="3.67532">
        <ele>174.14</ele>
        <time>2014-04-06T08:28:14Z</time>
      </trkpt>
      <trkpt lat="50.14495" lon="3.67534">
        <ele>174.14</ele>
        <time>2014-04-06T08:28:15Z</time>
      </trkpt>
      <trkpt lat="50.14494" lon="3.67535">
        <ele>174.14</ele>
        <time>2014-04-06T08:28:16Z</time>
      </trkpt>
      <trkpt lat="50.14492" lon="3.67537">
        <ele>174.14</ele>
        <time>2014-04-06T08:28:17Z</time>
      </trkpt>
      <trkpt lat="50.1449" lon="3.67537">
        <ele>174.14</ele>
        <time>2014-04-06T08:28:18Z</time>
      </trkpt>
      <trkpt lat="50.14488" lon="3.67538">
        <ele>174.14</ele>
        <time>2014-04-06T08:28:19Z</time>
      </trkpt>
      <trkpt lat="50.14486" lon="3.67539">
        <ele>174.14</ele>
        <time>2014-04-06T08:28:20Z</time>
      </trkpt>
      <trkpt lat="50.14484" lon="3.67539">
        <ele>173.17</ele>
        <time>2014-04-06T08:28:21Z</time>
      </trkpt>
      <trkpt lat="50.14482" lon="3.6754">
        <ele>173.17</ele>
        <time>2014-04-06T08:28:22Z</time>
      </trkpt>
      <trkpt lat="50.14453" lon="3.67548">
        <ele>172.69</ele>
        <time>2014-04-06T08:28:34Z</time>
      </trkpt>
      <trkpt lat="50.14421" lon="3.67561">
        <ele>171.73</ele>
        <time>2014-04-06T08:28:44Z</time>
      </trkpt>
      <trkpt lat="50.14418" lon="3.67561">
        <ele>171.73</ele>
        <time>2014-04-06T08:28:45Z</time>
      </trkpt>
      <trkpt lat="50.14385" lon="3.67572">
        <ele>170.77</ele>
        <time>2014-04-06T08:28:57Z</time>
      </trkpt>
      <trkpt lat="50.14368" lon="3.67578">
        <ele>169.81</ele>
        <time>2014-04-06T08:29:03Z</time>
      </trkpt>
      <trkpt lat="50.14365" lon="3.67578">
        <ele>169.81</ele>
        <time>2014-04-06T08:29:04Z</time>
      </trkpt>
      <trkpt lat="50.14327" lon="3.67588">
        <ele>169.33</ele>
        <time>2014-04-06T08:29:17Z</time>
      </trkpt>
      <trkpt lat="50.1429" lon="3.676">
        <ele>167.89</ele>
        <time>2014-04-06T08:29:28Z</time>
      </trkpt>
      <trkpt lat="50.14256" lon="3.67613">
        <ele>167.41</ele>
        <time>2014-04-06T08:29:37Z</time>
      </trkpt>
      <trkpt lat="50.14254" lon="3.67619">
        <ele>167.41</ele>
        <time>2014-04-06T08:29:39Z</time>
      </trkpt>
      <trkpt lat="50.14254" lon="3.67621">
        <ele>167.41</ele>
        <time>2014-04-06T08:29:40Z</time>
      </trkpt>
      <trkpt lat="50.14253" lon="3.67624">
        <ele>167.41</ele>
        <time>2014-04-06T08:29:41Z</time>
      </trkpt>
      <trkpt lat="50.1425" lon="3.67636">
        <ele>167.41</ele>
        <time>2014-04-06T08:29:46Z</time>
      </trkpt>
      <trkpt lat="50.14249" lon="3.67641">
        <ele>167.41</ele>
        <time>2014-04-06T08:30:02Z</time>
      </trkpt>
      <trkpt lat="50.14251" lon="3.67645">
        <ele>167.41</ele>
        <time>2014-04-06T08:30:20Z</time>
      </trkpt>
      <trkpt lat="50.14251" lon="3.67646">
        <ele>167.41</ele>
        <time>2014-04-06T08:30:21Z</time>
      </trkpt>
      <trkpt lat="50.14252" lon="3.67649">
        <ele>167.41</ele>
        <time>2014-04-06T08:30:22Z</time>
      </trkpt>
      <trkpt lat="50.14253" lon="3.6765">
        <ele>167.41</ele>
        <time>2014-04-06T08:30:23Z</time>
      </trkpt>
      <trkpt lat="50.14254" lon="3.67652">
        <ele>167.41</ele>
        <time>2014-04-06T08:30:24Z</time>
      </trkpt>
      <trkpt lat="50.14255" lon="3.67654">
        <ele>167.41</ele>
        <time>2014-04-06T08:30:25Z</time>
      </trkpt>
      <trkpt lat="50.14256" lon="3.67657">
        <ele>167.41</ele>
        <time>2014-04-06T08:30:26Z</time>
      </trkpt>
      <trkpt lat="50.14257" lon="3.6766">
        <ele>167.41</ele>
        <time>2014-04-06T08:30:27Z</time>
      </trkpt>
      <trkpt lat="50.14258" lon="3.67664">
        <ele>167.41</ele>
        <time>2014-04-06T08:30:28Z</time>
      </trkpt>
      <trkpt lat="50.1426" lon="3.67667">
        <ele>168.37</ele>
        <time>2014-04-06T08:30:29Z</time>
      </trkpt>
      <trkpt lat="50.14261" lon="3.67671">
        <ele>168.37</ele>
        <time>2014-04-06T08:30:30Z</time>
      </trkpt>
      <trkpt lat="50.14262" lon="3.67675">
        <ele>168.37</ele>
        <time>2014-04-06T08:30:31Z</time>
      </trkpt>
      <trkpt lat="50.14282" lon="3.67723">
        <ele>169.81</ele>
        <time>2014-04-06T08:30:42Z</time>
      </trkpt>
      <trkpt lat="50.14287" lon="3.67735">
        <ele>170.29</ele>
        <time>2014-04-06T08:30:44Z</time>
      </trkpt>
      <trkpt lat="50.1431" lon="3.67786">
        <ele>171.25</ele>
        <time>2014-04-06T08:30:52Z</time>
      </trkpt>
      <trkpt lat="50.14312" lon="3.67792">
        <ele>171.25</ele>
        <time>2014-04-06T08:30:53Z</time>
      </trkpt>
      <trkpt lat="50.14315" lon="3.67797">
        <ele>171.73</ele>
        <time>2014-04-06T08:30:54Z</time>
      </trkpt>
      <trkpt lat="50.14346" lon="3.67865">
        <ele>173.17</ele>
        <time>2014-04-06T08:31:07Z</time>
      </trkpt>
      <trkpt lat="50.14379" lon="3.67942">
        <ele>174.62</ele>
        <time>2014-04-06T08:31:21Z</time>
      </trkpt>
      <trkpt lat="50.14382" lon="3.67947">
        <ele>175.1</ele>
        <time>2014-04-06T08:31:22Z</time>
      </trkpt>
      <trkpt lat="50.14384" lon="3.67953">
        <ele>175.1</ele>
        <time>2014-04-06T08:31:23Z</time>
      </trkpt>
      <trkpt lat="50.14422" lon="3.68039">
        <ele>175.1</ele>
        <time>2014-04-06T08:31:36Z</time>
      </trkpt>
      <trkpt lat="50.14432" lon="3.68059">
        <ele>174.14</ele>
        <time>2014-04-06T08:31:39Z</time>
      </trkpt>
      <trkpt lat="50.14494" lon="3.68194">
        <ele>173.66</ele>
        <time>2014-04-06T08:31:57Z</time>
      </trkpt>
      <trkpt lat="50.1454" lon="3.68297">
        <ele>173.17</ele>
        <time>2014-04-06T08:32:11Z</time>
      </trkpt>
      <trkpt lat="50.14601" lon="3.68433">
        <ele>169.81</ele>
        <time>2014-04-06T08:32:28Z</time>
      </trkpt>
      <trkpt lat="50.14605" lon="3.68442">
        <ele>169.81</ele>
        <time>2014-04-06T08:32:29Z</time>
      </trkpt>
      <trkpt lat="50.14613" lon="3.68459">
        <ele>169.33</ele>
        <time>2014-04-06T08:32:31Z</time>
      </trkpt>
      <trkpt lat="50.14667" lon="3.68576">
        <ele>167.41</ele>
        <time>2014-04-06T08:32:44Z</time>
      </trkpt>
      <trkpt lat="50.14674" lon="3.68592">
        <ele>167.41</ele>
        <time>2014-04-06T08:32:46Z</time>
      </trkpt>
      <trkpt lat="50.14676" lon="3.68601">
        <ele>167.41</ele>
        <time>2014-04-06T08:32:47Z</time>
      </trkpt>
      <trkpt lat="50.14678" lon="3.6861">
        <ele>166.93</ele>
        <time>2014-04-06T08:32:48Z</time>
      </trkpt>
      <trkpt lat="50.14677" lon="3.6862">
        <ele>166.93</ele>
        <time>2014-04-06T08:32:49Z</time>
      </trkpt>
      <trkpt lat="50.14675" lon="3.6863">
        <ele>166.93</ele>
        <time>2014-04-06T08:32:50Z</time>
      </trkpt>
      <trkpt lat="50.14673" lon="3.68636">
        <ele>166.93</ele>
        <time>2014-04-06T08:32:51Z</time>
      </trkpt>
      <trkpt lat="50.1467" lon="3.68643">
        <ele>166.93</ele>
        <time>2014-04-06T08:32:52Z</time>
      </trkpt>
      <trkpt lat="50.1466" lon="3.68672">
        <ele>168.85</ele>
        <time>2014-04-06T08:32:56Z</time>
      </trkpt>
      <trkpt lat="50.14658" lon="3.6868">
        <ele>168.85</ele>
        <time>2014-04-06T08:32:57Z</time>
      </trkpt>
      <trkpt lat="50.14652" lon="3.68704">
        <ele>169.81</ele>
        <time>2014-04-06T08:33:00Z</time>
      </trkpt>
      <trkpt lat="50.14628" lon="3.68763">
        <ele>171.73</ele>
        <time>2014-04-06T08:33:11Z</time>
      </trkpt>
      <trkpt lat="50.14601" lon="3.68828">
        <ele>173.17</ele>
        <time>2014-04-06T08:33:25Z</time>
      </trkpt>
      <trkpt lat="50.14585" lon="3.68871">
        <ele>174.14</ele>
        <time>2014-04-06T08:33:38Z</time>
      </trkpt>
      <trkpt lat="50.14566" lon="3.68916">
        <ele>175.58</ele>
        <time>2014-04-06T08:33:52Z</time>
      </trkpt>
      <trkpt lat="50.14552" lon="3.6895">
        <ele>176.06</ele>
        <time>2014-04-06T08:34:03Z</time>
      </trkpt>
      <trkpt lat="50.14531" lon="3.69005">
        <ele>176.06</ele>
        <time>2014-04-06T08:34:16Z</time>
      </trkpt>
      <trkpt lat="50.14512" lon="3.69057">
        <ele>176.54</ele>
        <time>2014-04-06T08:34:29Z</time>
      </trkpt>
      <trkpt lat="50.14489" lon="3.69111">
        <ele>177.5</ele>
        <time>2014-04-06T08:34:43Z</time>
      </trkpt>
      <trkpt lat="50.14474" lon="3.6915">
        <ele>177.98</ele>
        <time>2014-04-06T08:34:54Z</time>
      </trkpt>
      <trkpt lat="50.1446" lon="3.69185">
        <ele>178.46</ele>
        <time>2014-04-06T08:35:05Z</time>
      </trkpt>
      <trkpt lat="50.14459" lon="3.69187">
        <ele>178.46</ele>
        <time>2014-04-06T08:35:06Z</time>
      </trkpt>
      <trkpt lat="50.14454" lon="3.69196">
        <ele>178.46</ele>
        <time>2014-04-06T08:35:12Z</time>
      </trkpt>
      <trkpt lat="50.14453" lon="3.69197">
        <ele>178.46</ele>
        <time>2014-04-06T08:35:13Z</time>
      </trkpt>
      <trkpt lat="50.14452" lon="3.692">
        <ele>178.46</ele>
        <time>2014-04-06T08:35:15Z</time>
      </trkpt>
      <trkpt lat="50.14452" lon="3.69202">
        <ele>178.46</ele>
        <time>2014-04-06T08:35:16Z</time>
      </trkpt>
      <trkpt lat="50.14451" lon="3.69204">
        <ele>178.46</ele>
        <time>2014-04-06T08:35:17Z</time>
      </trkpt>
      <trkpt lat="50.1445" lon="3.69206">
        <ele>178.46</ele>
        <time>2014-04-06T08:35:18Z</time>
      </trkpt>
      <trkpt lat="50.14448" lon="3.69208">
        <ele>178.46</ele>
        <time>2014-04-06T08:35:19Z</time>
      </trkpt>
      <trkpt lat="50.14447" lon="3.69211">
        <ele>178.46</ele>
        <time>2014-04-06T08:35:20Z</time>
      </trkpt>
      <trkpt lat="50.14447" lon="3.69213">
        <ele>178.46</ele>
        <time>2014-04-06T08:35:21Z</time>
      </trkpt>
      <trkpt lat="50.14444" lon="3.69215">
        <ele>178.46</ele>
        <time>2014-04-06T08:35:33Z</time>
      </trkpt>
      <trkpt lat="50.14444" lon="3.69216">
        <ele>178.46</ele>
        <time>2014-04-06T08:35:38Z</time>
      </trkpt>
      <trkpt lat="50.14444" lon="3.69217">
        <ele>178.46</ele>
        <time>2014-04-06T08:35:48Z</time>
      </trkpt>
      <trkpt lat="50.14443" lon="3.6922">
        <ele>178.94</ele>
        <time>2014-04-06T08:36:08Z</time>
      </trkpt>
      <trkpt lat="50.14443" lon="3.69221">
        <ele>178.94</ele>
        <time>2014-04-06T08:36:30Z</time>
      </trkpt>
      <trkpt lat="50.14441" lon="3.69219">
        <ele>178.94</ele>
        <time>2014-04-06T08:36:44Z</time>
      </trkpt>
      <trkpt lat="50.14442" lon="3.6922">
        <ele>178.94</ele>
        <time>2014-04-06T08:37:02Z</time>
      </trkpt>
      <trkpt lat="50.14445" lon="3.69213">
        <ele>178.94</ele>
        <time>2014-04-06T08:37:26Z</time>
      </trkpt>
      <trkpt lat="50.14447" lon="3.69217">
        <ele>178.94</ele>
        <time>2014-04-06T08:37:47Z</time>
      </trkpt>
      <trkpt lat="50.14451" lon="3.69215">
        <ele>178.94</ele>
        <time>2014-04-06T08:38:14Z</time>
      </trkpt>
      <trkpt lat="50.14448" lon="3.69211">
        <ele>178.94</ele>
        <time>2014-04-06T08:38:37Z</time>
      </trkpt>
      <trkpt lat="50.14444" lon="3.69212">
        <ele>178.94</ele>
        <time>2014-04-06T08:38:56Z</time>
      </trkpt>
      <trkpt lat="50.14442" lon="3.69215">
        <ele>178.94</ele>
        <time>2014-04-06T08:39:15Z</time>
      </trkpt>
      <trkpt lat="50.14435" lon="3.69216">
        <ele>178.94</ele>
        <time>2014-04-06T08:39:29Z</time>
      </trkpt>
      <trkpt lat="50.14433" lon="3.69213">
        <ele>178.94</ele>
        <time>2014-04-06T08:39:46Z</time>
      </trkpt>
      <trkpt lat="50.14431" lon="3.69213">
        <ele>178.94</ele>
        <time>2014-04-06T08:39:51Z</time>
      </trkpt>
      <trkpt lat="50.14429" lon="3.69213">
        <ele>179.42</ele>
        <time>2014-04-06T08:39:54Z</time>
      </trkpt>
      <trkpt lat="50.14422" lon="3.69205">
        <ele>179.42</ele>
        <time>2014-04-06T08:40:04Z</time>
      </trkpt>
      <trkpt lat="50.1442" lon="3.692">
        <ele>179.42</ele>
        <time>2014-04-06T08:40:16Z</time>
      </trkpt>
      <trkpt lat="50.14416" lon="3.69202">
        <ele>177.98</ele>
        <time>2014-04-06T08:40:29Z</time>
      </trkpt>
      <trkpt lat="50.1442" lon="3.69202">
        <ele>177.98</ele>
        <time>2014-04-06T08:40:44Z</time>
      </trkpt>
      <trkpt lat="50.14421" lon="3.692">
        <ele>179.42</ele>
        <time>2014-04-06T08:41:04Z</time>
      </trkpt>
      <trkpt lat="50.1442" lon="3.69197">
        <ele>179.42</ele>
        <time>2014-04-06T08:41:27Z</time>
      </trkpt>
      <trkpt lat="50.14425" lon="3.69192">
        <ele>179.42</ele>
        <time>2014-04-06T08:41:44Z</time>
      </trkpt>
      <trkpt lat="50.14421" lon="3.69191">
        <ele>179.42</ele>
        <time>2014-04-06T08:41:58Z</time>
      </trkpt>
      <trkpt lat="50.1442" lon="3.69193">
        <ele>179.42</ele>
        <time>2014-04-06T08:42:15Z</time>
      </trkpt>
      <trkpt lat="50.14423" lon="3.69194">
        <ele>179.42</ele>
        <time>2014-04-06T08:42:31Z</time>
      </trkpt>
      <trkpt lat="50.14423" lon="3.69193">
        <ele>179.42</ele>
        <time>2014-04-06T08:42:51Z</time>
      </trkpt>
      <trkpt lat="50.14421" lon="3.69194">
        <ele>179.42</ele>
        <time>2014-04-06T08:43:06Z</time>
      </trkpt>
      <trkpt lat="50.14423" lon="3.69191">
        <ele>179.42</ele>
        <time>2014-04-06T08:43:25Z</time>
      </trkpt>
      <trkpt lat="50.14423" lon="3.69192">
        <ele>178.94</ele>
        <time>2014-04-06T08:43:50Z</time>
      </trkpt>
      <trkpt lat="50.14421" lon="3.69196">
        <ele>178.94</ele>
        <time>2014-04-06T08:44:13Z</time>
      </trkpt>
      <trkpt lat="50.14421" lon="3.69196">
        <ele>178.94</ele>
        <time>2014-04-06T08:44:34Z</time>
      </trkpt>
      <trkpt lat="50.14424" lon="3.69199">
        <ele>179.42</ele>
        <time>2014-04-06T08:44:53Z</time>
      </trkpt>
      <trkpt lat="50.14425" lon="3.69202">
        <ele>180.38</ele>
        <time>2014-04-06T08:44:55Z</time>
      </trkpt>
      <trkpt lat="50.14425" lon="3.69203">
        <ele>178.94</ele>
        <time>2014-04-06T08:44:56Z</time>
      </trkpt>
      <trkpt lat="50.14429" lon="3.69212">
        <ele>178.94</ele>
        <time>2014-04-06T08:45:07Z</time>
      </trkpt>
      <trkpt lat="50.14432" lon="3.69212">
        <ele>178.94</ele>
        <time>2014-04-06T08:45:13Z</time>
      </trkpt>
      <trkpt lat="50.14436" lon="3.69211">
        <ele>178.94</ele>
        <time>2014-04-06T08:45:25Z</time>
      </trkpt>
      <trkpt lat="50.14434" lon="3.69211">
        <ele>178.94</ele>
        <time>2014-04-06T08:45:44Z</time>
      </trkpt>
      <trkpt lat="50.14431" lon="3.69216">
        <ele>179.42</ele>
        <time>2014-04-06T08:46:09Z</time>
      </trkpt>
      <trkpt lat="50.14431" lon="3.69219">
        <ele>179.42</ele>
        <time>2014-04-06T08:46:30Z</time>
      </trkpt>
      <trkpt lat="50.14431" lon="3.6922">
        <ele>179.42</ele>
        <time>2014-04-06T08:46:51Z</time>
      </trkpt>
      <trkpt lat="50.14432" lon="3.69213">
        <ele>179.9</ele>
        <time>2014-04-06T08:47:12Z</time>
      </trkpt>
      <trkpt lat="50.14433" lon="3.69214">
        <ele>177.98</ele>
        <time>2014-04-06T08:47:25Z</time>
      </trkpt>
      <trkpt lat="50.14438" lon="3.6921">
        <ele>178.94</ele>
        <time>2014-04-06T08:47:41Z</time>
      </trkpt>
      <trkpt lat="50.14435" lon="3.6921">
        <ele>178.94</ele>
        <time>2014-04-06T08:48:05Z</time>
      </trkpt>
      <trkpt lat="50.14434" lon="3.69212">
        <ele>178.94</ele>
        <time>2014-04-06T08:48:22Z</time>
      </trkpt>
      <trkpt lat="50.14431" lon="3.69212">
        <ele>178.94</ele>
        <time>2014-04-06T08:48:45Z</time>
      </trkpt>
      <trkpt lat="50.14432" lon="3.69212">
        <ele>178.94</ele>
        <time>2014-04-06T08:49:05Z</time>
      </trkpt>
      <trkpt lat="50.14433" lon="3.69208">
        <ele>178.94</ele>
        <time>2014-04-06T08:49:24Z</time>
      </trkpt>
      <trkpt lat="50.14432" lon="3.69209">
        <ele>177.5</ele>
        <time>2014-04-06T08:49:33Z</time>
      </trkpt>
      <trkpt lat="50.14433" lon="3.69213">
        <ele>178.94</ele>
        <time>2014-04-06T08:49:53Z</time>
      </trkpt>
      <trkpt lat="50.14433" lon="3.69212">
        <ele>178.94</ele>
        <time>2014-04-06T08:50:13Z</time>
      </trkpt>
      <trkpt lat="50.14433" lon="3.69212">
        <ele>177.5</ele>
        <time>2014-04-06T08:50:26Z</time>
      </trkpt>
      <trkpt lat="50.1444" lon="3.69215">
        <ele>177.5</ele>
        <time>2014-04-06T08:50:36Z</time>
      </trkpt>
      <trkpt lat="50.14444" lon="3.69219">
        <ele>178.94</ele>
        <time>2014-04-06T08:50:52Z</time>
      </trkpt>
      <trkpt lat="50.14447" lon="3.69217">
        <ele>178.94</ele>
        <time>2014-04-06T08:51:10Z</time>
      </trkpt>
      <trkpt lat="50.14448" lon="3.69219">
        <ele>178.94</ele>
        <time>2014-04-06T08:51:22Z</time>
      </trkpt>
      <trkpt lat="50.14448" lon="3.69222">
        <ele>178.94</ele>
        <time>2014-04-06T08:51:46Z</time>
      </trkpt>
      <trkpt lat="50.14445" lon="3.69227">
        <ele>178.94</ele>
        <time>2014-04-06T08:52:09Z</time>
      </trkpt>
      <trkpt lat="50.14446" lon="3.69222">
        <ele>177.98</ele>
        <time>2014-04-06T08:52:40Z</time>
      </trkpt>
      <trkpt lat="50.14442" lon="3.69223">
        <ele>178.46</ele>
        <time>2014-04-06T08:53:08Z</time>
      </trkpt>
      <trkpt lat="50.14443" lon="3.69227">
        <ele>178.46</ele>
        <time>2014-04-06T08:53:42Z</time>
      </trkpt>
      <trkpt lat="50.14444" lon="3.69226">
        <ele>178.46</ele>
        <time>2014-04-06T08:54:10Z</time>
      </trkpt>
      <trkpt lat="50.14441" lon="3.69223">
        <ele>178.46</ele>
        <time>2014-04-06T08:54:28Z</time>
      </trkpt>
      <trkpt lat="50.14443" lon="3.69222">
        <ele>178.46</ele>
        <time>2014-04-06T08:54:49Z</time>
      </trkpt>
      <trkpt lat="50.14443" lon="3.69222">
        <ele>178.46</ele>
        <time>2014-04-06T08:55:02Z</time>
      </trkpt>
      <trkpt lat="50.14444" lon="3.69223">
        <ele>178.46</ele>
        <time>2014-04-06T08:55:21Z</time>
      </trkpt>
      <trkpt lat="50.14443" lon="3.69222">
        <ele>178.46</ele>
        <time>2014-04-06T08:55:53Z</time>
      </trkpt>
      <trkpt lat="50.14441" lon="3.69222">
        <ele>178.46</ele>
        <time>2014-04-06T08:56:16Z</time>
      </trkpt>
      <trkpt lat="50.14441" lon="3.69219">
        <ele>178.94</ele>
        <time>2014-04-06T08:56:30Z</time>
      </trkpt>
      <trkpt lat="50.14439" lon="3.69219">
        <ele>178.94</ele>
        <time>2014-04-06T08:56:39Z</time>
      </trkpt>
      <trkpt lat="50.14428" lon="3.69224">
        <ele>178.94</ele>
        <time>2014-04-06T08:56:50Z</time>
      </trkpt>
      <trkpt lat="50.14425" lon="3.69221">
        <ele>178.46</ele>
        <time>2014-04-06T08:56:55Z</time>
      </trkpt>
      <trkpt lat="50.14423" lon="3.69216">
        <ele>178.94</ele>
        <time>2014-04-06T08:57:00Z</time>
      </trkpt>
      <trkpt lat="50.1442" lon="3.69216">
        <ele>178.94</ele>
        <time>2014-04-06T08:57:03Z</time>
      </trkpt>
      <trkpt lat="50.14418" lon="3.69216">
        <ele>178.94</ele>
        <time>2014-04-06T08:57:04Z</time>
      </trkpt>
      <trkpt lat="50.14417" lon="3.69216">
        <ele>178.94</ele>
        <time>2014-04-06T08:57:05Z</time>
      </trkpt>
      <trkpt lat="50.14415" lon="3.69215">
        <ele>178.94</ele>
        <time>2014-04-06T08:57:06Z</time>
      </trkpt>
      <trkpt lat="50.14414" lon="3.69214">
        <ele>178.46</ele>
        <time>2014-04-06T08:57:07Z</time>
      </trkpt>
      <trkpt lat="50.14406" lon="3.6921">
        <ele>178.46</ele>
        <time>2014-04-06T08:57:13Z</time>
      </trkpt>
      <trkpt lat="50.14389" lon="3.6918">
        <ele>178.46</ele>
        <time>2014-04-06T08:57:25Z</time>
      </trkpt>
      <trkpt lat="50.14374" lon="3.69154">
        <ele>177.98</ele>
        <time>2014-04-06T08:57:36Z</time>
      </trkpt>
      <trkpt lat="50.14373" lon="3.69148">
        <ele>177.98</ele>
        <time>2014-04-06T08:57:47Z</time>
      </trkpt>
      <trkpt lat="50.14372" lon="3.69145">
        <ele>177.98</ele>
        <time>2014-04-06T08:57:48Z</time>
      </trkpt>
      <trkpt lat="50.14372" lon="3.69143">
        <ele>177.98</ele>
        <time>2014-04-06T08:57:49Z</time>
      </trkpt>
      <trkpt lat="50.14371" lon="3.6914">
        <ele>177.98</ele>
        <time>2014-04-06T08:57:50Z</time>
      </trkpt>
      <trkpt lat="50.14369" lon="3.69138">
        <ele>177.98</ele>
        <time>2014-04-06T08:57:51Z</time>
      </trkpt>
      <trkpt lat="50.14368" lon="3.69134">
        <ele>177.98</ele>
        <time>2014-04-06T08:57:52Z</time>
      </trkpt>
      <trkpt lat="50.14353" lon="3.69103">
        <ele>177.98</ele>
        <time>2014-04-06T08:58:03Z</time>
      </trkpt>
      <trkpt lat="50.14328" lon="3.6905">
        <ele>177.5</ele>
        <time>2014-04-06T08:58:14Z</time>
      </trkpt>
      <trkpt lat="50.14302" lon="3.69002">
        <ele>177.02</ele>
        <time>2014-04-06T08:58:24Z</time>
      </trkpt>
      <trkpt lat="50.14299" lon="3.69">
        <ele>176.54</ele>
        <time>2014-04-06T08:58:25Z</time>
      </trkpt>
      <trkpt lat="50.14295" lon="3.69001">
        <ele>176.06</ele>
        <time>2014-04-06T08:58:26Z</time>
      </trkpt>
      <trkpt lat="50.14294" lon="3.69003">
        <ele>176.06</ele>
        <time>2014-04-06T08:58:27Z</time>
      </trkpt>
      <trkpt lat="50.14293" lon="3.69008">
        <ele>176.06</ele>
        <time>2014-04-06T08:58:28Z</time>
      </trkpt>
      <trkpt lat="50.14292" lon="3.69013">
        <ele>176.06</ele>
        <time>2014-04-06T08:58:29Z</time>
      </trkpt>
      <trkpt lat="50.14292" lon="3.69019">
        <ele>176.06</ele>
        <time>2014-04-06T08:58:30Z</time>
      </trkpt>
      <trkpt lat="50.14292" lon="3.69025">
        <ele>176.06</ele>
        <time>2014-04-06T08:58:31Z</time>
      </trkpt>
      <trkpt lat="50.14292" lon="3.69032">
        <ele>176.06</ele>
        <time>2014-04-06T08:58:32Z</time>
      </trkpt>
      <trkpt lat="50.14291" lon="3.69038">
        <ele>176.06</ele>
        <time>2014-04-06T08:58:33Z</time>
      </trkpt>
      <trkpt lat="50.1429" lon="3.69045">
        <ele>176.06</ele>
        <time>2014-04-06T08:58:34Z</time>
      </trkpt>
      <trkpt lat="50.14287" lon="3.69065">
        <ele>175.1</ele>
        <time>2014-04-06T08:58:37Z</time>
      </trkpt>
      <trkpt lat="50.14285" lon="3.69071">
        <ele>175.1</ele>
        <time>2014-04-06T08:58:38Z</time>
      </trkpt>
      <trkpt lat="50.14284" lon="3.69077">
        <ele>174.62</ele>
        <time>2014-04-06T08:58:39Z</time>
      </trkpt>
      <trkpt lat="50.14283" lon="3.69084">
        <ele>174.62</ele>
        <time>2014-04-06T08:58:40Z</time>
      </trkpt>
      <trkpt lat="50.14282" lon="3.69091">
        <ele>174.62</ele>
        <time>2014-04-06T08:58:41Z</time>
      </trkpt>
      <trkpt lat="50.14282" lon="3.69098">
        <ele>174.14</ele>
        <time>2014-04-06T08:58:42Z</time>
      </trkpt>
      <trkpt lat="50.14282" lon="3.69105">
        <ele>174.14</ele>
        <time>2014-04-06T08:58:43Z</time>
      </trkpt>
      <trkpt lat="50.14281" lon="3.69112">
        <ele>174.14</ele>
        <time>2014-04-06T08:58:44Z</time>
      </trkpt>
      <trkpt lat="50.1428" lon="3.69118">
        <ele>174.14</ele>
        <time>2014-04-06T08:58:45Z</time>
      </trkpt>
      <trkpt lat="50.14271" lon="3.69146">
        <ele>173.17</ele>
        <time>2014-04-06T08:58:50Z</time>
      </trkpt>
      <trkpt lat="50.14253" lon="3.69199">
        <ele>171.73</ele>
        <time>2014-04-06T08:59:01Z</time>
      </trkpt>
      <trkpt lat="50.14253" lon="3.69202">
        <ele>171.73</ele>
        <time>2014-04-06T08:59:02Z</time>
      </trkpt>
      <trkpt lat="50.14253" lon="3.69204">
        <ele>171.73</ele>
        <time>2014-04-06T08:59:03Z</time>
      </trkpt>
      <trkpt lat="50.14252" lon="3.69206">
        <ele>171.73</ele>
        <time>2014-04-06T08:59:04Z</time>
      </trkpt>
      <trkpt lat="50.1425" lon="3.69209">
        <ele>171.73</ele>
        <time>2014-04-06T08:59:05Z</time>
      </trkpt>
      <trkpt lat="50.14238" lon="3.69256">
        <ele>170.77</ele>
        <time>2014-04-06T08:59:15Z</time>
      </trkpt>
      <trkpt lat="50.14231" lon="3.69306">
        <ele>170.29</ele>
        <time>2014-04-06T08:59:24Z</time>
      </trkpt>
      <trkpt lat="50.14227" lon="3.69351">
        <ele>171.25</ele>
        <time>2014-04-06T08:59:34Z</time>
      </trkpt>
      <trkpt lat="50.14226" lon="3.69364">
        <ele>171.73</ele>
        <time>2014-04-06T08:59:37Z</time>
      </trkpt>
      <trkpt lat="50.14227" lon="3.69371">
        <ele>171.73</ele>
        <time>2014-04-06T08:59:39Z</time>
      </trkpt>
      <trkpt lat="50.1422" lon="3.6943">
        <ele>172.21</ele>
        <time>2014-04-06T08:59:51Z</time>
      </trkpt>
      <trkpt lat="50.14216" lon="3.69479">
        <ele>172.69</ele>
        <time>2014-04-06T09:00:01Z</time>
      </trkpt>
      <trkpt lat="50.14215" lon="3.69531">
        <ele>172.69</ele>
        <time>2014-04-06T09:00:13Z</time>
      </trkpt>
      <trkpt lat="50.14221" lon="3.69579">
        <ele>172.69</ele>
        <time>2014-04-06T09:00:24Z</time>
      </trkpt>
      <trkpt lat="50.14221" lon="3.69584">
        <ele>172.69</ele>
        <time>2014-04-06T09:00:25Z</time>
      </trkpt>
      <trkpt lat="50.1422" lon="3.69588">
        <ele>172.69</ele>
        <time>2014-04-06T09:00:26Z</time>
      </trkpt>
      <trkpt lat="50.1422" lon="3.69593">
        <ele>172.69</ele>
        <time>2014-04-06T09:00:27Z</time>
      </trkpt>
      <trkpt lat="50.14221" lon="3.69597">
        <ele>172.69</ele>
        <time>2014-04-06T09:00:28Z</time>
      </trkpt>
      <trkpt lat="50.14223" lon="3.69611">
        <ele>172.69</ele>
        <time>2014-04-06T09:00:31Z</time>
      </trkpt>
      <trkpt lat="50.14223" lon="3.69616">
        <ele>172.69</ele>
        <time>2014-04-06T09:00:32Z</time>
      </trkpt>
      <trkpt lat="50.14224" lon="3.69622">
        <ele>172.69</ele>
        <time>2014-04-06T09:00:33Z</time>
      </trkpt>
      <trkpt lat="50.14224" lon="3.69626">
        <ele>172.69</ele>
        <time>2014-04-06T09:00:34Z</time>
      </trkpt>
      <trkpt lat="50.14225" lon="3.69629">
        <ele>172.69</ele>
        <time>2014-04-06T09:00:35Z</time>
      </trkpt>
      <trkpt lat="50.14226" lon="3.69633">
        <ele>172.69</ele>
        <time>2014-04-06T09:00:36Z</time>
      </trkpt>
      <trkpt lat="50.14227" lon="3.69636">
        <ele>172.69</ele>
        <time>2014-04-06T09:00:37Z</time>
      </trkpt>
      <trkpt lat="50.14228" lon="3.69639">
        <ele>172.69</ele>
        <time>2014-04-06T09:00:38Z</time>
      </trkpt>
      <trkpt lat="50.1423" lon="3.69641">
        <ele>172.69</ele>
        <time>2014-04-06T09:00:39Z</time>
      </trkpt>
      <trkpt lat="50.14231" lon="3.69644">
        <ele>172.69</ele>
        <time>2014-04-06T09:00:40Z</time>
      </trkpt>
      <trkpt lat="50.1424" lon="3.69688">
        <ele>173.66</ele>
        <time>2014-04-06T09:00:50Z</time>
      </trkpt>
      <trkpt lat="50.14241" lon="3.69695">
        <ele>173.66</ele>
        <time>2014-04-06T09:00:52Z</time>
      </trkpt>
      <trkpt lat="50.14245" lon="3.69738">
        <ele>173.17</ele>
        <time>2014-04-06T09:01:01Z</time>
      </trkpt>
      <trkpt lat="50.14254" lon="3.69795">
        <ele>171.25</ele>
        <time>2014-04-06T09:01:12Z</time>
      </trkpt>
      <trkpt lat="50.14257" lon="3.69841">
        <ele>169.81</ele>
        <time>2014-04-06T09:01:19Z</time>
      </trkpt>
      <trkpt lat="50.1426" lon="3.69863">
        <ele>168.85</ele>
        <time>2014-04-06T09:01:22Z</time>
      </trkpt>
      <trkpt lat="50.1426" lon="3.69871">
        <ele>167.89</ele>
        <time>2014-04-06T09:01:23Z</time>
      </trkpt>
      <trkpt lat="50.14265" lon="3.69907">
        <ele>166.45</ele>
        <time>2014-04-06T09:01:28Z</time>
      </trkpt>
      <trkpt lat="50.14265" lon="3.69914">
        <ele>165.96</ele>
        <time>2014-04-06T09:01:29Z</time>
      </trkpt>
      <trkpt lat="50.14266" lon="3.69974">
        <ele>163.56</ele>
        <time>2014-04-06T09:01:39Z</time>
      </trkpt>
      <trkpt lat="50.14266" lon="3.70002">
        <ele>162.6</ele>
        <time>2014-04-06T09:01:43Z</time>
      </trkpt>
      <trkpt lat="50.14264" lon="3.70007">
        <ele>162.12</ele>
        <time>2014-04-06T09:01:44Z</time>
      </trkpt>
      <trkpt lat="50.14261" lon="3.70011">
        <ele>162.12</ele>
        <time>2014-04-06T09:01:45Z</time>
      </trkpt>
      <trkpt lat="50.14236" lon="3.70063">
        <ele>161.64</ele>
        <time>2014-04-06T09:01:55Z</time>
      </trkpt>
      <trkpt lat="50.14218" lon="3.70122">
        <ele>161.16</ele>
        <time>2014-04-06T09:02:05Z</time>
      </trkpt>
      <trkpt lat="50.14214" lon="3.70131">
        <ele>161.16</ele>
        <time>2014-04-06T09:02:07Z</time>
      </trkpt>
      <trkpt lat="50.14211" lon="3.70133">
        <ele>161.16</ele>
        <time>2014-04-06T09:02:08Z</time>
      </trkpt>
      <trkpt lat="50.14208" lon="3.70136">
        <ele>161.16</ele>
        <time>2014-04-06T09:02:09Z</time>
      </trkpt>
      <trkpt lat="50.14205" lon="3.7014">
        <ele>161.16</ele>
        <time>2014-04-06T09:02:10Z</time>
      </trkpt>
      <trkpt lat="50.14202" lon="3.70145">
        <ele>161.16</ele>
        <time>2014-04-06T09:02:11Z</time>
      </trkpt>
      <trkpt lat="50.14198" lon="3.7015">
        <ele>161.16</ele>
        <time>2014-04-06T09:02:12Z</time>
      </trkpt>
      <trkpt lat="50.14193" lon="3.70154">
        <ele>161.16</ele>
        <time>2014-04-06T09:02:13Z</time>
      </trkpt>
      <trkpt lat="50.14189" lon="3.70157">
        <ele>161.16</ele>
        <time>2014-04-06T09:02:14Z</time>
      </trkpt>
      <trkpt lat="50.14179" lon="3.70164">
        <ele>160.2</ele>
        <time>2014-04-06T09:02:16Z</time>
      </trkpt>
      <trkpt lat="50.14175" lon="3.70169">
        <ele>160.2</ele>
        <time>2014-04-06T09:02:17Z</time>
      </trkpt>
      <trkpt lat="50.1417" lon="3.70173">
        <ele>160.2</ele>
        <time>2014-04-06T09:02:18Z</time>
      </trkpt>
      <trkpt lat="50.14159" lon="3.70187">
        <ele>158.75</ele>
        <time>2014-04-06T09:02:21Z</time>
      </trkpt>
      <trkpt lat="50.14128" lon="3.70243">
        <ele>157.31</ele>
        <time>2014-04-06T09:02:34Z</time>
      </trkpt>
      <trkpt lat="50.14125" lon="3.70256">
        <ele>157.31</ele>
        <time>2014-04-06T09:02:37Z</time>
      </trkpt>
      <trkpt lat="50.14117" lon="3.70268">
        <ele>157.31</ele>
        <time>2014-04-06T09:02:41Z</time>
      </trkpt>
      <trkpt lat="50.14097" lon="3.70305">
        <ele>155.87</ele>
        <time>2014-04-06T09:02:49Z</time>
      </trkpt>
      <trkpt lat="50.14084" lon="3.70316">
        <ele>154.43</ele>
        <time>2014-04-06T09:02:52Z</time>
      </trkpt>
      <trkpt lat="50.14056" lon="3.70349">
        <ele>152.99</ele>
        <time>2014-04-06T09:03:02Z</time>
      </trkpt>
      <trkpt lat="50.14036" lon="3.70377">
        <ele>152.51</ele>
        <time>2014-04-06T09:03:12Z</time>
      </trkpt>
      <trkpt lat="50.14022" lon="3.7042">
        <ele>151.54</ele>
        <time>2014-04-06T09:03:21Z</time>
      </trkpt>
      <trkpt lat="50.14009" lon="3.70486">
        <ele>150.58</ele>
        <time>2014-04-06T09:03:33Z</time>
      </trkpt>
      <trkpt lat="50.14005" lon="3.70499">
        <ele>150.1</ele>
        <time>2014-04-06T09:03:38Z</time>
      </trkpt>
      <trkpt lat="50.13996" lon="3.70517">
        <ele>150.1</ele>
        <time>2014-04-06T09:03:43Z</time>
      </trkpt>
      <trkpt lat="50.13974" lon="3.70581">
        <ele>147.7</ele>
        <time>2014-04-06T09:03:55Z</time>
      </trkpt>
      <trkpt lat="50.13967" lon="3.70603">
        <ele>146.74</ele>
        <time>2014-04-06T09:04:01Z</time>
      </trkpt>
      <trkpt lat="50.13952" lon="3.70658">
        <ele>145.3</ele>
        <time>2014-04-06T09:04:12Z</time>
      </trkpt>
      <trkpt lat="50.13946" lon="3.70702">
        <ele>144.34</ele>
        <time>2014-04-06T09:04:21Z</time>
      </trkpt>
      <trkpt lat="50.13945" lon="3.70724">
        <ele>143.85</ele>
        <time>2014-04-06T09:04:28Z</time>
      </trkpt>
      <trkpt lat="50.13942" lon="3.7073">
        <ele>143.85</ele>
        <time>2014-04-06T09:04:30Z</time>
      </trkpt>
      <trkpt lat="50.13938" lon="3.7073">
        <ele>143.85</ele>
        <time>2014-04-06T09:04:31Z</time>
      </trkpt>
      <trkpt lat="50.13935" lon="3.70728">
        <ele>143.85</ele>
        <time>2014-04-06T09:04:32Z</time>
      </trkpt>
      <trkpt lat="50.13931" lon="3.70726">
        <ele>143.85</ele>
        <time>2014-04-06T09:04:33Z</time>
      </trkpt>
      <trkpt lat="50.13894" lon="3.70692">
        <ele>145.3</ele>
        <time>2014-04-06T09:04:47Z</time>
      </trkpt>
      <trkpt lat="50.13861" lon="3.70658">
        <ele>146.74</ele>
        <time>2014-04-06T09:05:01Z</time>
      </trkpt>
      <trkpt lat="50.13833" lon="3.70634">
        <ele>147.22</ele>
        <time>2014-04-06T09:05:11Z</time>
      </trkpt>
      <trkpt lat="50.13795" lon="3.70604">
        <ele>148.66</ele>
        <time>2014-04-06T09:05:24Z</time>
      </trkpt>
      <trkpt lat="50.13773" lon="3.70584">
        <ele>147.22</ele>
        <time>2014-04-06T09:05:31Z</time>
      </trkpt>
      <trkpt lat="50.13737" lon="3.70551">
        <ele>146.26</ele>
        <time>2014-04-06T09:05:42Z</time>
      </trkpt>
      <trkpt lat="50.13735" lon="3.70553">
        <ele>146.26</ele>
        <time>2014-04-06T09:05:43Z</time>
      </trkpt>
      <trkpt lat="50.13733" lon="3.70556">
        <ele>146.26</ele>
        <time>2014-04-06T09:05:44Z</time>
      </trkpt>
      <trkpt lat="50.13733" lon="3.7056">
        <ele>146.26</ele>
        <time>2014-04-06T09:05:45Z</time>
      </trkpt>
      <trkpt lat="50.13733" lon="3.70564">
        <ele>146.26</ele>
        <time>2014-04-06T09:05:46Z</time>
      </trkpt>
      <trkpt lat="50.13739" lon="3.70605">
        <ele>147.7</ele>
        <time>2014-04-06T09:05:56Z</time>
      </trkpt>
      <trkpt lat="50.13779" lon="3.70702">
        <ele>147.7</ele>
        <time>2014-04-06T09:06:14Z</time>
      </trkpt>
      <trkpt lat="50.13782" lon="3.70708">
        <ele>147.7</ele>
        <time>2014-04-06T09:06:15Z</time>
      </trkpt>
      <trkpt lat="50.13785" lon="3.70713">
        <ele>147.7</ele>
        <time>2014-04-06T09:06:16Z</time>
      </trkpt>
      <trkpt lat="50.13787" lon="3.70719">
        <ele>148.18</ele>
        <time>2014-04-06T09:06:17Z</time>
      </trkpt>
      <trkpt lat="50.13795" lon="3.70765">
        <ele>148.66</ele>
        <time>2014-04-06T09:06:24Z</time>
      </trkpt>
      <trkpt lat="50.13795" lon="3.70778">
        <ele>148.66</ele>
        <time>2014-04-06T09:06:26Z</time>
      </trkpt>
      <trkpt lat="50.13794" lon="3.70785">
        <ele>148.66</ele>
        <time>2014-04-06T09:06:27Z</time>
      </trkpt>
      <trkpt lat="50.13788" lon="3.70839">
        <ele>148.66</ele>
        <time>2014-04-06T09:06:35Z</time>
      </trkpt>
      <trkpt lat="50.13789" lon="3.70846">
        <ele>148.66</ele>
        <time>2014-04-06T09:06:36Z</time>
      </trkpt>
      <trkpt lat="50.1379" lon="3.70853">
        <ele>148.66</ele>
        <time>2014-04-06T09:06:37Z</time>
      </trkpt>
      <trkpt lat="50.13791" lon="3.70859">
        <ele>148.66</ele>
        <time>2014-04-06T09:06:38Z</time>
      </trkpt>
      <trkpt lat="50.13792" lon="3.70866">
        <ele>148.66</ele>
        <time>2014-04-06T09:06:39Z</time>
      </trkpt>
      <trkpt lat="50.13807" lon="3.70919">
        <ele>147.22</ele>
        <time>2014-04-06T09:06:47Z</time>
      </trkpt>
      <trkpt lat="50.13812" lon="3.70933">
        <ele>146.74</ele>
        <time>2014-04-06T09:06:49Z</time>
      </trkpt>
      <trkpt lat="50.13837" lon="3.70992">
        <ele>144.34</ele>
        <time>2014-04-06T09:06:56Z</time>
      </trkpt>
      <trkpt lat="50.13856" lon="3.71041">
        <ele>142.41</ele>
        <time>2014-04-06T09:07:01Z</time>
      </trkpt>
      <trkpt lat="50.13898" lon="3.71127">
        <ele>140.97</ele>
        <time>2014-04-06T09:07:11Z</time>
      </trkpt>
      <trkpt lat="50.13913" lon="3.71157">
        <ele>140.49</ele>
        <time>2014-04-06T09:07:16Z</time>
      </trkpt>
      <trkpt lat="50.13915" lon="3.71163">
        <ele>140.49</ele>
        <time>2014-04-06T09:07:17Z</time>
      </trkpt>
      <trkpt lat="50.13915" lon="3.7117">
        <ele>140.49</ele>
        <time>2014-04-06T09:07:18Z</time>
      </trkpt>
      <trkpt lat="50.13913" lon="3.71177">
        <ele>140.01</ele>
        <time>2014-04-06T09:07:19Z</time>
      </trkpt>
      <trkpt lat="50.13911" lon="3.71182">
        <ele>140.01</ele>
        <time>2014-04-06T09:07:20Z</time>
      </trkpt>
      <trkpt lat="50.13907" lon="3.71188">
        <ele>140.01</ele>
        <time>2014-04-06T09:07:21Z</time>
      </trkpt>
      <trkpt lat="50.13862" lon="3.71284">
        <ele>139.53</ele>
        <time>2014-04-06T09:07:33Z</time>
      </trkpt>
      <trkpt lat="50.13847" lon="3.71317">
        <ele>139.05</ele>
        <time>2014-04-06T09:07:37Z</time>
      </trkpt>
      <trkpt lat="50.13839" lon="3.71344">
        <ele>139.05</ele>
        <time>2014-04-06T09:07:40Z</time>
      </trkpt>
      <trkpt lat="50.13834" lon="3.71364">
        <ele>139.05</ele>
        <time>2014-04-06T09:07:42Z</time>
      </trkpt>
      <trkpt lat="50.13832" lon="3.71373">
        <ele>139.05</ele>
        <time>2014-04-06T09:07:43Z</time>
      </trkpt>
      <trkpt lat="50.13826" lon="3.71395">
        <ele>139.05</ele>
        <time>2014-04-06T09:07:45Z</time>
      </trkpt>
      <trkpt lat="50.13823" lon="3.71405">
        <ele>139.05</ele>
        <time>2014-04-06T09:07:46Z</time>
      </trkpt>
      <trkpt lat="50.13797" lon="3.71529">
        <ele>137.61</ele>
        <time>2014-04-06T09:07:58Z</time>
      </trkpt>
      <trkpt lat="50.13795" lon="3.71539">
        <ele>137.61</ele>
        <time>2014-04-06T09:07:59Z</time>
      </trkpt>
      <trkpt lat="50.13776" lon="3.71661">
        <ele>137.61</ele>
        <time>2014-04-06T09:08:12Z</time>
      </trkpt>
      <trkpt lat="50.13774" lon="3.7167">
        <ele>137.61</ele>
        <time>2014-04-06T09:08:13Z</time>
      </trkpt>
      <trkpt lat="50.13772" lon="3.71678">
        <ele>137.61</ele>
        <time>2014-04-06T09:08:14Z</time>
      </trkpt>
      <trkpt lat="50.13773" lon="3.71685">
        <ele>137.61</ele>
        <time>2014-04-06T09:08:15Z</time>
      </trkpt>
      <trkpt lat="50.13775" lon="3.71689">
        <ele>137.61</ele>
        <time>2014-04-06T09:08:16Z</time>
      </trkpt>
      <trkpt lat="50.13779" lon="3.71691">
        <ele>137.61</ele>
        <time>2014-04-06T09:08:17Z</time>
      </trkpt>
      <trkpt lat="50.13782" lon="3.7169">
        <ele>137.61</ele>
        <time>2014-04-06T09:08:18Z</time>
      </trkpt>
      <trkpt lat="50.13786" lon="3.7169">
        <ele>137.61</ele>
        <time>2014-04-06T09:08:19Z</time>
      </trkpt>
      <trkpt lat="50.13791" lon="3.71689">
        <ele>137.61</ele>
        <time>2014-04-06T09:08:20Z</time>
      </trkpt>
      <trkpt lat="50.13796" lon="3.71688">
        <ele>137.61</ele>
        <time>2014-04-06T09:08:21Z</time>
      </trkpt>
      <trkpt lat="50.13869" lon="3.717">
        <ele>137.61</ele>
        <time>2014-04-06T09:08:35Z</time>
      </trkpt>
      <trkpt lat="50.1391" lon="3.71737">
        <ele>137.61</ele>
        <time>2014-04-06T09:08:44Z</time>
      </trkpt>
      <trkpt lat="50.13921" lon="3.71755">
        <ele>139.05</ele>
        <time>2014-04-06T09:08:47Z</time>
      </trkpt>
      <trkpt lat="50.13962" lon="3.71836">
        <ele>138.09</ele>
        <time>2014-04-06T09:08:59Z</time>
      </trkpt>
      <trkpt lat="50.13967" lon="3.71841">
        <ele>138.09</ele>
        <time>2014-04-06T09:09:00Z</time>
      </trkpt>
      <trkpt lat="50.14014" lon="3.71886">
        <ele>138.09</ele>
        <time>2014-04-06T09:09:14Z</time>
      </trkpt>
      <trkpt lat="50.14024" lon="3.71894">
        <ele>138.09</ele>
        <time>2014-04-06T09:09:17Z</time>
      </trkpt>
      <trkpt lat="50.14027" lon="3.71899">
        <ele>138.09</ele>
        <time>2014-04-06T09:09:18Z</time>
      </trkpt>
      <trkpt lat="50.14028" lon="3.71905">
        <ele>138.09</ele>
        <time>2014-04-06T09:09:19Z</time>
      </trkpt>
      <trkpt lat="50.14027" lon="3.7191">
        <ele>138.09</ele>
        <time>2014-04-06T09:09:20Z</time>
      </trkpt>
      <trkpt lat="50.14026" lon="3.71914">
        <ele>138.09</ele>
        <time>2014-04-06T09:09:21Z</time>
      </trkpt>
      <trkpt lat="50.14025" lon="3.71917">
        <ele>138.09</ele>
        <time>2014-04-06T09:09:22Z</time>
      </trkpt>
      <trkpt lat="50.14024" lon="3.7192">
        <ele>138.09</ele>
        <time>2014-04-06T09:09:23Z</time>
      </trkpt>
      <trkpt lat="50.14022" lon="3.71922">
        <ele>138.09</ele>
        <time>2014-04-06T09:09:24Z</time>
      </trkpt>
      <trkpt lat="50.14019" lon="3.71926">
        <ele>138.09</ele>
        <time>2014-04-06T09:09:26Z</time>
      </trkpt>
      <trkpt lat="50.14009" lon="3.71918">
        <ele>138.09</ele>
        <time>2014-04-06T09:09:29Z</time>
      </trkpt>
      <trkpt lat="50.13987" lon="3.719">
        <ele>139.53</ele>
        <time>2014-04-06T09:09:35Z</time>
      </trkpt>
      <trkpt lat="50.13963" lon="3.71884">
        <ele>139.53</ele>
        <time>2014-04-06T09:09:41Z</time>
      </trkpt>
      <trkpt lat="50.13946" lon="3.71866">
        <ele>138.09</ele>
        <time>2014-04-06T09:09:45Z</time>
      </trkpt>
      <trkpt lat="50.13939" lon="3.71858">
        <ele>138.09</ele>
        <time>2014-04-06T09:09:47Z</time>
      </trkpt>
      <trkpt lat="50.13893" lon="3.71771">
        <ele>138.09</ele>
        <time>2014-04-06T09:10:04Z</time>
      </trkpt>
      <trkpt lat="50.13857" lon="3.71738">
        <ele>138.09</ele>
        <time>2014-04-06T09:10:16Z</time>
      </trkpt>
      <trkpt lat="50.13819" lon="3.71728">
        <ele>138.09</ele>
        <time>2014-04-06T09:10:29Z</time>
      </trkpt>
      <trkpt lat="50.13787" lon="3.71729">
        <ele>138.09</ele>
        <time>2014-04-06T09:10:41Z</time>
      </trkpt>
      <trkpt lat="50.13763" lon="3.71765">
        <ele>138.09</ele>
        <time>2014-04-06T09:10:52Z</time>
      </trkpt>
      <trkpt lat="50.13732" lon="3.71825">
        <ele>138.09</ele>
        <time>2014-04-06T09:11:06Z</time>
      </trkpt>
      <trkpt lat="50.13705" lon="3.71872">
        <ele>137.61</ele>
        <time>2014-04-06T09:11:19Z</time>
      </trkpt>
      <trkpt lat="50.13672" lon="3.71929">
        <ele>137.61</ele>
        <time>2014-04-06T09:11:35Z</time>
      </trkpt>
      <trkpt lat="50.13649" lon="3.71973">
        <ele>137.61</ele>
        <time>2014-04-06T09:11:46Z</time>
      </trkpt>
      <trkpt lat="50.13644" lon="3.7199">
        <ele>137.61</ele>
        <time>2014-04-06T09:11:51Z</time>
      </trkpt>
      <trkpt lat="50.13654" lon="3.72006">
        <ele>136.16</ele>
        <time>2014-04-06T09:11:57Z</time>
      </trkpt>
      <trkpt lat="50.13681" lon="3.72053">
        <ele>135.68</ele>
        <time>2014-04-06T09:12:09Z</time>
      </trkpt>
      <trkpt lat="50.13702" lon="3.72094">
        <ele>135.68</ele>
        <time>2014-04-06T09:12:21Z</time>
      </trkpt>
      <trkpt lat="50.13726" lon="3.72136">
        <ele>135.68</ele>
        <time>2014-04-06T09:12:32Z</time>
      </trkpt>
      <trkpt lat="50.1376" lon="3.72193">
        <ele>135.68</ele>
        <time>2014-04-06T09:12:45Z</time>
      </trkpt>
      <trkpt lat="50.13794" lon="3.72245">
        <ele>136.16</ele>
        <time>2014-04-06T09:12:58Z</time>
      </trkpt>
      <trkpt lat="50.13826" lon="3.72277">
        <ele>136.16</ele>
        <time>2014-04-06T09:13:09Z</time>
      </trkpt>
      <trkpt lat="50.13827" lon="3.72281">
        <ele>136.16</ele>
        <time>2014-04-06T09:13:10Z</time>
      </trkpt>
      <trkpt lat="50.13826" lon="3.72285">
        <ele>136.16</ele>
        <time>2014-04-06T09:13:11Z</time>
      </trkpt>
      <trkpt lat="50.13803" lon="3.72332">
        <ele>136.16</ele>
        <time>2014-04-06T09:13:21Z</time>
      </trkpt>
      <trkpt lat="50.13791" lon="3.72354">
        <ele>136.16</ele>
        <time>2014-04-06T09:13:25Z</time>
      </trkpt>
      <trkpt lat="50.13788" lon="3.7236">
        <ele>136.16</ele>
        <time>2014-04-06T09:13:26Z</time>
      </trkpt>
      <trkpt lat="50.13785" lon="3.72365">
        <ele>136.16</ele>
        <time>2014-04-06T09:13:27Z</time>
      </trkpt>
      <trkpt lat="50.13764" lon="3.72399">
        <ele>136.16</ele>
        <time>2014-04-06T09:13:33Z</time>
      </trkpt>
      <trkpt lat="50.1376" lon="3.72403">
        <ele>136.16</ele>
        <time>2014-04-06T09:13:34Z</time>
      </trkpt>
      <trkpt lat="50.13752" lon="3.72411">
        <ele>137.13</ele>
        <time>2014-04-06T09:13:36Z</time>
      </trkpt>
      <trkpt lat="50.13699" lon="3.72467">
        <ele>137.61</ele>
        <time>2014-04-06T09:13:49Z</time>
      </trkpt>
      <trkpt lat="50.13695" lon="3.72472">
        <ele>137.61</ele>
        <time>2014-04-06T09:13:50Z</time>
      </trkpt>
      <trkpt lat="50.13691" lon="3.72478">
        <ele>137.61</ele>
        <time>2014-04-06T09:13:51Z</time>
      </trkpt>
      <trkpt lat="50.13689" lon="3.72485">
        <ele>137.61</ele>
        <time>2014-04-06T09:13:52Z</time>
      </trkpt>
      <trkpt lat="50.13687" lon="3.72492">
        <ele>137.61</ele>
        <time>2014-04-06T09:13:53Z</time>
      </trkpt>
      <trkpt lat="50.13686" lon="3.725">
        <ele>137.61</ele>
        <time>2014-04-06T09:13:54Z</time>
      </trkpt>
      <trkpt lat="50.13686" lon="3.72508">
        <ele>137.61</ele>
        <time>2014-04-06T09:13:55Z</time>
      </trkpt>
      <trkpt lat="50.13686" lon="3.72516">
        <ele>137.61</ele>
        <time>2014-04-06T09:13:56Z</time>
      </trkpt>
      <trkpt lat="50.13686" lon="3.72525">
        <ele>137.61</ele>
        <time>2014-04-06T09:13:57Z</time>
      </trkpt>
      <trkpt lat="50.1369" lon="3.7265">
        <ele>137.61</ele>
        <time>2014-04-06T09:14:12Z</time>
      </trkpt>
      <trkpt lat="50.13691" lon="3.72687">
        <ele>137.61</ele>
        <time>2014-04-06T09:14:17Z</time>
      </trkpt>
      <trkpt lat="50.1369" lon="3.72693">
        <ele>137.61</ele>
        <time>2014-04-06T09:14:18Z</time>
      </trkpt>
      <trkpt lat="50.13687" lon="3.72698">
        <ele>138.57</ele>
        <time>2014-04-06T09:14:19Z</time>
      </trkpt>
      <trkpt lat="50.13684" lon="3.72702">
        <ele>138.57</ele>
        <time>2014-04-06T09:14:20Z</time>
      </trkpt>
      <trkpt lat="50.13682" lon="3.72703">
        <ele>137.13</ele>
        <time>2014-04-06T09:14:21Z</time>
      </trkpt>
      <trkpt lat="50.13678" lon="3.72703">
        <ele>137.13</ele>
        <time>2014-04-06T09:14:22Z</time>
      </trkpt>
      <trkpt lat="50.13675" lon="3.72703">
        <ele>137.13</ele>
        <time>2014-04-06T09:14:23Z</time>
      </trkpt>
      <trkpt lat="50.13671" lon="3.72703">
        <ele>137.13</ele>
        <time>2014-04-06T09:14:24Z</time>
      </trkpt>
      <trkpt lat="50.13667" lon="3.72703">
        <ele>137.13</ele>
        <time>2014-04-06T09:14:25Z</time>
      </trkpt>
      <trkpt lat="50.13663" lon="3.72703">
        <ele>137.13</ele>
        <time>2014-04-06T09:14:26Z</time>
      </trkpt>
      <trkpt lat="50.13654" lon="3.72704">
        <ele>136.64</ele>
        <time>2014-04-06T09:14:28Z</time>
      </trkpt>
      <trkpt lat="50.13636" lon="3.72707">
        <ele>136.64</ele>
        <time>2014-04-06T09:14:32Z</time>
      </trkpt>
      <trkpt lat="50.13614" lon="3.72718">
        <ele>136.64</ele>
        <time>2014-04-06T09:14:37Z</time>
      </trkpt>
      <trkpt lat="50.1361" lon="3.72723">
        <ele>136.64</ele>
        <time>2014-04-06T09:14:38Z</time>
      </trkpt>
      <trkpt lat="50.13606" lon="3.72728">
        <ele>137.61</ele>
        <time>2014-04-06T09:14:39Z</time>
      </trkpt>
      <trkpt lat="50.13603" lon="3.72734">
        <ele>137.61</ele>
        <time>2014-04-06T09:14:40Z</time>
      </trkpt>
      <trkpt lat="50.136" lon="3.72741">
        <ele>137.61</ele>
        <time>2014-04-06T09:14:41Z</time>
      </trkpt>
      <trkpt lat="50.13597" lon="3.72748">
        <ele>136.64</ele>
        <time>2014-04-06T09:14:42Z</time>
      </trkpt>
      <trkpt lat="50.13587" lon="3.72771">
        <ele>136.64</ele>
        <time>2014-04-06T09:14:46Z</time>
      </trkpt>
      <trkpt lat="50.13583" lon="3.72772">
        <ele>136.64</ele>
        <time>2014-04-06T09:14:47Z</time>
      </trkpt>
      <trkpt lat="50.1358" lon="3.72771">
        <ele>136.64</ele>
        <time>2014-04-06T09:14:48Z</time>
      </trkpt>
      <trkpt lat="50.13577" lon="3.72769">
        <ele>136.64</ele>
        <time>2014-04-06T09:14:49Z</time>
      </trkpt>
      <trkpt lat="50.13574" lon="3.72766">
        <ele>136.64</ele>
        <time>2014-04-06T09:14:50Z</time>
      </trkpt>
      <trkpt lat="50.1357" lon="3.72763">
        <ele>136.64</ele>
        <time>2014-04-06T09:14:51Z</time>
      </trkpt>
      <trkpt lat="50.13567" lon="3.72761">
        <ele>136.64</ele>
        <time>2014-04-06T09:14:52Z</time>
      </trkpt>
      <trkpt lat="50.13509" lon="3.72733">
        <ele>137.61</ele>
        <time>2014-04-06T09:15:06Z</time>
      </trkpt>
      <trkpt lat="50.13447" lon="3.72713">
        <ele>139.05</ele>
        <time>2014-04-06T09:15:21Z</time>
      </trkpt>
      <trkpt lat="50.13393" lon="3.72698">
        <ele>139.05</ele>
        <time>2014-04-06T09:15:36Z</time>
      </trkpt>
      <trkpt lat="50.13318" lon="3.7268">
        <ele>139.53</ele>
        <time>2014-04-06T09:15:54Z</time>
      </trkpt>
      <trkpt lat="50.13248" lon="3.72643">
        <ele>138.57</ele>
        <time>2014-04-06T09:16:10Z</time>
      </trkpt>
      <trkpt lat="50.13166" lon="3.72599">
        <ele>138.09</ele>
        <time>2014-04-06T09:16:27Z</time>
      </trkpt>
      <trkpt lat="50.13089" lon="3.72562">
        <ele>138.09</ele>
        <time>2014-04-06T09:16:42Z</time>
      </trkpt>
      <trkpt lat="50.13084" lon="3.72558">
        <ele>138.09</ele>
        <time>2014-04-06T09:16:43Z</time>
      </trkpt>
      <trkpt lat="50.1308" lon="3.72552">
        <ele>138.09</ele>
        <time>2014-04-06T09:16:44Z</time>
      </trkpt>
      <trkpt lat="50.13076" lon="3.72546">
        <ele>138.09</ele>
        <time>2014-04-06T09:16:45Z</time>
      </trkpt>
      <trkpt lat="50.13072" lon="3.72541">
        <ele>138.09</ele>
        <time>2014-04-06T09:16:46Z</time>
      </trkpt>
      <trkpt lat="50.13054" lon="3.7251">
        <ele>139.05</ele>
        <time>2014-04-06T09:16:51Z</time>
      </trkpt>
      <trkpt lat="50.1304" lon="3.72486">
        <ele>139.05</ele>
        <time>2014-04-06T09:16:55Z</time>
      </trkpt>
      <trkpt lat="50.13037" lon="3.7248">
        <ele>139.05</ele>
        <time>2014-04-06T09:16:56Z</time>
      </trkpt>
      <trkpt lat="50.13034" lon="3.72474">
        <ele>139.05</ele>
        <time>2014-04-06T09:16:57Z</time>
      </trkpt>
      <trkpt lat="50.13028" lon="3.72465">
        <ele>139.05</ele>
        <time>2014-04-06T09:16:59Z</time>
      </trkpt>
      <trkpt lat="50.13023" lon="3.72463">
        <ele>139.05</ele>
        <time>2014-04-06T09:17:00Z</time>
      </trkpt>
      <trkpt lat="50.13019" lon="3.72464">
        <ele>139.05</ele>
        <time>2014-04-06T09:17:01Z</time>
      </trkpt>
      <trkpt lat="50.13015" lon="3.72467">
        <ele>139.05</ele>
        <time>2014-04-06T09:17:02Z</time>
      </trkpt>
      <trkpt lat="50.13012" lon="3.72471">
        <ele>139.05</ele>
        <time>2014-04-06T09:17:03Z</time>
      </trkpt>
      <trkpt lat="50.13009" lon="3.72476">
        <ele>139.53</ele>
        <time>2014-04-06T09:17:04Z</time>
      </trkpt>
      <trkpt lat="50.13006" lon="3.72481">
        <ele>139.53</ele>
        <time>2014-04-06T09:17:05Z</time>
      </trkpt>
      <trkpt lat="50.13002" lon="3.72486">
        <ele>140.01</ele>
        <time>2014-04-06T09:17:06Z</time>
      </trkpt>
      <trkpt lat="50.12981" lon="3.72516">
        <ele>141.93</ele>
        <time>2014-04-06T09:17:13Z</time>
      </trkpt>
      <trkpt lat="50.12968" lon="3.72532">
        <ele>141.93</ele>
        <time>2014-04-06T09:17:17Z</time>
      </trkpt>
      <trkpt lat="50.12959" lon="3.72545">
        <ele>141.93</ele>
        <time>2014-04-06T09:17:20Z</time>
      </trkpt>
      <trkpt lat="50.12941" lon="3.7257">
        <ele>141.93</ele>
        <time>2014-04-06T09:17:26Z</time>
      </trkpt>
      <trkpt lat="50.12938" lon="3.72574">
        <ele>141.93</ele>
        <time>2014-04-06T09:17:27Z</time>
      </trkpt>
      <trkpt lat="50.1289" lon="3.72638">
        <ele>142.41</ele>
        <time>2014-04-06T09:17:42Z</time>
      </trkpt>
      <trkpt lat="50.12855" lon="3.72688">
        <ele>143.37</ele>
        <time>2014-04-06T09:17:55Z</time>
      </trkpt>
      <trkpt lat="50.12848" lon="3.727">
        <ele>143.37</ele>
        <time>2014-04-06T09:17:58Z</time>
      </trkpt>
      <trkpt lat="50.12848" lon="3.72705">
        <ele>143.37</ele>
        <time>2014-04-06T09:17:59Z</time>
      </trkpt>
      <trkpt lat="50.12849" lon="3.72709">
        <ele>143.37</ele>
        <time>2014-04-06T09:18:00Z</time>
      </trkpt>
      <trkpt lat="50.12851" lon="3.72713">
        <ele>143.37</ele>
        <time>2014-04-06T09:18:01Z</time>
      </trkpt>
      <trkpt lat="50.12854" lon="3.72716">
        <ele>143.85</ele>
        <time>2014-04-06T09:18:02Z</time>
      </trkpt>
      <trkpt lat="50.12857" lon="3.7272">
        <ele>143.85</ele>
        <time>2014-04-06T09:18:03Z</time>
      </trkpt>
      <trkpt lat="50.12866" lon="3.72732">
        <ele>144.34</ele>
        <time>2014-04-06T09:18:06Z</time>
      </trkpt>
      <trkpt lat="50.12869" lon="3.72736">
        <ele>144.34</ele>
        <time>2014-04-06T09:18:07Z</time>
      </trkpt>
      <trkpt lat="50.12871" lon="3.72742">
        <ele>144.34</ele>
        <time>2014-04-06T09:18:08Z</time>
      </trkpt>
      <trkpt lat="50.12871" lon="3.72747">
        <ele>144.34</ele>
        <time>2014-04-06T09:18:09Z</time>
      </trkpt>
      <trkpt lat="50.1287" lon="3.72753">
        <ele>144.34</ele>
        <time>2014-04-06T09:18:10Z</time>
      </trkpt>
      <trkpt lat="50.12869" lon="3.72757">
        <ele>144.34</ele>
        <time>2014-04-06T09:18:11Z</time>
      </trkpt>
      <trkpt lat="50.12866" lon="3.72761">
        <ele>144.82</ele>
        <time>2014-04-06T09:18:12Z</time>
      </trkpt>
      <trkpt lat="50.12864" lon="3.72765">
        <ele>144.82</ele>
        <time>2014-04-06T09:18:13Z</time>
      </trkpt>
      <trkpt lat="50.12861" lon="3.7277">
        <ele>144.82</ele>
        <time>2014-04-06T09:18:14Z</time>
      </trkpt>
      <trkpt lat="50.12858" lon="3.72774">
        <ele>144.82</ele>
        <time>2014-04-06T09:18:15Z</time>
      </trkpt>
      <trkpt lat="50.12855" lon="3.72779">
        <ele>145.3</ele>
        <time>2014-04-06T09:18:16Z</time>
      </trkpt>
      <trkpt lat="50.12853" lon="3.72784">
        <ele>145.3</ele>
        <time>2014-04-06T09:18:17Z</time>
      </trkpt>
      <trkpt lat="50.1282" lon="3.72839">
        <ele>146.74</ele>
        <time>2014-04-06T09:18:30Z</time>
      </trkpt>
      <trkpt lat="50.12815" lon="3.72889">
        <ele>147.7</ele>
        <time>2014-04-06T09:18:42Z</time>
      </trkpt>
      <trkpt lat="50.12821" lon="3.72977">
        <ele>148.18</ele>
        <time>2014-04-06T09:18:59Z</time>
      </trkpt>
      <trkpt lat="50.12826" lon="3.73036">
        <ele>149.62</ele>
        <time>2014-04-06T09:19:12Z</time>
      </trkpt>
      <trkpt lat="50.12827" lon="3.7306">
        <ele>150.1</ele>
        <time>2014-04-06T09:19:17Z</time>
      </trkpt>
      <trkpt lat="50.12808" lon="3.73093">
        <ele>151.54</ele>
        <time>2014-04-06T09:19:29Z</time>
      </trkpt>
      <trkpt lat="50.1281" lon="3.73149">
        <ele>152.51</ele>
        <time>2014-04-06T09:19:40Z</time>
      </trkpt>
      <trkpt lat="50.12814" lon="3.73222">
        <ele>153.47</ele>
        <time>2014-04-06T09:19:53Z</time>
      </trkpt>
      <trkpt lat="50.12817" lon="3.73306">
        <ele>155.39</ele>
        <time>2014-04-06T09:20:08Z</time>
      </trkpt>
      <trkpt lat="50.12813" lon="3.73322">
        <ele>155.87</ele>
        <time>2014-04-06T09:20:11Z</time>
      </trkpt>
      <trkpt lat="50.12792" lon="3.73409">
        <ele>157.31</ele>
        <time>2014-04-06T09:20:28Z</time>
      </trkpt>
      <trkpt lat="50.12771" lon="3.73473">
        <ele>158.27</ele>
        <time>2014-04-06T09:20:41Z</time>
      </trkpt>
      <trkpt lat="50.12741" lon="3.73505">
        <ele>159.24</ele>
        <time>2014-04-06T09:20:52Z</time>
      </trkpt>
      <trkpt lat="50.12729" lon="3.73554">
        <ele>158.75</ele>
        <time>2014-04-06T09:21:01Z</time>
      </trkpt>
      <trkpt lat="50.12705" lon="3.73656">
        <ele>159.72</ele>
        <time>2014-04-06T09:21:17Z</time>
      </trkpt>
      <trkpt lat="50.1268" lon="3.73728">
        <ele>158.27</ele>
        <time>2014-04-06T09:21:29Z</time>
      </trkpt>
      <trkpt lat="50.12639" lon="3.73826">
        <ele>157.31</ele>
        <time>2014-04-06T09:21:46Z</time>
      </trkpt>
      <trkpt lat="50.12628" lon="3.73832">
        <ele>158.75</ele>
        <time>2014-04-06T09:21:50Z</time>
      </trkpt>
      <trkpt lat="50.12622" lon="3.7383">
        <ele>159.24</ele>
        <time>2014-04-06T09:21:54Z</time>
      </trkpt>
      <trkpt lat="50.1262" lon="3.73828">
        <ele>159.24</ele>
        <time>2014-04-06T09:21:55Z</time>
      </trkpt>
      <trkpt lat="50.12619" lon="3.73824">
        <ele>159.24</ele>
        <time>2014-04-06T09:21:56Z</time>
      </trkpt>
      <trkpt lat="50.12618" lon="3.7382">
        <ele>159.24</ele>
        <time>2014-04-06T09:21:57Z</time>
      </trkpt>
      <trkpt lat="50.12618" lon="3.73816">
        <ele>159.24</ele>
        <time>2014-04-06T09:21:58Z</time>
      </trkpt>
      <trkpt lat="50.12617" lon="3.73813">
        <ele>159.24</ele>
        <time>2014-04-06T09:21:59Z</time>
      </trkpt>
      <trkpt lat="50.12616" lon="3.73809">
        <ele>159.72</ele>
        <time>2014-04-06T09:22:00Z</time>
      </trkpt>
      <trkpt lat="50.12614" lon="3.73804">
        <ele>159.72</ele>
        <time>2014-04-06T09:22:01Z</time>
      </trkpt>
      <trkpt lat="50.12613" lon="3.73799">
        <ele>159.72</ele>
        <time>2014-04-06T09:22:02Z</time>
      </trkpt>
      <trkpt lat="50.12597" lon="3.73721">
        <ele>161.64</ele>
        <time>2014-04-06T09:22:17Z</time>
      </trkpt>
      <trkpt lat="50.12589" lon="3.7369">
        <ele>161.64</ele>
        <time>2014-04-06T09:22:29Z</time>
      </trkpt>
      <trkpt lat="50.12588" lon="3.73691">
        <ele>161.64</ele>
        <time>2014-04-06T09:22:40Z</time>
      </trkpt>
      <trkpt lat="50.12586" lon="3.73692">
        <ele>161.64</ele>
        <time>2014-04-06T09:22:41Z</time>
      </trkpt>
      <trkpt lat="50.12584" lon="3.73692">
        <ele>161.64</ele>
        <time>2014-04-06T09:22:42Z</time>
      </trkpt>
      <trkpt lat="50.12582" lon="3.73693">
        <ele>161.64</ele>
        <time>2014-04-06T09:22:43Z</time>
      </trkpt>
      <trkpt lat="50.12578" lon="3.73694">
        <ele>161.64</ele>
        <time>2014-04-06T09:22:44Z</time>
      </trkpt>
      <trkpt lat="50.12528" lon="3.73713">
        <ele>161.64</ele>
        <time>2014-04-06T09:22:59Z</time>
      </trkpt>
      <trkpt lat="50.12521" lon="3.73723">
        <ele>163.08</ele>
        <time>2014-04-06T09:23:02Z</time>
      </trkpt>
      <trkpt lat="50.12498" lon="3.73784">
        <ele>163.56</ele>
        <time>2014-04-06T09:23:15Z</time>
      </trkpt>
      <trkpt lat="50.12491" lon="3.73804">
        <ele>164.04</ele>
        <time>2014-04-06T09:23:21Z</time>
      </trkpt>
      <trkpt lat="50.12489" lon="3.73807">
        <ele>164.04</ele>
        <time>2014-04-06T09:23:22Z</time>
      </trkpt>
      <trkpt lat="50.12487" lon="3.7381">
        <ele>164.04</ele>
        <time>2014-04-06T09:23:23Z</time>
      </trkpt>
      <trkpt lat="50.12458" lon="3.73848">
        <ele>164.52</ele>
        <time>2014-04-06T09:23:34Z</time>
      </trkpt>
      <trkpt lat="50.12416" lon="3.73905">
        <ele>165.96</ele>
        <time>2014-04-06T09:23:50Z</time>
      </trkpt>
      <trkpt lat="50.12406" lon="3.73932">
        <ele>164.52</ele>
        <time>2014-04-06T09:23:55Z</time>
      </trkpt>
      <trkpt lat="50.12402" lon="3.73945">
        <ele>164.04</ele>
        <time>2014-04-06T09:23:57Z</time>
      </trkpt>
      <trkpt lat="50.12399" lon="3.73958">
        <ele>164.04</ele>
        <time>2014-04-06T09:23:59Z</time>
      </trkpt>
      <trkpt lat="50.12395" lon="3.73976">
        <ele>163.56</ele>
        <time>2014-04-06T09:24:02Z</time>
      </trkpt>
      <trkpt lat="50.12393" lon="3.73983">
        <ele>163.56</ele>
        <time>2014-04-06T09:24:03Z</time>
      </trkpt>
      <trkpt lat="50.12392" lon="3.73989">
        <ele>163.56</ele>
        <time>2014-04-06T09:24:04Z</time>
      </trkpt>
      <trkpt lat="50.12377" lon="3.74107">
        <ele>162.12</ele>
        <time>2014-04-06T09:24:20Z</time>
      </trkpt>
      <trkpt lat="50.12368" lon="3.7419">
        <ele>162.12</ele>
        <time>2014-04-06T09:24:30Z</time>
      </trkpt>
      <trkpt lat="50.12368" lon="3.74198">
        <ele>162.12</ele>
        <time>2014-04-06T09:24:31Z</time>
      </trkpt>
      <trkpt lat="50.12358" lon="3.74285">
        <ele>160.68</ele>
        <time>2014-04-06T09:24:45Z</time>
      </trkpt>
      <trkpt lat="50.12336" lon="3.74383">
        <ele>157.31</ele>
        <time>2014-04-06T09:24:57Z</time>
      </trkpt>
      <trkpt lat="50.12311" lon="3.74459">
        <ele>154.43</ele>
        <time>2014-04-06T09:25:07Z</time>
      </trkpt>
      <trkpt lat="50.12308" lon="3.74467">
        <ele>153.95</ele>
        <time>2014-04-06T09:25:08Z</time>
      </trkpt>
      <trkpt lat="50.12306" lon="3.74476">
        <ele>153.95</ele>
        <time>2014-04-06T09:25:09Z</time>
      </trkpt>
      <trkpt lat="50.12306" lon="3.74485">
        <ele>153.47</ele>
        <time>2014-04-06T09:25:10Z</time>
      </trkpt>
      <trkpt lat="50.12306" lon="3.74495">
        <ele>153.47</ele>
        <time>2014-04-06T09:25:11Z</time>
      </trkpt>
      <trkpt lat="50.12311" lon="3.74555">
        <ele>152.99</ele>
        <time>2014-04-06T09:25:18Z</time>
      </trkpt>
      <trkpt lat="50.12309" lon="3.74586">
        <ele>152.99</ele>
        <time>2014-04-06T09:25:22Z</time>
      </trkpt>
      <trkpt lat="50.12307" lon="3.74601">
        <ele>152.99</ele>
        <time>2014-04-06T09:25:24Z</time>
      </trkpt>
      <trkpt lat="50.12305" lon="3.74613">
        <ele>152.99</ele>
        <time>2014-04-06T09:25:26Z</time>
      </trkpt>
      <trkpt lat="50.12301" lon="3.74624">
        <ele>154.43</ele>
        <time>2014-04-06T09:25:28Z</time>
      </trkpt>
      <trkpt lat="50.12292" lon="3.74661">
        <ele>154.43</ele>
        <time>2014-04-06T09:25:34Z</time>
      </trkpt>
      <trkpt lat="50.12284" lon="3.74705">
        <ele>152.99</ele>
        <time>2014-04-06T09:25:40Z</time>
      </trkpt>
      <trkpt lat="50.1225" lon="3.74811">
        <ele>151.06</ele>
        <time>2014-04-06T09:25:55Z</time>
      </trkpt>
      <trkpt lat="50.1224" lon="3.74848">
        <ele>150.58</ele>
        <time>2014-04-06T09:26:00Z</time>
      </trkpt>
      <trkpt lat="50.12239" lon="3.74857">
        <ele>150.58</ele>
        <time>2014-04-06T09:26:01Z</time>
      </trkpt>
      <trkpt lat="50.12239" lon="3.74865">
        <ele>150.58</ele>
        <time>2014-04-06T09:26:02Z</time>
      </trkpt>
      <trkpt lat="50.12241" lon="3.74874">
        <ele>150.58</ele>
        <time>2014-04-06T09:26:03Z</time>
      </trkpt>
      <trkpt lat="50.12243" lon="3.74881">
        <ele>150.1</ele>
        <time>2014-04-06T09:26:04Z</time>
      </trkpt>
      <trkpt lat="50.12247" lon="3.74888">
        <ele>150.1</ele>
        <time>2014-04-06T09:26:05Z</time>
      </trkpt>
      <trkpt lat="50.12252" lon="3.74892">
        <ele>149.62</ele>
        <time>2014-04-06T09:26:06Z</time>
      </trkpt>
      <trkpt lat="50.12258" lon="3.74894">
        <ele>149.14</ele>
        <time>2014-04-06T09:26:07Z</time>
      </trkpt>
      <trkpt lat="50.12264" lon="3.74896">
        <ele>148.66</ele>
        <time>2014-04-06T09:26:08Z</time>
      </trkpt>
      <trkpt lat="50.12357" lon="3.74929">
        <ele>146.26</ele>
        <time>2014-04-06T09:26:22Z</time>
      </trkpt>
      <trkpt lat="50.12363" lon="3.74928">
        <ele>146.26</ele>
        <time>2014-04-06T09:26:23Z</time>
      </trkpt>
      <trkpt lat="50.12369" lon="3.74925">
        <ele>146.26</ele>
        <time>2014-04-06T09:26:24Z</time>
      </trkpt>
      <trkpt lat="50.12392" lon="3.74911">
        <ele>145.78</ele>
        <time>2014-04-06T09:26:28Z</time>
      </trkpt>
      <trkpt lat="50.12397" lon="3.74909">
        <ele>145.3</ele>
        <time>2014-04-06T09:26:29Z</time>
      </trkpt>
      <trkpt lat="50.12403" lon="3.74907">
        <ele>145.3</ele>
        <time>2014-04-06T09:26:30Z</time>
      </trkpt>
      <trkpt lat="50.12409" lon="3.74907">
        <ele>145.3</ele>
        <time>2014-04-06T09:26:31Z</time>
      </trkpt>
      <trkpt lat="50.12415" lon="3.74907">
        <ele>144.82</ele>
        <time>2014-04-06T09:26:32Z</time>
      </trkpt>
      <trkpt lat="50.12485" lon="3.74913">
        <ele>143.37</ele>
        <time>2014-04-06T09:26:44Z</time>
      </trkpt>
      <trkpt lat="50.12511" lon="3.7491">
        <ele>142.89</ele>
        <time>2014-04-06T09:26:49Z</time>
      </trkpt>
      <trkpt lat="50.12525" lon="3.74903">
        <ele>142.89</ele>
        <time>2014-04-06T09:26:52Z</time>
      </trkpt>
      <trkpt lat="50.1253" lon="3.749">
        <ele>142.89</ele>
        <time>2014-04-06T09:26:53Z</time>
      </trkpt>
      <trkpt lat="50.12535" lon="3.74899">
        <ele>142.89</ele>
        <time>2014-04-06T09:26:54Z</time>
      </trkpt>
      <trkpt lat="50.12603" lon="3.74889">
        <ele>140.97</ele>
        <time>2014-04-06T09:27:06Z</time>
      </trkpt>
      <trkpt lat="50.12608" lon="3.7489">
        <ele>140.49</ele>
        <time>2014-04-06T09:27:07Z</time>
      </trkpt>
      <trkpt lat="50.12613" lon="3.74891">
        <ele>140.49</ele>
        <time>2014-04-06T09:27:08Z</time>
      </trkpt>
      <trkpt lat="50.12618" lon="3.74891">
        <ele>140.49</ele>
        <time>2014-04-06T09:27:09Z</time>
      </trkpt>
      <trkpt lat="50.12624" lon="3.74892">
        <ele>140.49</ele>
        <time>2014-04-06T09:27:10Z</time>
      </trkpt>
      <trkpt lat="50.12629" lon="3.74892">
        <ele>140.01</ele>
        <time>2014-04-06T09:27:11Z</time>
      </trkpt>
      <trkpt lat="50.12635" lon="3.74894">
        <ele>140.01</ele>
        <time>2014-04-06T09:27:12Z</time>
      </trkpt>
      <trkpt lat="50.12678" lon="3.74911">
        <ele>139.53</ele>
        <time>2014-04-06T09:27:20Z</time>
      </trkpt>
      <trkpt lat="50.12682" lon="3.74912">
        <ele>139.53</ele>
        <time>2014-04-06T09:27:21Z</time>
      </trkpt>
      <trkpt lat="50.12712" lon="3.74922">
        <ele>139.05</ele>
        <time>2014-04-06T09:27:27Z</time>
      </trkpt>
      <trkpt lat="50.12744" lon="3.74933">
        <ele>139.05</ele>
        <time>2014-04-06T09:27:33Z</time>
      </trkpt>
      <trkpt lat="50.1276" lon="3.74939">
        <ele>139.05</ele>
        <time>2014-04-06T09:27:36Z</time>
      </trkpt>
      <trkpt lat="50.12765" lon="3.74942">
        <ele>139.05</ele>
        <time>2014-04-06T09:27:37Z</time>
      </trkpt>
      <trkpt lat="50.1281" lon="3.7499">
        <ele>138.57</ele>
        <time>2014-04-06T09:27:48Z</time>
      </trkpt>
      <trkpt lat="50.12813" lon="3.74994">
        <ele>138.57</ele>
        <time>2014-04-06T09:27:49Z</time>
      </trkpt>
      <trkpt lat="50.12816" lon="3.74998">
        <ele>138.57</ele>
        <time>2014-04-06T09:27:50Z</time>
      </trkpt>
      <trkpt lat="50.12817" lon="3.75003">
        <ele>138.57</ele>
        <time>2014-04-06T09:27:51Z</time>
      </trkpt>
      <trkpt lat="50.12818" lon="3.75008">
        <ele>138.57</ele>
        <time>2014-04-06T09:27:52Z</time>
      </trkpt>
      <trkpt lat="50.12818" lon="3.75012">
        <ele>138.57</ele>
        <time>2014-04-06T09:27:53Z</time>
      </trkpt>
      <trkpt lat="50.12816" lon="3.75016">
        <ele>138.57</ele>
        <time>2014-04-06T09:27:54Z</time>
      </trkpt>
      <trkpt lat="50.12815" lon="3.7502">
        <ele>138.57</ele>
        <time>2014-04-06T09:27:55Z</time>
      </trkpt>
      <trkpt lat="50.12814" lon="3.75025">
        <ele>138.57</ele>
        <time>2014-04-06T09:27:56Z</time>
      </trkpt>
      <trkpt lat="50.12811" lon="3.7504">
        <ele>140.01</ele>
        <time>2014-04-06T09:27:59Z</time>
      </trkpt>
      <trkpt lat="50.12807" lon="3.75094">
        <ele>138.57</ele>
        <time>2014-04-06T09:28:11Z</time>
      </trkpt>
      <trkpt lat="50.1281" lon="3.75137">
        <ele>138.57</ele>
        <time>2014-04-06T09:28:21Z</time>
      </trkpt>
      <trkpt lat="50.12812" lon="3.75144">
        <ele>138.57</ele>
        <time>2014-04-06T09:28:22Z</time>
      </trkpt>
      <trkpt lat="50.12814" lon="3.75151">
        <ele>138.57</ele>
        <time>2014-04-06T09:28:23Z</time>
      </trkpt>
      <trkpt lat="50.12856" lon="3.75277">
        <ele>138.09</ele>
        <time>2014-04-06T09:28:40Z</time>
      </trkpt>
      <trkpt lat="50.12884" lon="3.75386">
        <ele>137.61</ele>
        <time>2014-04-06T09:28:55Z</time>
      </trkpt>
      <trkpt lat="50.12901" lon="3.75514">
        <ele>137.61</ele>
        <time>2014-04-06T09:29:11Z</time>
      </trkpt>
      <trkpt lat="50.12921" lon="3.75647">
        <ele>137.61</ele>
        <time>2014-04-06T09:29:28Z</time>
      </trkpt>
      <trkpt lat="50.12924" lon="3.75675">
        <ele>137.61</ele>
        <time>2014-04-06T09:29:32Z</time>
      </trkpt>
      <trkpt lat="50.12931" lon="3.75812">
        <ele>138.57</ele>
        <time>2014-04-06T09:29:49Z</time>
      </trkpt>
      <trkpt lat="50.12917" lon="3.75921">
        <ele>138.57</ele>
        <time>2014-04-06T09:30:02Z</time>
      </trkpt>
      <trkpt lat="50.12908" lon="3.75977">
        <ele>138.09</ele>
        <time>2014-04-06T09:30:09Z</time>
      </trkpt>
      <trkpt lat="50.12907" lon="3.75991">
        <ele>138.09</ele>
        <time>2014-04-06T09:30:11Z</time>
      </trkpt>
      <trkpt lat="50.12909" lon="3.75996">
        <ele>138.09</ele>
        <time>2014-04-06T09:30:12Z</time>
      </trkpt>
      <trkpt lat="50.12912" lon="3.76">
        <ele>138.09</ele>
        <time>2014-04-06T09:30:13Z</time>
      </trkpt>
      <trkpt lat="50.12915" lon="3.76002">
        <ele>138.09</ele>
        <time>2014-04-06T09:30:14Z</time>
      </trkpt>
      <trkpt lat="50.1292" lon="3.76003">
        <ele>138.09</ele>
        <time>2014-04-06T09:30:15Z</time>
      </trkpt>
      <trkpt lat="50.12924" lon="3.76004">
        <ele>138.09</ele>
        <time>2014-04-06T09:30:16Z</time>
      </trkpt>
      <trkpt lat="50.12946" lon="3.76007">
        <ele>138.09</ele>
        <time>2014-04-06T09:30:20Z</time>
      </trkpt>
      <trkpt lat="50.13037" lon="3.75995">
        <ele>138.09</ele>
        <time>2014-04-06T09:30:37Z</time>
      </trkpt>
      <trkpt lat="50.13104" lon="3.75986">
        <ele>138.09</ele>
        <time>2014-04-06T09:30:49Z</time>
      </trkpt>
      <trkpt lat="50.1311" lon="3.75983">
        <ele>138.09</ele>
        <time>2014-04-06T09:30:50Z</time>
      </trkpt>
      <trkpt lat="50.13115" lon="3.7598">
        <ele>138.09</ele>
        <time>2014-04-06T09:30:51Z</time>
      </trkpt>
      <trkpt lat="50.1312" lon="3.75975">
        <ele>138.09</ele>
        <time>2014-04-06T09:30:52Z</time>
      </trkpt>
      <trkpt lat="50.13125" lon="3.75971">
        <ele>138.09</ele>
        <time>2014-04-06T09:30:53Z</time>
      </trkpt>
      <trkpt lat="50.13149" lon="3.7595">
        <ele>138.09</ele>
        <time>2014-04-06T09:30:58Z</time>
      </trkpt>
      <trkpt lat="50.13175" lon="3.75933">
        <ele>138.09</ele>
        <time>2014-04-06T09:31:03Z</time>
      </trkpt>
      <trkpt lat="50.13213" lon="3.75913">
        <ele>137.61</ele>
        <time>2014-04-06T09:31:10Z</time>
      </trkpt>
      <trkpt lat="50.13218" lon="3.75909">
        <ele>139.05</ele>
        <time>2014-04-06T09:31:11Z</time>
      </trkpt>
      <trkpt lat="50.13222" lon="3.75905">
        <ele>139.05</ele>
        <time>2014-04-06T09:31:12Z</time>
      </trkpt>
      <trkpt lat="50.13236" lon="3.75895">
        <ele>139.05</ele>
        <time>2014-04-06T09:31:15Z</time>
      </trkpt>
      <trkpt lat="50.13258" lon="3.75884">
        <ele>140.01</ele>
        <time>2014-04-06T09:31:21Z</time>
      </trkpt>
      <trkpt lat="50.13263" lon="3.75885">
        <ele>140.01</ele>
        <time>2014-04-06T09:31:23Z</time>
      </trkpt>
      <trkpt lat="50.13269" lon="3.75885">
        <ele>138.57</ele>
        <time>2014-04-06T09:31:27Z</time>
      </trkpt>
      <trkpt lat="50.13274" lon="3.75885">
        <ele>140.01</ele>
        <time>2014-04-06T09:31:36Z</time>
      </trkpt>
      <trkpt lat="50.13282" lon="3.75883">
        <ele>141.93</ele>
        <time>2014-04-06T09:31:51Z</time>
      </trkpt>
      <trkpt lat="50.13286" lon="3.75885">
        <ele>141.93</ele>
        <time>2014-04-06T09:31:54Z</time>
      </trkpt>
      <trkpt lat="50.13287" lon="3.75888">
        <ele>142.41</ele>
        <time>2014-04-06T09:31:55Z</time>
      </trkpt>
      <trkpt lat="50.13287" lon="3.75891">
        <ele>142.41</ele>
        <time>2014-04-06T09:31:56Z</time>
      </trkpt>
      <trkpt lat="50.13296" lon="3.75933">
        <ele>142.41</ele>
        <time>2014-04-06T09:32:04Z</time>
      </trkpt>
      <trkpt lat="50.13296" lon="3.75939">
        <ele>142.41</ele>
        <time>2014-04-06T09:32:05Z</time>
      </trkpt>
      <trkpt lat="50.13297" lon="3.75946">
        <ele>142.41</ele>
        <time>2014-04-06T09:32:06Z</time>
      </trkpt>
      <trkpt lat="50.13295" lon="3.75953">
        <ele>142.41</ele>
        <time>2014-04-06T09:32:07Z</time>
      </trkpt>
      <trkpt lat="50.13292" lon="3.7596">
        <ele>142.41</ele>
        <time>2014-04-06T09:32:08Z</time>
      </trkpt>
      <trkpt lat="50.13288" lon="3.75966">
        <ele>142.41</ele>
        <time>2014-04-06T09:32:09Z</time>
      </trkpt>
      <trkpt lat="50.13284" lon="3.75973">
        <ele>142.41</ele>
        <time>2014-04-06T09:32:10Z</time>
      </trkpt>
      <trkpt lat="50.1328" lon="3.75979">
        <ele>140.97</ele>
        <time>2014-04-06T09:32:11Z</time>
      </trkpt>
      <trkpt lat="50.13277" lon="3.75986">
        <ele>140.97</ele>
        <time>2014-04-06T09:32:12Z</time>
      </trkpt>
      <trkpt lat="50.13285" lon="3.76008">
        <ele>140.49</ele>
        <time>2014-04-06T09:32:17Z</time>
      </trkpt>
      <trkpt lat="50.13301" lon="3.76019">
        <ele>141.45</ele>
        <time>2014-04-06T09:32:22Z</time>
      </trkpt>
      <trkpt lat="50.13301" lon="3.76029">
        <ele>142.41</ele>
        <time>2014-04-06T09:32:24Z</time>
      </trkpt>
      <trkpt lat="50.13291" lon="3.76083">
        <ele>140.97</ele>
        <time>2014-04-06T09:32:33Z</time>
      </trkpt>
      <trkpt lat="50.13283" lon="3.76114">
        <ele>140.49</ele>
        <time>2014-04-06T09:32:38Z</time>
      </trkpt>
      <trkpt lat="50.13279" lon="3.76144">
        <ele>141.93</ele>
        <time>2014-04-06T09:32:44Z</time>
      </trkpt>
      <trkpt lat="50.1328" lon="3.76156">
        <ele>142.41</ele>
        <time>2014-04-06T09:32:48Z</time>
      </trkpt>
      <trkpt lat="50.13276" lon="3.76165">
        <ele>142.41</ele>
        <time>2014-04-06T09:32:51Z</time>
      </trkpt>
      <trkpt lat="50.13273" lon="3.76167">
        <ele>142.41</ele>
        <time>2014-04-06T09:32:52Z</time>
      </trkpt>
      <trkpt lat="50.13269" lon="3.76169">
        <ele>142.41</ele>
        <time>2014-04-06T09:32:53Z</time>
      </trkpt>
      <trkpt lat="50.13265" lon="3.76172">
        <ele>142.41</ele>
        <time>2014-04-06T09:32:54Z</time>
      </trkpt>
      <trkpt lat="50.1326" lon="3.76176">
        <ele>142.41</ele>
        <time>2014-04-06T09:32:55Z</time>
      </trkpt>
      <trkpt lat="50.13256" lon="3.7618">
        <ele>140.97</ele>
        <time>2014-04-06T09:32:56Z</time>
      </trkpt>
      <trkpt lat="50.13251" lon="3.76184">
        <ele>140.97</ele>
        <time>2014-04-06T09:32:57Z</time>
      </trkpt>
      <trkpt lat="50.1324" lon="3.76193">
        <ele>140.01</ele>
        <time>2014-04-06T09:32:59Z</time>
      </trkpt>
      <trkpt lat="50.13236" lon="3.76199">
        <ele>140.01</ele>
        <time>2014-04-06T09:33:00Z</time>
      </trkpt>
      <trkpt lat="50.13227" lon="3.76211">
        <ele>139.05</ele>
        <time>2014-04-06T09:33:02Z</time>
      </trkpt>
      <trkpt lat="50.13217" lon="3.7623">
        <ele>139.05</ele>
        <time>2014-04-06T09:33:05Z</time>
      </trkpt>
      <trkpt lat="50.13214" lon="3.76237">
        <ele>139.05</ele>
        <time>2014-04-06T09:33:06Z</time>
      </trkpt>
      <trkpt lat="50.1321" lon="3.76244">
        <ele>139.05</ele>
        <time>2014-04-06T09:33:07Z</time>
      </trkpt>
      <trkpt lat="50.13207" lon="3.7625">
        <ele>139.05</ele>
        <time>2014-04-06T09:33:08Z</time>
      </trkpt>
      <trkpt lat="50.13204" lon="3.76256">
        <ele>139.05</ele>
        <time>2014-04-06T09:33:09Z</time>
      </trkpt>
      <trkpt lat="50.13197" lon="3.76266">
        <ele>139.05</ele>
        <time>2014-04-06T09:33:11Z</time>
      </trkpt>
      <trkpt lat="50.13193" lon="3.76269">
        <ele>139.05</ele>
        <time>2014-04-06T09:33:12Z</time>
      </trkpt>
      <trkpt lat="50.13188" lon="3.76271">
        <ele>139.05</ele>
        <time>2014-04-06T09:33:13Z</time>
      </trkpt>
      <trkpt lat="50.13185" lon="3.76275">
        <ele>139.05</ele>
        <time>2014-04-06T09:33:14Z</time>
      </trkpt>
      <trkpt lat="50.13181" lon="3.76281">
        <ele>139.05</ele>
        <time>2014-04-06T09:33:15Z</time>
      </trkpt>
      <trkpt lat="50.13179" lon="3.76287">
        <ele>139.05</ele>
        <time>2014-04-06T09:33:16Z</time>
      </trkpt>
      <trkpt lat="50.13176" lon="3.76293">
        <ele>139.05</ele>
        <time>2014-04-06T09:33:17Z</time>
      </trkpt>
      <trkpt lat="50.13174" lon="3.76299">
        <ele>139.05</ele>
        <time>2014-04-06T09:33:18Z</time>
      </trkpt>
      <trkpt lat="50.13169" lon="3.7631">
        <ele>139.05</ele>
        <time>2014-04-06T09:33:20Z</time>
      </trkpt>
      <trkpt lat="50.13164" lon="3.76321">
        <ele>140.49</ele>
        <time>2014-04-06T09:33:22Z</time>
      </trkpt>
      <trkpt lat="50.13145" lon="3.76368">
        <ele>142.41</ele>
        <time>2014-04-06T09:33:33Z</time>
      </trkpt>
      <trkpt lat="50.13138" lon="3.76395">
        <ele>142.41</ele>
        <time>2014-04-06T09:33:39Z</time>
      </trkpt>
      <trkpt lat="50.13146" lon="3.7642">
        <ele>140.97</ele>
        <time>2014-04-06T09:33:46Z</time>
      </trkpt>
      <trkpt lat="50.13156" lon="3.76416">
        <ele>140.97</ele>
        <time>2014-04-06T09:33:51Z</time>
      </trkpt>
      <trkpt lat="50.13178" lon="3.76376">
        <ele>143.37</ele>
        <time>2014-04-06T09:34:03Z</time>
      </trkpt>
      <trkpt lat="50.13209" lon="3.76347">
        <ele>145.3</ele>
        <time>2014-04-06T09:34:16Z</time>
      </trkpt>
      <trkpt lat="50.13213" lon="3.76345">
        <ele>145.78</ele>
        <time>2014-04-06T09:34:18Z</time>
      </trkpt>
      <trkpt lat="50.13215" lon="3.76344">
        <ele>145.78</ele>
        <time>2014-04-06T09:34:19Z</time>
      </trkpt>
      <trkpt lat="50.13217" lon="3.76344">
        <ele>145.78</ele>
        <time>2014-04-06T09:34:20Z</time>
      </trkpt>
      <trkpt lat="50.13219" lon="3.76343">
        <ele>146.26</ele>
        <time>2014-04-06T09:34:21Z</time>
      </trkpt>
      <trkpt lat="50.13221" lon="3.76342">
        <ele>146.26</ele>
        <time>2014-04-06T09:34:22Z</time>
      </trkpt>
      <trkpt lat="50.13224" lon="3.76341">
        <ele>146.26</ele>
        <time>2014-04-06T09:34:23Z</time>
      </trkpt>
      <trkpt lat="50.13251" lon="3.76337">
        <ele>149.14</ele>
        <time>2014-04-06T09:34:34Z</time>
      </trkpt>
      <trkpt lat="50.13272" lon="3.76352">
        <ele>152.51</ele>
        <time>2014-04-06T09:34:43Z</time>
      </trkpt>
      <trkpt lat="50.13313" lon="3.76358">
        <ele>154.43</ele>
        <time>2014-04-06T09:34:58Z</time>
      </trkpt>
      <trkpt lat="50.13351" lon="3.76346">
        <ele>155.87</ele>
        <time>2014-04-06T09:35:12Z</time>
      </trkpt>
      <trkpt lat="50.13394" lon="3.76365">
        <ele>157.31</ele>
        <time>2014-04-06T09:35:28Z</time>
      </trkpt>
      <trkpt lat="50.13416" lon="3.76385">
        <ele>158.27</ele>
        <time>2014-04-06T09:35:37Z</time>
      </trkpt>
      <trkpt lat="50.13417" lon="3.76387">
        <ele>158.27</ele>
        <time>2014-04-06T09:35:38Z</time>
      </trkpt>
      <trkpt lat="50.13419" lon="3.76387">
        <ele>158.27</ele>
        <time>2014-04-06T09:35:39Z</time>
      </trkpt>
      <trkpt lat="50.1342" lon="3.76387">
        <ele>158.27</ele>
        <time>2014-04-06T09:35:40Z</time>
      </trkpt>
      <trkpt lat="50.13421" lon="3.76386">
        <ele>158.27</ele>
        <time>2014-04-06T09:35:41Z</time>
      </trkpt>
      <trkpt lat="50.13422" lon="3.76384">
        <ele>158.27</ele>
        <time>2014-04-06T09:35:42Z</time>
      </trkpt>
      <trkpt lat="50.13425" lon="3.7638">
        <ele>158.27</ele>
        <time>2014-04-06T09:35:53Z</time>
      </trkpt>
      <trkpt lat="50.13426" lon="3.76378">
        <ele>158.27</ele>
        <time>2014-04-06T09:36:04Z</time>
      </trkpt>
      <trkpt lat="50.13429" lon="3.76379">
        <ele>158.27</ele>
        <time>2014-04-06T09:36:25Z</time>
      </trkpt>
      <trkpt lat="50.13428" lon="3.76377">
        <ele>158.27</ele>
        <time>2014-04-06T09:36:44Z</time>
      </trkpt>
      <trkpt lat="50.13429" lon="3.76377">
        <ele>158.27</ele>
        <time>2014-04-06T09:37:04Z</time>
      </trkpt>
      <trkpt lat="50.13428" lon="3.76372">
        <ele>158.27</ele>
        <time>2014-04-06T09:37:20Z</time>
      </trkpt>
      <trkpt lat="50.13424" lon="3.76372">
        <ele>158.27</ele>
        <time>2014-04-06T09:37:47Z</time>
      </trkpt>
      <trkpt lat="50.13424" lon="3.76378">
        <ele>158.27</ele>
        <time>2014-04-06T09:38:09Z</time>
      </trkpt>
      <trkpt lat="50.13423" lon="3.76378">
        <ele>158.75</ele>
        <time>2014-04-06T09:38:39Z</time>
      </trkpt>
      <trkpt lat="50.13423" lon="3.7638">
        <ele>158.75</ele>
        <time>2014-04-06T09:39:10Z</time>
      </trkpt>
      <trkpt lat="50.13422" lon="3.7638">
        <ele>158.75</ele>
        <time>2014-04-06T09:39:24Z</time>
      </trkpt>
      <trkpt lat="50.13423" lon="3.76379">
        <ele>157.31</ele>
        <time>2014-04-06T09:39:38Z</time>
      </trkpt>
      <trkpt lat="50.13423" lon="3.7638">
        <ele>156.83</ele>
        <time>2014-04-06T09:39:40Z</time>
      </trkpt>
    </trkseg>
  </trk>
</gpx>